<?xml version="1.0" encoding="UTF-8" standalone="no" ?>
<gpx xmlns="http://www.topografix.com/GPX/1/1" xmlns:xsi="http://www.w3.org/2001/XMLSchema-instance" xsi:schemaLocation="http://www.topografix.com/GPX/1/1 http://www.topografix.com/GPX/1/1/gpx.xsd" version="1.1" creator="VisuGPX - https://www.visugpx.com">
  <metadata>
    <name>VTT Forest lacour à clapouse </name>
    <desc><![CDATA[Du forest lacour : début de la bayonnaise jusqu'au lac puis direction clapouse ]]></desc>
  </metadata>
  <trk>
    <name><![CDATA[N°84  Le Forest/Esparron par ancienne route/Clapouse par la pinée ACTIVE LOG 009]]></name>
    <trkseg>
      <trkpt lat="44.32925" lon="6.13056">
        <ele>794.1862793</ele>
        <time>2016-08-12T07:12:16Z</time>
      </trkpt>
      <trkpt lat="44.32922" lon="6.13062">
        <ele>799.9543457</ele>
        <time>2016-08-12T07:12:31Z</time>
      </trkpt>
      <trkpt lat="44.32922" lon="6.13062">
        <ele>822.0644531</ele>
        <time>2016-08-12T07:12:32Z</time>
      </trkpt>
      <trkpt lat="44.32922" lon="6.13062">
        <ele>821.5837402</ele>
        <time>2016-08-12T07:12:33Z</time>
      </trkpt>
      <trkpt lat="44.32922" lon="6.13062">
        <ele>821.1032715</ele>
        <time>2016-08-12T07:12:58Z</time>
      </trkpt>
      <trkpt lat="44.32921" lon="6.13062">
        <ele>817.7385254</ele>
        <time>2016-08-12T07:13:10Z</time>
      </trkpt>
      <trkpt lat="44.32922" lon="6.13062">
        <ele>814.8547363</ele>
        <time>2016-08-12T07:13:15Z</time>
      </trkpt>
      <trkpt lat="44.32922" lon="6.13062">
        <ele>813.8933105</ele>
        <time>2016-08-12T07:13:17Z</time>
      </trkpt>
      <trkpt lat="44.32922" lon="6.13062">
        <ele>811.0092773</ele>
        <time>2016-08-12T07:13:25Z</time>
      </trkpt>
      <trkpt lat="44.32922" lon="6.13062">
        <ele>807.6447754</ele>
        <time>2016-08-12T07:13:38Z</time>
      </trkpt>
      <trkpt lat="44.32922" lon="6.13063">
        <ele>804.2802734</ele>
        <time>2016-08-12T07:13:57Z</time>
      </trkpt>
      <trkpt lat="44.32921" lon="6.13063">
        <ele>801.3962402</ele>
        <time>2016-08-12T07:14:38Z</time>
      </trkpt>
      <trkpt lat="44.32921" lon="6.13066">
        <ele>800.9155273</ele>
        <time>2016-08-12T07:16:22Z</time>
      </trkpt>
      <trkpt lat="44.32923" lon="6.13068">
        <ele>801.3962402</ele>
        <time>2016-08-12T07:16:33Z</time>
      </trkpt>
      <trkpt lat="44.32924" lon="6.13068">
        <ele>801.8769531</ele>
        <time>2016-08-12T07:16:35Z</time>
      </trkpt>
      <trkpt lat="44.32934" lon="6.13116">
        <ele>800.9155273</ele>
        <time>2016-08-12T07:16:50Z</time>
      </trkpt>
      <trkpt lat="44.32942" lon="6.13188">
        <ele>798.512207</ele>
        <time>2016-08-12T07:16:59Z</time>
      </trkpt>
      <trkpt lat="44.32947" lon="6.13228">
        <ele>797.0703125</ele>
        <time>2016-08-12T07:17:03Z</time>
      </trkpt>
      <trkpt lat="44.3297" lon="6.1331">
        <ele>797.5510254</ele>
        <time>2016-08-12T07:17:15Z</time>
      </trkpt>
      <trkpt lat="44.32985" lon="6.1335">
        <ele>798.0317383</ele>
        <time>2016-08-12T07:17:26Z</time>
      </trkpt>
      <trkpt lat="44.32984" lon="6.13422">
        <ele>798.512207</ele>
        <time>2016-08-12T07:17:41Z</time>
      </trkpt>
      <trkpt lat="44.32958" lon="6.13461">
        <ele>799.9543457</ele>
        <time>2016-08-12T07:17:58Z</time>
      </trkpt>
      <trkpt lat="44.32911" lon="6.13506">
        <ele>799.4736328</ele>
        <time>2016-08-12T07:18:15Z</time>
      </trkpt>
      <trkpt lat="44.32891" lon="6.13524">
        <ele>800.4350586</ele>
        <time>2016-08-12T07:18:27Z</time>
      </trkpt>
      <trkpt lat="44.3287" lon="6.13555">
        <ele>803.3188477</ele>
        <time>2016-08-12T07:18:46Z</time>
      </trkpt>
      <trkpt lat="44.32851" lon="6.13586">
        <ele>806.2026367</ele>
        <time>2016-08-12T07:19:10Z</time>
      </trkpt>
      <trkpt lat="44.32837" lon="6.13614">
        <ele>809.5673828</ele>
        <time>2016-08-12T07:19:32Z</time>
      </trkpt>
      <trkpt lat="44.32821" lon="6.13644">
        <ele>812.451416</ele>
        <time>2016-08-12T07:19:56Z</time>
      </trkpt>
      <trkpt lat="44.328" lon="6.13676">
        <ele>815.8161621</ele>
        <time>2016-08-12T07:20:24Z</time>
      </trkpt>
      <trkpt lat="44.32778" lon="6.13701">
        <ele>819.1806641</ele>
        <time>2016-08-12T07:20:49Z</time>
      </trkpt>
      <trkpt lat="44.32754" lon="6.13713">
        <ele>821.5837402</ele>
        <time>2016-08-12T07:21:11Z</time>
      </trkpt>
      <trkpt lat="44.32726" lon="6.1373">
        <ele>824.4677734</ele>
        <time>2016-08-12T07:21:38Z</time>
      </trkpt>
      <trkpt lat="44.32702" lon="6.13753">
        <ele>827.3518066</ele>
        <time>2016-08-12T07:22:05Z</time>
      </trkpt>
      <trkpt lat="44.3269" lon="6.13785">
        <ele>830.2358398</ele>
        <time>2016-08-12T07:22:28Z</time>
      </trkpt>
      <trkpt lat="44.3269" lon="6.13826">
        <ele>833.1196289</ele>
        <time>2016-08-12T07:22:54Z</time>
      </trkpt>
      <trkpt lat="44.32684" lon="6.13862">
        <ele>836.484375</ele>
        <time>2016-08-12T07:23:17Z</time>
      </trkpt>
      <trkpt lat="44.3269" lon="6.13902">
        <ele>839.3681641</ele>
        <time>2016-08-12T07:23:42Z</time>
      </trkpt>
      <trkpt lat="44.32696" lon="6.1394">
        <ele>842.2521973</ele>
        <time>2016-08-12T07:24:07Z</time>
      </trkpt>
      <trkpt lat="44.32692" lon="6.13958">
        <ele>843.2133789</ele>
        <time>2016-08-12T07:24:18Z</time>
      </trkpt>
      <trkpt lat="44.32681" lon="6.13989">
        <ele>845.6169434</ele>
        <time>2016-08-12T07:24:39Z</time>
      </trkpt>
      <trkpt lat="44.32658" lon="6.13986">
        <ele>848.5007324</ele>
        <time>2016-08-12T07:24:59Z</time>
      </trkpt>
      <trkpt lat="44.32626" lon="6.13967">
        <ele>851.8654785</ele>
        <time>2016-08-12T07:25:27Z</time>
      </trkpt>
      <trkpt lat="44.32604" lon="6.1395">
        <ele>853.7880859</ele>
        <time>2016-08-12T07:25:48Z</time>
      </trkpt>
      <trkpt lat="44.32577" lon="6.13929">
        <ele>856.1911621</ele>
        <time>2016-08-12T07:26:14Z</time>
      </trkpt>
      <trkpt lat="44.32549" lon="6.13931">
        <ele>859.5559082</ele>
        <time>2016-08-12T07:26:41Z</time>
      </trkpt>
      <trkpt lat="44.32521" lon="6.13934">
        <ele>861.4787598</ele>
        <time>2016-08-12T07:27:06Z</time>
      </trkpt>
      <trkpt lat="44.325" lon="6.13905">
        <ele>864.8432617</ele>
        <time>2016-08-12T07:27:30Z</time>
      </trkpt>
      <trkpt lat="44.3248" lon="6.1389">
        <ele>867.246582</ele>
        <time>2016-08-12T07:27:49Z</time>
      </trkpt>
      <trkpt lat="44.32458" lon="6.13906">
        <ele>869.1691895</ele>
        <time>2016-08-12T07:28:12Z</time>
      </trkpt>
      <trkpt lat="44.32428" lon="6.13911">
        <ele>872.0529785</ele>
        <time>2016-08-12T07:28:36Z</time>
      </trkpt>
      <trkpt lat="44.32399" lon="6.13902">
        <ele>874.4562988</ele>
        <time>2016-08-12T07:29:00Z</time>
      </trkpt>
      <trkpt lat="44.32375" lon="6.13894">
        <ele>876.3791504</ele>
        <time>2016-08-12T07:29:20Z</time>
      </trkpt>
      <trkpt lat="44.3235" lon="6.1389">
        <ele>878.7824707</ele>
        <time>2016-08-12T07:29:42Z</time>
      </trkpt>
      <trkpt lat="44.32326" lon="6.13878">
        <ele>880.2243652</ele>
        <time>2016-08-12T07:30:03Z</time>
      </trkpt>
      <trkpt lat="44.323" lon="6.13837">
        <ele>883.1081543</ele>
        <time>2016-08-12T07:30:32Z</time>
      </trkpt>
      <trkpt lat="44.32288" lon="6.13831">
        <ele>883.5888672</ele>
        <time>2016-08-12T07:30:49Z</time>
      </trkpt>
      <trkpt lat="44.32286" lon="6.13833">
        <ele>883.5888672</ele>
        <time>2016-08-12T07:31:47Z</time>
      </trkpt>
      <trkpt lat="44.32282" lon="6.13831">
        <ele>883.5888672</ele>
        <time>2016-08-12T07:32:11Z</time>
      </trkpt>
      <trkpt lat="44.3226" lon="6.13838">
        <ele>885.5114746</ele>
        <time>2016-08-12T07:32:28Z</time>
      </trkpt>
      <trkpt lat="44.32233" lon="6.13842">
        <ele>888.3955078</ele>
        <time>2016-08-12T07:32:52Z</time>
      </trkpt>
      <trkpt lat="44.32215" lon="6.13846">
        <ele>890.798584</ele>
        <time>2016-08-12T07:33:07Z</time>
      </trkpt>
      <trkpt lat="44.32188" lon="6.13856">
        <ele>894.1635742</ele>
        <time>2016-08-12T07:33:33Z</time>
      </trkpt>
      <trkpt lat="44.32165" lon="6.13868">
        <ele>897.5280762</ele>
        <time>2016-08-12T07:33:56Z</time>
      </trkpt>
      <trkpt lat="44.32143" lon="6.13894">
        <ele>900.8925781</ele>
        <time>2016-08-12T07:34:22Z</time>
      </trkpt>
      <trkpt lat="44.32124" lon="6.13922">
        <ele>903.7766113</ele>
        <time>2016-08-12T07:34:47Z</time>
      </trkpt>
      <trkpt lat="44.3211" lon="6.13943">
        <ele>906.1796875</ele>
        <time>2016-08-12T07:35:05Z</time>
      </trkpt>
      <trkpt lat="44.32096" lon="6.13977">
        <ele>909.5446777</ele>
        <time>2016-08-12T07:35:29Z</time>
      </trkpt>
      <trkpt lat="44.32087" lon="6.14014">
        <ele>912.9091797</ele>
        <time>2016-08-12T07:35:52Z</time>
      </trkpt>
      <trkpt lat="44.3208" lon="6.14046">
        <ele>915.7932129</ele>
        <time>2016-08-12T07:36:13Z</time>
      </trkpt>
      <trkpt lat="44.32075" lon="6.14077">
        <ele>919.1577148</ele>
        <time>2016-08-12T07:36:34Z</time>
      </trkpt>
      <trkpt lat="44.32074" lon="6.14091">
        <ele>920.1188965</ele>
        <time>2016-08-12T07:36:43Z</time>
      </trkpt>
      <trkpt lat="44.3207" lon="6.14123">
        <ele>923.4836426</ele>
        <time>2016-08-12T07:37:06Z</time>
      </trkpt>
      <trkpt lat="44.32051" lon="6.14151">
        <ele>925.40625</ele>
        <time>2016-08-12T07:37:31Z</time>
      </trkpt>
      <trkpt lat="44.32023" lon="6.14169">
        <ele>928.2902832</ele>
        <time>2016-08-12T07:37:57Z</time>
      </trkpt>
      <trkpt lat="44.32001" lon="6.1419">
        <ele>931.6547852</ele>
        <time>2016-08-12T07:38:22Z</time>
      </trkpt>
      <trkpt lat="44.31998" lon="6.14193">
        <ele>932.135498</ele>
        <time>2016-08-12T07:38:25Z</time>
      </trkpt>
      <trkpt lat="44.31993" lon="6.14228">
        <ele>935.0195313</ele>
        <time>2016-08-12T07:38:48Z</time>
      </trkpt>
      <trkpt lat="44.31984" lon="6.14258">
        <ele>937.9033203</ele>
        <time>2016-08-12T07:39:11Z</time>
      </trkpt>
      <trkpt lat="44.3197" lon="6.14278">
        <ele>940.3068848</ele>
        <time>2016-08-12T07:39:34Z</time>
      </trkpt>
      <trkpt lat="44.31962" lon="6.14277">
        <ele>941.2680664</ele>
        <time>2016-08-12T07:39:52Z</time>
      </trkpt>
      <trkpt lat="44.3195" lon="6.1428">
        <ele>941.7487793</ele>
        <time>2016-08-12T07:40:16Z</time>
      </trkpt>
      <trkpt lat="44.31933" lon="6.14283">
        <ele>944.1520996</ele>
        <time>2016-08-12T07:40:42Z</time>
      </trkpt>
      <trkpt lat="44.31931" lon="6.14285">
        <ele>944.1520996</ele>
        <time>2016-08-12T07:40:57Z</time>
      </trkpt>
      <trkpt lat="44.31917" lon="6.14316">
        <ele>946.5554199</ele>
        <time>2016-08-12T07:41:18Z</time>
      </trkpt>
      <trkpt lat="44.31903" lon="6.1434">
        <ele>949.9199219</ele>
        <time>2016-08-12T07:41:37Z</time>
      </trkpt>
      <trkpt lat="44.31885" lon="6.14374">
        <ele>952.322998</ele>
        <time>2016-08-12T07:42:00Z</time>
      </trkpt>
      <trkpt lat="44.31868" lon="6.14409">
        <ele>955.2070313</ele>
        <time>2016-08-12T07:42:23Z</time>
      </trkpt>
      <trkpt lat="44.31858" lon="6.14438">
        <ele>957.6105957</ele>
        <time>2016-08-12T07:42:42Z</time>
      </trkpt>
      <trkpt lat="44.31841" lon="6.14466">
        <ele>960.0136719</ele>
        <time>2016-08-12T07:43:05Z</time>
      </trkpt>
      <trkpt lat="44.31819" lon="6.145">
        <ele>962.8977051</ele>
        <time>2016-08-12T07:43:31Z</time>
      </trkpt>
      <trkpt lat="44.3181" lon="6.14528">
        <ele>964.8203125</ele>
        <time>2016-08-12T07:43:50Z</time>
      </trkpt>
      <trkpt lat="44.31805" lon="6.14534">
        <ele>965.3010254</ele>
        <time>2016-08-12T07:43:55Z</time>
      </trkpt>
      <trkpt lat="44.31797" lon="6.14532">
        <ele>966.262207</ele>
        <time>2016-08-12T07:44:10Z</time>
      </trkpt>
      <trkpt lat="44.31793" lon="6.1453">
        <ele>967.2236328</ele>
        <time>2016-08-12T07:44:28Z</time>
      </trkpt>
      <trkpt lat="44.31794" lon="6.14528">
        <ele>966.7429199</ele>
        <time>2016-08-12T07:44:53Z</time>
      </trkpt>
      <trkpt lat="44.31794" lon="6.14527">
        <ele>967.7041016</ele>
        <time>2016-08-12T07:46:14Z</time>
      </trkpt>
      <trkpt lat="44.31793" lon="6.14523">
        <ele>967.7041016</ele>
        <time>2016-08-12T07:46:30Z</time>
      </trkpt>
      <trkpt lat="44.31794" lon="6.14519">
        <ele>967.7041016</ele>
        <time>2016-08-12T07:46:39Z</time>
      </trkpt>
      <trkpt lat="44.31796" lon="6.14506">
        <ele>968.6655273</ele>
        <time>2016-08-12T07:46:47Z</time>
      </trkpt>
      <trkpt lat="44.31802" lon="6.14474">
        <ele>971.5493164</ele>
        <time>2016-08-12T07:47:09Z</time>
      </trkpt>
      <trkpt lat="44.31804" lon="6.14462">
        <ele>972.5109863</ele>
        <time>2016-08-12T07:47:28Z</time>
      </trkpt>
      <trkpt lat="44.31812" lon="6.14448">
        <ele>972.9916992</ele>
        <time>2016-08-12T07:47:39Z</time>
      </trkpt>
      <trkpt lat="44.31817" lon="6.14441">
        <ele>973.9528809</ele>
        <time>2016-08-12T07:47:45Z</time>
      </trkpt>
      <trkpt lat="44.31819" lon="6.14417">
        <ele>975.3947754</ele>
        <time>2016-08-12T07:47:59Z</time>
      </trkpt>
      <trkpt lat="44.31829" lon="6.14386">
        <ele>978.7595215</ele>
        <time>2016-08-12T07:48:18Z</time>
      </trkpt>
      <trkpt lat="44.31844" lon="6.14351">
        <ele>981.6433105</ele>
        <time>2016-08-12T07:48:39Z</time>
      </trkpt>
      <trkpt lat="44.31865" lon="6.14318">
        <ele>983.0852051</ele>
        <time>2016-08-12T07:49:00Z</time>
      </trkpt>
      <trkpt lat="44.31864" lon="6.14278">
        <ele>985.4885254</ele>
        <time>2016-08-12T07:49:24Z</time>
      </trkpt>
      <trkpt lat="44.31853" lon="6.14276">
        <ele>987.4111328</ele>
        <time>2016-08-12T07:49:33Z</time>
      </trkpt>
      <trkpt lat="44.3185" lon="6.14283">
        <ele>988.3728027</ele>
        <time>2016-08-12T07:49:37Z</time>
      </trkpt>
      <trkpt lat="44.31851" lon="6.14302">
        <ele>988.8535156</ele>
        <time>2016-08-12T07:49:47Z</time>
      </trkpt>
      <trkpt lat="44.31849" lon="6.14334">
        <ele>991.2565918</ele>
        <time>2016-08-12T07:50:05Z</time>
      </trkpt>
      <trkpt lat="44.31836" lon="6.14357">
        <ele>993.1791992</ele>
        <time>2016-08-12T07:50:22Z</time>
      </trkpt>
      <trkpt lat="44.31813" lon="6.14385">
        <ele>996.0632324</ele>
        <time>2016-08-12T07:50:44Z</time>
      </trkpt>
      <trkpt lat="44.31809" lon="6.14391">
        <ele>996.5439453</ele>
        <time>2016-08-12T07:50:49Z</time>
      </trkpt>
      <trkpt lat="44.31802" lon="6.14405">
        <ele>997.9858398</ele>
        <time>2016-08-12T07:50:59Z</time>
      </trkpt>
      <trkpt lat="44.31785" lon="6.1442">
        <ele>999.4277344</ele>
        <time>2016-08-12T07:51:15Z</time>
      </trkpt>
      <trkpt lat="44.31767" lon="6.14441">
        <ele>1002.3115234</ele>
        <time>2016-08-12T07:51:33Z</time>
      </trkpt>
      <trkpt lat="44.31755" lon="6.14479">
        <ele>1005.1958008</ele>
        <time>2016-08-12T07:51:55Z</time>
      </trkpt>
      <trkpt lat="44.31756" lon="6.14482">
        <ele>1005.1958008</ele>
        <time>2016-08-12T07:51:57Z</time>
      </trkpt>
      <trkpt lat="44.31743" lon="6.14507">
        <ele>1006.6376953</ele>
        <time>2016-08-12T07:52:13Z</time>
      </trkpt>
      <trkpt lat="44.31731" lon="6.1453">
        <ele>1008.5603027</ele>
        <time>2016-08-12T07:52:30Z</time>
      </trkpt>
      <trkpt lat="44.31718" lon="6.14549">
        <ele>1010.0021973</ele>
        <time>2016-08-12T07:52:46Z</time>
      </trkpt>
      <trkpt lat="44.31706" lon="6.14574">
        <ele>1012.4055176</ele>
        <time>2016-08-12T07:53:03Z</time>
      </trkpt>
      <trkpt lat="44.31697" lon="6.14611">
        <ele>1014.8088379</ele>
        <time>2016-08-12T07:53:24Z</time>
      </trkpt>
      <trkpt lat="44.31695" lon="6.1462">
        <ele>1015.7702637</ele>
        <time>2016-08-12T07:53:30Z</time>
      </trkpt>
      <trkpt lat="44.31693" lon="6.14628">
        <ele>1015.7702637</ele>
        <time>2016-08-12T07:53:34Z</time>
      </trkpt>
      <trkpt lat="44.31692" lon="6.14639">
        <ele>1016.7314453</ele>
        <time>2016-08-12T07:53:40Z</time>
      </trkpt>
      <trkpt lat="44.31693" lon="6.14643">
        <ele>1017.2121582</ele>
        <time>2016-08-12T07:53:42Z</time>
      </trkpt>
      <trkpt lat="44.31687" lon="6.14674">
        <ele>1019.1347656</ele>
        <time>2016-08-12T07:54:02Z</time>
      </trkpt>
      <trkpt lat="44.31685" lon="6.14708">
        <ele>1022.0187988</ele>
        <time>2016-08-12T07:54:23Z</time>
      </trkpt>
      <trkpt lat="44.31673" lon="6.14734">
        <ele>1024.902832</ele>
        <time>2016-08-12T07:54:45Z</time>
      </trkpt>
      <trkpt lat="44.31661" lon="6.14748">
        <ele>1027.3061523</ele>
        <time>2016-08-12T07:55:06Z</time>
      </trkpt>
      <trkpt lat="44.31654" lon="6.14759">
        <ele>1027.7866211</ele>
        <time>2016-08-12T07:55:29Z</time>
      </trkpt>
      <trkpt lat="44.31639" lon="6.14797">
        <ele>1031.1513672</ele>
        <time>2016-08-12T07:56:05Z</time>
      </trkpt>
      <trkpt lat="44.31638" lon="6.14796">
        <ele>1031.1513672</ele>
        <time>2016-08-12T07:56:19Z</time>
      </trkpt>
      <trkpt lat="44.31639" lon="6.14795">
        <ele>1032.5932617</ele>
        <time>2016-08-12T07:56:51Z</time>
      </trkpt>
      <trkpt lat="44.31638" lon="6.14795">
        <ele>1030.6706543</ele>
        <time>2016-08-12T07:56:53Z</time>
      </trkpt>
      <trkpt lat="44.31636" lon="6.14798">
        <ele>1031.6318359</ele>
        <time>2016-08-12T07:57:32Z</time>
      </trkpt>
      <trkpt lat="44.3162" lon="6.14811">
        <ele>1034.0351563</ele>
        <time>2016-08-12T07:57:53Z</time>
      </trkpt>
      <trkpt lat="44.31612" lon="6.14818">
        <ele>1034.996582</ele>
        <time>2016-08-12T07:58:12Z</time>
      </trkpt>
      <trkpt lat="44.31607" lon="6.14823">
        <ele>1035.4770508</ele>
        <time>2016-08-12T07:58:35Z</time>
      </trkpt>
      <trkpt lat="44.31607" lon="6.14823">
        <ele>1035.4770508</ele>
        <time>2016-08-12T07:58:36Z</time>
      </trkpt>
      <trkpt lat="44.31602" lon="6.14826">
        <ele>1035.4770508</ele>
        <time>2016-08-12T07:58:46Z</time>
      </trkpt>
      <trkpt lat="44.31598" lon="6.1483">
        <ele>1035.4770508</ele>
        <time>2016-08-12T07:59:01Z</time>
      </trkpt>
      <trkpt lat="44.31593" lon="6.14832">
        <ele>1035.9577637</ele>
        <time>2016-08-12T07:59:28Z</time>
      </trkpt>
      <trkpt lat="44.31581" lon="6.14847">
        <ele>1038.842041</ele>
        <time>2016-08-12T07:59:47Z</time>
      </trkpt>
      <trkpt lat="44.31555" lon="6.14864">
        <ele>1042.206543</ele>
        <time>2016-08-12T08:00:09Z</time>
      </trkpt>
      <trkpt lat="44.31532" lon="6.14869">
        <ele>1044.6096191</ele>
        <time>2016-08-12T08:00:28Z</time>
      </trkpt>
      <trkpt lat="44.31517" lon="6.14873">
        <ele>1046.0517578</ele>
        <time>2016-08-12T08:00:40Z</time>
      </trkpt>
      <trkpt lat="44.31511" lon="6.14879">
        <ele>1047.0129395</ele>
        <time>2016-08-12T08:00:47Z</time>
      </trkpt>
      <trkpt lat="44.31507" lon="6.14894">
        <ele>1048.9355469</ele>
        <time>2016-08-12T08:00:58Z</time>
      </trkpt>
      <trkpt lat="44.31507" lon="6.14897">
        <ele>1049.4162598</ele>
        <time>2016-08-12T08:01:00Z</time>
      </trkpt>
      <trkpt lat="44.31494" lon="6.14929">
        <ele>1051.3388672</ele>
        <time>2016-08-12T08:01:22Z</time>
      </trkpt>
      <trkpt lat="44.31493" lon="6.14935">
        <ele>1052.300293</ele>
        <time>2016-08-12T08:01:26Z</time>
      </trkpt>
      <trkpt lat="44.31492" lon="6.14938">
        <ele>1052.7810059</ele>
        <time>2016-08-12T08:01:28Z</time>
      </trkpt>
      <trkpt lat="44.31494" lon="6.14945">
        <ele>1053.2617188</ele>
        <time>2016-08-12T08:01:33Z</time>
      </trkpt>
      <trkpt lat="44.31497" lon="6.14972">
        <ele>1055.6650391</ele>
        <time>2016-08-12T08:01:50Z</time>
      </trkpt>
      <trkpt lat="44.31496" lon="6.14981">
        <ele>1056.1455078</ele>
        <time>2016-08-12T08:01:55Z</time>
      </trkpt>
      <trkpt lat="44.31493" lon="6.15003">
        <ele>1058.0683594</ele>
        <time>2016-08-12T08:02:09Z</time>
      </trkpt>
      <trkpt lat="44.31491" lon="6.15012">
        <ele>1058.5488281</ele>
        <time>2016-08-12T08:02:15Z</time>
      </trkpt>
      <trkpt lat="44.3149" lon="6.15038">
        <ele>1060.9521484</ele>
        <time>2016-08-12T08:02:36Z</time>
      </trkpt>
      <trkpt lat="44.31491" lon="6.15053">
        <ele>1062.8747559</ele>
        <time>2016-08-12T08:02:55Z</time>
      </trkpt>
      <trkpt lat="44.31493" lon="6.15069">
        <ele>1063.8359375</ele>
        <time>2016-08-12T08:03:11Z</time>
      </trkpt>
      <trkpt lat="44.31499" lon="6.1509">
        <ele>1066.2392578</ele>
        <time>2016-08-12T08:03:28Z</time>
      </trkpt>
      <trkpt lat="44.31502" lon="6.15115">
        <ele>1067.6811523</ele>
        <time>2016-08-12T08:03:43Z</time>
      </trkpt>
      <trkpt lat="44.31496" lon="6.15123">
        <ele>1069.604248</ele>
        <time>2016-08-12T08:03:53Z</time>
      </trkpt>
      <trkpt lat="44.31491" lon="6.15119">
        <ele>1070.0847168</ele>
        <time>2016-08-12T08:04:10Z</time>
      </trkpt>
      <trkpt lat="44.3149" lon="6.15118">
        <ele>1070.0847168</ele>
        <time>2016-08-12T08:04:11Z</time>
      </trkpt>
      <trkpt lat="44.31489" lon="6.1511">
        <ele>1071.0461426</ele>
        <time>2016-08-12T08:04:32Z</time>
      </trkpt>
      <trkpt lat="44.3149" lon="6.1511">
        <ele>1070.5654297</ele>
        <time>2016-08-12T08:04:42Z</time>
      </trkpt>
      <trkpt lat="44.31486" lon="6.15085">
        <ele>1071.5266113</ele>
        <time>2016-08-12T08:05:04Z</time>
      </trkpt>
      <trkpt lat="44.31478" lon="6.15068">
        <ele>1072.4880371</ele>
        <time>2016-08-12T08:05:20Z</time>
      </trkpt>
      <trkpt lat="44.31476" lon="6.15057">
        <ele>1072.96875</ele>
        <time>2016-08-12T08:05:33Z</time>
      </trkpt>
      <trkpt lat="44.31471" lon="6.15051">
        <ele>1072.96875</ele>
        <time>2016-08-12T08:05:50Z</time>
      </trkpt>
      <trkpt lat="44.31467" lon="6.15029">
        <ele>1073.9299316</ele>
        <time>2016-08-12T08:06:01Z</time>
      </trkpt>
      <trkpt lat="44.31465" lon="6.1499">
        <ele>1074.4106445</ele>
        <time>2016-08-12T08:06:20Z</time>
      </trkpt>
      <trkpt lat="44.31463" lon="6.14956">
        <ele>1074.8913574</ele>
        <time>2016-08-12T08:06:37Z</time>
      </trkpt>
      <trkpt lat="44.31464" lon="6.14923">
        <ele>1076.8139648</ele>
        <time>2016-08-12T08:06:54Z</time>
      </trkpt>
      <trkpt lat="44.31467" lon="6.14894">
        <ele>1078.2558594</ele>
        <time>2016-08-12T08:07:10Z</time>
      </trkpt>
      <trkpt lat="44.31463" lon="6.14889">
        <ele>1078.7365723</ele>
        <time>2016-08-12T08:07:15Z</time>
      </trkpt>
      <trkpt lat="44.31455" lon="6.14897">
        <ele>1079.6977539</ele>
        <time>2016-08-12T08:07:22Z</time>
      </trkpt>
      <trkpt lat="44.31452" lon="6.1491">
        <ele>1080.6591797</ele>
        <time>2016-08-12T08:07:30Z</time>
      </trkpt>
      <trkpt lat="44.31449" lon="6.14936">
        <ele>1082.1010742</ele>
        <time>2016-08-12T08:07:45Z</time>
      </trkpt>
      <trkpt lat="44.31447" lon="6.14964">
        <ele>1083.5429688</ele>
        <time>2016-08-12T08:08:00Z</time>
      </trkpt>
      <trkpt lat="44.31439" lon="6.15003">
        <ele>1086.4272461</ele>
        <time>2016-08-12T08:08:20Z</time>
      </trkpt>
      <trkpt lat="44.31441" lon="6.15027">
        <ele>1087.8691406</ele>
        <time>2016-08-12T08:08:34Z</time>
      </trkpt>
      <trkpt lat="44.31443" lon="6.15033">
        <ele>1088.3498535</ele>
        <time>2016-08-12T08:08:37Z</time>
      </trkpt>
      <trkpt lat="44.31447" lon="6.15069">
        <ele>1090.7529297</ele>
        <time>2016-08-12T08:08:58Z</time>
      </trkpt>
      <trkpt lat="44.31447" lon="6.1507">
        <ele>1090.7529297</ele>
        <time>2016-08-12T08:08:59Z</time>
      </trkpt>
      <trkpt lat="44.31447" lon="6.15075">
        <ele>1091.2336426</ele>
        <time>2016-08-12T08:09:02Z</time>
      </trkpt>
      <trkpt lat="44.31444" lon="6.15115">
        <ele>1093.6369629</ele>
        <time>2016-08-12T08:09:23Z</time>
      </trkpt>
      <trkpt lat="44.31442" lon="6.15133">
        <ele>1094.5981445</ele>
        <time>2016-08-12T08:09:33Z</time>
      </trkpt>
      <trkpt lat="44.31443" lon="6.15144">
        <ele>1095.5595703</ele>
        <time>2016-08-12T08:09:40Z</time>
      </trkpt>
      <trkpt lat="44.31434" lon="6.15178">
        <ele>1097.9628906</ele>
        <time>2016-08-12T08:09:58Z</time>
      </trkpt>
      <trkpt lat="44.3142" lon="6.15205">
        <ele>1100.3664551</ele>
        <time>2016-08-12T08:10:16Z</time>
      </trkpt>
      <trkpt lat="44.31418" lon="6.15214">
        <ele>1101.8083496</ele>
        <time>2016-08-12T08:10:22Z</time>
      </trkpt>
      <trkpt lat="44.31416" lon="6.15235">
        <ele>1103.730957</ele>
        <time>2016-08-12T08:10:36Z</time>
      </trkpt>
      <trkpt lat="44.31415" lon="6.15244">
        <ele>1104.2116699</ele>
        <time>2016-08-12T08:10:42Z</time>
      </trkpt>
      <trkpt lat="44.31402" lon="6.15271">
        <ele>1107.095459</ele>
        <time>2016-08-12T08:11:00Z</time>
      </trkpt>
      <trkpt lat="44.31388" lon="6.15295">
        <ele>1108.5373535</ele>
        <time>2016-08-12T08:11:19Z</time>
      </trkpt>
      <trkpt lat="44.3137" lon="6.15318">
        <ele>1110.4599609</ele>
        <time>2016-08-12T08:11:38Z</time>
      </trkpt>
      <trkpt lat="44.31361" lon="6.15345">
        <ele>1112.3825684</ele>
        <time>2016-08-12T08:11:57Z</time>
      </trkpt>
      <trkpt lat="44.31352" lon="6.1537">
        <ele>1113.8244629</ele>
        <time>2016-08-12T08:12:13Z</time>
      </trkpt>
      <trkpt lat="44.31334" lon="6.1537">
        <ele>1116.2280273</ele>
        <time>2016-08-12T08:12:29Z</time>
      </trkpt>
      <trkpt lat="44.31314" lon="6.15383">
        <ele>1118.6313477</ele>
        <time>2016-08-12T08:12:49Z</time>
      </trkpt>
      <trkpt lat="44.31313" lon="6.15386">
        <ele>1118.6313477</ele>
        <time>2016-08-12T08:12:51Z</time>
      </trkpt>
      <trkpt lat="44.31315" lon="6.1541">
        <ele>1120.5539551</ele>
        <time>2016-08-12T08:13:09Z</time>
      </trkpt>
      <trkpt lat="44.3132" lon="6.15431">
        <ele>1121.9958496</ele>
        <time>2016-08-12T08:13:22Z</time>
      </trkpt>
      <trkpt lat="44.31316" lon="6.15459">
        <ele>1124.8798828</ele>
        <time>2016-08-12T08:13:43Z</time>
      </trkpt>
      <trkpt lat="44.31297" lon="6.15442">
        <ele>1127.7636719</ele>
        <time>2016-08-12T08:14:02Z</time>
      </trkpt>
      <trkpt lat="44.31295" lon="6.15434">
        <ele>1128.2443848</ele>
        <time>2016-08-12T08:14:07Z</time>
      </trkpt>
      <trkpt lat="44.31291" lon="6.15424">
        <ele>1128.7250977</ele>
        <time>2016-08-12T08:14:13Z</time>
      </trkpt>
      <trkpt lat="44.31288" lon="6.15419">
        <ele>1128.7250977</ele>
        <time>2016-08-12T08:14:17Z</time>
      </trkpt>
      <trkpt lat="44.31285" lon="6.15403">
        <ele>1129.6862793</ele>
        <time>2016-08-12T08:14:27Z</time>
      </trkpt>
      <trkpt lat="44.31274" lon="6.15383">
        <ele>1131.128418</ele>
        <time>2016-08-12T08:14:42Z</time>
      </trkpt>
      <trkpt lat="44.31259" lon="6.15396">
        <ele>1133.0510254</ele>
        <time>2016-08-12T08:14:59Z</time>
      </trkpt>
      <trkpt lat="44.31262" lon="6.15407">
        <ele>1133.0510254</ele>
        <time>2016-08-12T08:15:05Z</time>
      </trkpt>
      <trkpt lat="44.31264" lon="6.15409">
        <ele>1133.5317383</ele>
        <time>2016-08-12T08:15:07Z</time>
      </trkpt>
      <trkpt lat="44.31266" lon="6.15414">
        <ele>1133.5317383</ele>
        <time>2016-08-12T08:15:11Z</time>
      </trkpt>
      <trkpt lat="44.31267" lon="6.15447">
        <ele>1135.4543457</ele>
        <time>2016-08-12T08:15:30Z</time>
      </trkpt>
      <trkpt lat="44.31251" lon="6.1547">
        <ele>1137.3769531</ele>
        <time>2016-08-12T08:15:49Z</time>
      </trkpt>
      <trkpt lat="44.31222" lon="6.15484">
        <ele>1140.2609863</ele>
        <time>2016-08-12T08:16:16Z</time>
      </trkpt>
      <trkpt lat="44.31195" lon="6.1549">
        <ele>1143.6254883</ele>
        <time>2016-08-12T08:16:39Z</time>
      </trkpt>
      <trkpt lat="44.3118" lon="6.15481">
        <ele>1144.5866699</ele>
        <time>2016-08-12T08:16:52Z</time>
      </trkpt>
      <trkpt lat="44.31176" lon="6.15475">
        <ele>1145.0673828</ele>
        <time>2016-08-12T08:16:57Z</time>
      </trkpt>
      <trkpt lat="44.31186" lon="6.15459">
        <ele>1145.5480957</ele>
        <time>2016-08-12T08:17:06Z</time>
      </trkpt>
      <trkpt lat="44.31188" lon="6.15456">
        <ele>1146.0288086</ele>
        <time>2016-08-12T08:17:09Z</time>
      </trkpt>
      <trkpt lat="44.31197" lon="6.15435">
        <ele>1148.4321289</ele>
        <time>2016-08-12T08:17:25Z</time>
      </trkpt>
      <trkpt lat="44.312" lon="6.1542">
        <ele>1149.3935547</ele>
        <time>2016-08-12T08:17:35Z</time>
      </trkpt>
      <trkpt lat="44.31202" lon="6.15413">
        <ele>1149.3935547</ele>
        <time>2016-08-12T08:17:39Z</time>
      </trkpt>
      <trkpt lat="44.31208" lon="6.15401">
        <ele>1150.3549805</ele>
        <time>2016-08-12T08:17:48Z</time>
      </trkpt>
      <trkpt lat="44.3121" lon="6.15393">
        <ele>1151.3161621</ele>
        <time>2016-08-12T08:17:53Z</time>
      </trkpt>
      <trkpt lat="44.31216" lon="6.15387">
        <ele>1152.2773438</ele>
        <time>2016-08-12T08:17:58Z</time>
      </trkpt>
      <trkpt lat="44.31221" lon="6.15363">
        <ele>1153.2387695</ele>
        <time>2016-08-12T08:18:14Z</time>
      </trkpt>
      <trkpt lat="44.31236" lon="6.15335">
        <ele>1154.6806641</ele>
        <time>2016-08-12T08:18:36Z</time>
      </trkpt>
      <trkpt lat="44.31237" lon="6.15331">
        <ele>1155.161377</ele>
        <time>2016-08-12T08:18:39Z</time>
      </trkpt>
      <trkpt lat="44.31234" lon="6.15323">
        <ele>1155.6420898</ele>
        <time>2016-08-12T08:18:44Z</time>
      </trkpt>
      <trkpt lat="44.31218" lon="6.15328">
        <ele>1157.5646973</ele>
        <time>2016-08-12T08:19:00Z</time>
      </trkpt>
      <trkpt lat="44.31203" lon="6.15357">
        <ele>1159.0065918</ele>
        <time>2016-08-12T08:19:21Z</time>
      </trkpt>
      <trkpt lat="44.31189" lon="6.1538">
        <ele>1160.9291992</ele>
        <time>2016-08-12T08:19:39Z</time>
      </trkpt>
      <trkpt lat="44.31172" lon="6.15397">
        <ele>1162.8518066</ele>
        <time>2016-08-12T08:19:55Z</time>
      </trkpt>
      <trkpt lat="44.31159" lon="6.15411">
        <ele>1164.7746582</ele>
        <time>2016-08-12T08:20:11Z</time>
      </trkpt>
      <trkpt lat="44.3115" lon="6.15423">
        <ele>1166.2165527</ele>
        <time>2016-08-12T08:20:22Z</time>
      </trkpt>
      <trkpt lat="44.31143" lon="6.1543">
        <ele>1167.6584473</ele>
        <time>2016-08-12T08:20:33Z</time>
      </trkpt>
      <trkpt lat="44.31121" lon="6.15421">
        <ele>1169.5812988</ele>
        <time>2016-08-12T08:20:50Z</time>
      </trkpt>
      <trkpt lat="44.31098" lon="6.15404">
        <ele>1171.984375</ele>
        <time>2016-08-12T08:21:14Z</time>
      </trkpt>
      <trkpt lat="44.3108" lon="6.15391">
        <ele>1175.348877</ele>
        <time>2016-08-12T08:21:33Z</time>
      </trkpt>
      <trkpt lat="44.31064" lon="6.15404">
        <ele>1177.2717285</ele>
        <time>2016-08-12T08:21:52Z</time>
      </trkpt>
      <trkpt lat="44.31055" lon="6.15416">
        <ele>1178.713623</ele>
        <time>2016-08-12T08:22:04Z</time>
      </trkpt>
      <trkpt lat="44.31028" lon="6.15415">
        <ele>1181.5976563</ele>
        <time>2016-08-12T08:22:29Z</time>
      </trkpt>
      <trkpt lat="44.31003" lon="6.15415">
        <ele>1184.9624023</ele>
        <time>2016-08-12T08:22:53Z</time>
      </trkpt>
      <trkpt lat="44.30977" lon="6.15413">
        <ele>1186.4042969</ele>
        <time>2016-08-12T08:23:14Z</time>
      </trkpt>
      <trkpt lat="44.30955" lon="6.15411">
        <ele>1189.7687988</ele>
        <time>2016-08-12T08:23:34Z</time>
      </trkpt>
      <trkpt lat="44.30941" lon="6.15404">
        <ele>1191.2106934</ele>
        <time>2016-08-12T08:23:48Z</time>
      </trkpt>
      <trkpt lat="44.30917" lon="6.1538">
        <ele>1194.0947266</ele>
        <time>2016-08-12T08:24:14Z</time>
      </trkpt>
      <trkpt lat="44.30898" lon="6.15352">
        <ele>1196.498291</ele>
        <time>2016-08-12T08:24:37Z</time>
      </trkpt>
      <trkpt lat="44.30895" lon="6.15343">
        <ele>1197.4594727</ele>
        <time>2016-08-12T08:24:43Z</time>
      </trkpt>
      <trkpt lat="44.30893" lon="6.15332">
        <ele>1198.4206543</ele>
        <time>2016-08-12T08:24:50Z</time>
      </trkpt>
      <trkpt lat="44.3089" lon="6.15328">
        <ele>1198.9013672</ele>
        <time>2016-08-12T08:24:53Z</time>
      </trkpt>
      <trkpt lat="44.30886" lon="6.15326">
        <ele>1198.9013672</ele>
        <time>2016-08-12T08:24:57Z</time>
      </trkpt>
      <trkpt lat="44.30878" lon="6.1533">
        <ele>1199.862793</ele>
        <time>2016-08-12T08:25:13Z</time>
      </trkpt>
      <trkpt lat="44.30878" lon="6.15329">
        <ele>1200.3435059</ele>
        <time>2016-08-12T08:25:44Z</time>
      </trkpt>
      <trkpt lat="44.30871" lon="6.15287">
        <ele>1200.8239746</ele>
        <time>2016-08-12T08:26:04Z</time>
      </trkpt>
      <trkpt lat="44.30869" lon="6.15242">
        <ele>1203.7080078</ele>
        <time>2016-08-12T08:26:26Z</time>
      </trkpt>
      <trkpt lat="44.30868" lon="6.15225">
        <ele>1204.6691895</ele>
        <time>2016-08-12T08:26:37Z</time>
      </trkpt>
      <trkpt lat="44.30868" lon="6.15219">
        <ele>1204.6691895</ele>
        <time>2016-08-12T08:26:40Z</time>
      </trkpt>
      <trkpt lat="44.30877" lon="6.15181">
        <ele>1206.111084</ele>
        <time>2016-08-12T08:27:00Z</time>
      </trkpt>
      <trkpt lat="44.30882" lon="6.15175">
        <ele>1206.111084</ele>
        <time>2016-08-12T08:27:05Z</time>
      </trkpt>
      <trkpt lat="44.30905" lon="6.15129">
        <ele>1208.5144043</ele>
        <time>2016-08-12T08:27:33Z</time>
      </trkpt>
      <trkpt lat="44.30919" lon="6.15107">
        <ele>1208.9951172</ele>
        <time>2016-08-12T08:27:51Z</time>
      </trkpt>
      <trkpt lat="44.30919" lon="6.15104">
        <ele>1208.5144043</ele>
        <time>2016-08-12T08:28:07Z</time>
      </trkpt>
      <trkpt lat="44.30921" lon="6.15104">
        <ele>1207.0725098</ele>
        <time>2016-08-12T08:28:31Z</time>
      </trkpt>
      <trkpt lat="44.30921" lon="6.15104">
        <ele>1208.9951172</ele>
        <time>2016-08-12T08:28:34Z</time>
      </trkpt>
      <trkpt lat="44.30922" lon="6.15104">
        <ele>1208.0339355</ele>
        <time>2016-08-12T08:28:52Z</time>
      </trkpt>
      <trkpt lat="44.30922" lon="6.15103">
        <ele>1209.4758301</ele>
        <time>2016-08-12T08:28:57Z</time>
      </trkpt>
      <trkpt lat="44.30923" lon="6.15103">
        <ele>1209.9562988</ele>
        <time>2016-08-12T08:29:09Z</time>
      </trkpt>
      <trkpt lat="44.30921" lon="6.15103">
        <ele>1209.4758301</ele>
        <time>2016-08-12T08:31:22Z</time>
      </trkpt>
      <trkpt lat="44.30921" lon="6.15103">
        <ele>1211.3984375</ele>
        <time>2016-08-12T08:31:28Z</time>
      </trkpt>
      <trkpt lat="44.3092" lon="6.15103">
        <ele>1209.4758301</ele>
        <time>2016-08-12T08:31:30Z</time>
      </trkpt>
      <trkpt lat="44.30918" lon="6.15102">
        <ele>1209.4758301</ele>
        <time>2016-08-12T08:31:42Z</time>
      </trkpt>
      <trkpt lat="44.30918" lon="6.15111">
        <ele>1209.4758301</ele>
        <time>2016-08-12T08:31:59Z</time>
      </trkpt>
      <trkpt lat="44.3092" lon="6.1511">
        <ele>1208.9951172</ele>
        <time>2016-08-12T08:32:17Z</time>
      </trkpt>
      <trkpt lat="44.3092" lon="6.15112">
        <ele>1209.4758301</ele>
        <time>2016-08-12T08:32:38Z</time>
      </trkpt>
      <trkpt lat="44.30919" lon="6.15113">
        <ele>1209.9562988</ele>
        <time>2016-08-12T08:32:53Z</time>
      </trkpt>
      <trkpt lat="44.30914" lon="6.15116">
        <ele>1209.4758301</ele>
        <time>2016-08-12T08:33:14Z</time>
      </trkpt>
      <trkpt lat="44.30914" lon="6.15116">
        <ele>1209.4758301</ele>
        <time>2016-08-12T08:33:25Z</time>
      </trkpt>
      <trkpt lat="44.30899" lon="6.151">
        <ele>1210.9177246</ele>
        <time>2016-08-12T08:33:38Z</time>
      </trkpt>
      <trkpt lat="44.30897" lon="6.15093">
        <ele>1211.3984375</ele>
        <time>2016-08-12T08:33:42Z</time>
      </trkpt>
      <trkpt lat="44.30896" lon="6.15085">
        <ele>1212.3598633</ele>
        <time>2016-08-12T08:33:46Z</time>
      </trkpt>
      <trkpt lat="44.30887" lon="6.15059">
        <ele>1216.2050781</ele>
        <time>2016-08-12T08:34:02Z</time>
      </trkpt>
      <trkpt lat="44.3089" lon="6.1503">
        <ele>1219.0891113</ele>
        <time>2016-08-12T08:34:18Z</time>
      </trkpt>
      <trkpt lat="44.30896" lon="6.14998">
        <ele>1220.5310059</ele>
        <time>2016-08-12T08:34:36Z</time>
      </trkpt>
      <trkpt lat="44.30896" lon="6.14967">
        <ele>1221.9729004</ele>
        <time>2016-08-12T08:34:54Z</time>
      </trkpt>
      <trkpt lat="44.30893" lon="6.14916">
        <ele>1223.8955078</ele>
        <time>2016-08-12T08:35:22Z</time>
      </trkpt>
      <trkpt lat="44.30888" lon="6.14875">
        <ele>1226.779541</ele>
        <time>2016-08-12T08:35:45Z</time>
      </trkpt>
      <trkpt lat="44.30869" lon="6.1484">
        <ele>1229.1828613</ele>
        <time>2016-08-12T08:36:09Z</time>
      </trkpt>
      <trkpt lat="44.30858" lon="6.14831">
        <ele>1230.625</ele>
        <time>2016-08-12T08:36:26Z</time>
      </trkpt>
      <trkpt lat="44.30852" lon="6.14818">
        <ele>1232.5476074</ele>
        <time>2016-08-12T08:36:42Z</time>
      </trkpt>
      <trkpt lat="44.30845" lon="6.14805">
        <ele>1235.9121094</ele>
        <time>2016-08-12T08:37:00Z</time>
      </trkpt>
      <trkpt lat="44.30825" lon="6.14805">
        <ele>1238.7961426</ele>
        <time>2016-08-12T08:37:25Z</time>
      </trkpt>
      <trkpt lat="44.30816" lon="6.1481">
        <ele>1240.2380371</ele>
        <time>2016-08-12T08:37:36Z</time>
      </trkpt>
      <trkpt lat="44.30798" lon="6.14814">
        <ele>1243.1218262</ele>
        <time>2016-08-12T08:37:58Z</time>
      </trkpt>
      <trkpt lat="44.30783" lon="6.14813">
        <ele>1244.5639648</ele>
        <time>2016-08-12T08:38:17Z</time>
      </trkpt>
      <trkpt lat="44.30768" lon="6.14821">
        <ele>1246.9672852</ele>
        <time>2016-08-12T08:38:37Z</time>
      </trkpt>
      <trkpt lat="44.30751" lon="6.14814">
        <ele>1249.3706055</ele>
        <time>2016-08-12T08:38:58Z</time>
      </trkpt>
      <trkpt lat="44.30737" lon="6.14816">
        <ele>1252.2543945</ele>
        <time>2016-08-12T08:39:19Z</time>
      </trkpt>
      <trkpt lat="44.30721" lon="6.14824">
        <ele>1255.1384277</ele>
        <time>2016-08-12T08:39:42Z</time>
      </trkpt>
      <trkpt lat="44.30708" lon="6.14829">
        <ele>1256.5803223</ele>
        <time>2016-08-12T08:39:57Z</time>
      </trkpt>
      <trkpt lat="44.30705" lon="6.14827">
        <ele>1257.0610352</ele>
        <time>2016-08-12T08:40:00Z</time>
      </trkpt>
      <trkpt lat="44.30704" lon="6.14814">
        <ele>1258.0224609</ele>
        <time>2016-08-12T08:40:11Z</time>
      </trkpt>
      <trkpt lat="44.30707" lon="6.14791">
        <ele>1260.4257813</ele>
        <time>2016-08-12T08:40:34Z</time>
      </trkpt>
      <trkpt lat="44.30718" lon="6.14772">
        <ele>1261.8679199</ele>
        <time>2016-08-12T08:40:57Z</time>
      </trkpt>
      <trkpt lat="44.30723" lon="6.14766">
        <ele>1263.3098145</ele>
        <time>2016-08-12T08:41:22Z</time>
      </trkpt>
      <trkpt lat="44.30733" lon="6.14746">
        <ele>1264.2709961</ele>
        <time>2016-08-12T08:41:50Z</time>
      </trkpt>
      <trkpt lat="44.30723" lon="6.14756">
        <ele>1264.751709</ele>
        <time>2016-08-12T08:42:18Z</time>
      </trkpt>
      <trkpt lat="44.30723" lon="6.14756">
        <ele>1265.2324219</ele>
        <time>2016-08-12T08:42:34Z</time>
      </trkpt>
      <trkpt lat="44.30717" lon="6.14759">
        <ele>1265.2324219</ele>
        <time>2016-08-12T08:43:06Z</time>
      </trkpt>
      <trkpt lat="44.30711" lon="6.14762">
        <ele>1266.1936035</ele>
        <time>2016-08-12T08:43:31Z</time>
      </trkpt>
      <trkpt lat="44.30703" lon="6.14766">
        <ele>1267.1550293</ele>
        <time>2016-08-12T08:43:51Z</time>
      </trkpt>
      <trkpt lat="44.30678" lon="6.14779">
        <ele>1270.0388184</ele>
        <time>2016-08-12T08:44:10Z</time>
      </trkpt>
      <trkpt lat="44.30666" lon="6.14795">
        <ele>1271.9614258</ele>
        <time>2016-08-12T08:44:25Z</time>
      </trkpt>
      <trkpt lat="44.30663" lon="6.14802">
        <ele>1271.9614258</ele>
        <time>2016-08-12T08:44:40Z</time>
      </trkpt>
      <trkpt lat="44.30655" lon="6.14823">
        <ele>1273.4035645</ele>
        <time>2016-08-12T08:44:57Z</time>
      </trkpt>
      <trkpt lat="44.3065" lon="6.1486">
        <ele>1276.7683105</ele>
        <time>2016-08-12T08:45:25Z</time>
      </trkpt>
      <trkpt lat="44.30651" lon="6.14876">
        <ele>1277.2490234</ele>
        <time>2016-08-12T08:45:36Z</time>
      </trkpt>
      <trkpt lat="44.30648" lon="6.1489">
        <ele>1277.7294922</ele>
        <time>2016-08-12T08:45:51Z</time>
      </trkpt>
      <trkpt lat="44.30647" lon="6.14889">
        <ele>1278.2102051</ele>
        <time>2016-08-12T08:46:19Z</time>
      </trkpt>
      <trkpt lat="44.30625" lon="6.14916">
        <ele>1280.6135254</ele>
        <time>2016-08-12T08:46:39Z</time>
      </trkpt>
      <trkpt lat="44.30613" lon="6.14949">
        <ele>1283.0166016</ele>
        <time>2016-08-12T08:47:00Z</time>
      </trkpt>
      <trkpt lat="44.30609" lon="6.14958">
        <ele>1283.9780273</ele>
        <time>2016-08-12T08:47:06Z</time>
      </trkpt>
      <trkpt lat="44.30591" lon="6.14969">
        <ele>1286.8618164</ele>
        <time>2016-08-12T08:47:23Z</time>
      </trkpt>
      <trkpt lat="44.30582" lon="6.14969">
        <ele>1288.3039551</ele>
        <time>2016-08-12T08:47:39Z</time>
      </trkpt>
      <trkpt lat="44.30564" lon="6.1496">
        <ele>1290.7070313</ele>
        <time>2016-08-12T08:48:01Z</time>
      </trkpt>
      <trkpt lat="44.3054" lon="6.14966">
        <ele>1292.630127</ele>
        <time>2016-08-12T08:48:22Z</time>
      </trkpt>
      <trkpt lat="44.30531" lon="6.14974">
        <ele>1294.5524902</ele>
        <time>2016-08-12T08:48:39Z</time>
      </trkpt>
      <trkpt lat="44.30523" lon="6.14981">
        <ele>1296.4753418</ele>
        <time>2016-08-12T08:48:52Z</time>
      </trkpt>
      <trkpt lat="44.30511" lon="6.14996">
        <ele>1298.878418</ele>
        <time>2016-08-12T08:49:12Z</time>
      </trkpt>
      <trkpt lat="44.30495" lon="6.15007">
        <ele>1300.8010254</ele>
        <time>2016-08-12T08:49:33Z</time>
      </trkpt>
      <trkpt lat="44.30483" lon="6.15014">
        <ele>1300.3205566</ele>
        <time>2016-08-12T08:49:48Z</time>
      </trkpt>
      <trkpt lat="44.30477" lon="6.15026">
        <ele>1300.8010254</ele>
        <time>2016-08-12T08:50:05Z</time>
      </trkpt>
      <trkpt lat="44.30473" lon="6.15046">
        <ele>1299.8398438</ele>
        <time>2016-08-12T08:50:29Z</time>
      </trkpt>
      <trkpt lat="44.30473" lon="6.15046">
        <ele>1301.7624512</ele>
        <time>2016-08-12T08:50:31Z</time>
      </trkpt>
      <trkpt lat="44.30473" lon="6.15046">
        <ele>1302.2429199</ele>
        <time>2016-08-12T08:50:48Z</time>
      </trkpt>
      <trkpt lat="44.30473" lon="6.15046">
        <ele>1302.2429199</ele>
        <time>2016-08-12T08:51:10Z</time>
      </trkpt>
      <trkpt lat="44.30473" lon="6.15047">
        <ele>1302.2429199</ele>
        <time>2016-08-12T08:51:39Z</time>
      </trkpt>
      <trkpt lat="44.30474" lon="6.15058">
        <ele>1302.7236328</ele>
        <time>2016-08-12T08:51:58Z</time>
      </trkpt>
      <trkpt lat="44.30474" lon="6.15058">
        <ele>1302.7236328</ele>
        <time>2016-08-12T08:51:59Z</time>
      </trkpt>
      <trkpt lat="44.30477" lon="6.151">
        <ele>1304.1657715</ele>
        <time>2016-08-12T08:52:18Z</time>
      </trkpt>
      <trkpt lat="44.30492" lon="6.15127">
        <ele>1304.6462402</ele>
        <time>2016-08-12T08:52:34Z</time>
      </trkpt>
      <trkpt lat="44.3051" lon="6.15157">
        <ele>1305.1269531</ele>
        <time>2016-08-12T08:52:52Z</time>
      </trkpt>
      <trkpt lat="44.30513" lon="6.15196">
        <ele>1306.5688477</ele>
        <time>2016-08-12T08:53:11Z</time>
      </trkpt>
      <trkpt lat="44.30508" lon="6.15239">
        <ele>1307.0495605</ele>
        <time>2016-08-12T08:53:31Z</time>
      </trkpt>
      <trkpt lat="44.30504" lon="6.15272">
        <ele>1308.0112305</ele>
        <time>2016-08-12T08:53:45Z</time>
      </trkpt>
      <trkpt lat="44.30499" lon="6.15284">
        <ele>1308.9724121</ele>
        <time>2016-08-12T08:54:00Z</time>
      </trkpt>
      <trkpt lat="44.3049" lon="6.1531">
        <ele>1311.3757324</ele>
        <time>2016-08-12T08:54:23Z</time>
      </trkpt>
      <trkpt lat="44.30485" lon="6.15326">
        <ele>1314.2595215</ele>
        <time>2016-08-12T08:54:42Z</time>
      </trkpt>
      <trkpt lat="44.30471" lon="6.1535">
        <ele>1315.7016602</ele>
        <time>2016-08-12T08:55:06Z</time>
      </trkpt>
      <trkpt lat="44.30467" lon="6.15362">
        <ele>1316.6628418</ele>
        <time>2016-08-12T08:55:17Z</time>
      </trkpt>
      <trkpt lat="44.30469" lon="6.15383">
        <ele>1318.1047363</ele>
        <time>2016-08-12T08:55:37Z</time>
      </trkpt>
      <trkpt lat="44.30467" lon="6.15397">
        <ele>1318.1047363</ele>
        <time>2016-08-12T08:55:51Z</time>
      </trkpt>
      <trkpt lat="44.3047" lon="6.15445">
        <ele>1319.546875</ele>
        <time>2016-08-12T08:56:15Z</time>
      </trkpt>
      <trkpt lat="44.30472" lon="6.15494">
        <ele>1319.0661621</ele>
        <time>2016-08-12T08:56:32Z</time>
      </trkpt>
      <trkpt lat="44.30471" lon="6.15498">
        <ele>1318.5854492</ele>
        <time>2016-08-12T08:56:34Z</time>
      </trkpt>
      <trkpt lat="44.30464" lon="6.15512">
        <ele>1319.546875</ele>
        <time>2016-08-12T08:56:42Z</time>
      </trkpt>
      <trkpt lat="44.30461" lon="6.1552">
        <ele>1320.9887695</ele>
        <time>2016-08-12T08:56:46Z</time>
      </trkpt>
      <trkpt lat="44.3046" lon="6.15528">
        <ele>1321.4692383</ele>
        <time>2016-08-12T08:56:50Z</time>
      </trkpt>
      <trkpt lat="44.30456" lon="6.15535">
        <ele>1321.4692383</ele>
        <time>2016-08-12T08:56:54Z</time>
      </trkpt>
      <trkpt lat="44.30453" lon="6.15567">
        <ele>1323.3920898</ele>
        <time>2016-08-12T08:57:10Z</time>
      </trkpt>
      <trkpt lat="44.30448" lon="6.15584">
        <ele>1324.3535156</ele>
        <time>2016-08-12T08:57:20Z</time>
      </trkpt>
      <trkpt lat="44.30444" lon="6.15587">
        <ele>1325.3146973</ele>
        <time>2016-08-12T08:57:23Z</time>
      </trkpt>
      <trkpt lat="44.30442" lon="6.1561">
        <ele>1327.2375488</ele>
        <time>2016-08-12T08:57:41Z</time>
      </trkpt>
      <trkpt lat="44.3044" lon="6.15622">
        <ele>1328.1987305</ele>
        <time>2016-08-12T08:57:54Z</time>
      </trkpt>
      <trkpt lat="44.30441" lon="6.1563">
        <ele>1329.1599121</ele>
        <time>2016-08-12T08:58:00Z</time>
      </trkpt>
      <trkpt lat="44.30441" lon="6.1565">
        <ele>1330.1213379</ele>
        <time>2016-08-12T08:58:16Z</time>
      </trkpt>
      <trkpt lat="44.30442" lon="6.15668">
        <ele>1333.005127</ele>
        <time>2016-08-12T08:58:33Z</time>
      </trkpt>
      <trkpt lat="44.30443" lon="6.15689">
        <ele>1335.8891602</ele>
        <time>2016-08-12T08:58:55Z</time>
      </trkpt>
      <trkpt lat="44.30441" lon="6.15713">
        <ele>1338.2924805</ele>
        <time>2016-08-12T08:59:18Z</time>
      </trkpt>
      <trkpt lat="44.3044" lon="6.15729">
        <ele>1339.2536621</ele>
        <time>2016-08-12T08:59:34Z</time>
      </trkpt>
      <trkpt lat="44.30439" lon="6.15736">
        <ele>1339.2536621</ele>
        <time>2016-08-12T08:59:40Z</time>
      </trkpt>
      <trkpt lat="44.30441" lon="6.15748">
        <ele>1340.6958008</ele>
        <time>2016-08-12T08:59:49Z</time>
      </trkpt>
      <trkpt lat="44.30438" lon="6.15766">
        <ele>1343.579834</ele>
        <time>2016-08-12T09:00:09Z</time>
      </trkpt>
      <trkpt lat="44.30433" lon="6.15775">
        <ele>1344.5410156</ele>
        <time>2016-08-12T09:00:33Z</time>
      </trkpt>
      <trkpt lat="44.30433" lon="6.15777">
        <ele>1345.0217285</ele>
        <time>2016-08-12T09:00:57Z</time>
      </trkpt>
      <trkpt lat="44.30434" lon="6.15776">
        <ele>1347.4250488</ele>
        <time>2016-08-12T09:03:04Z</time>
      </trkpt>
      <trkpt lat="44.30434" lon="6.15776">
        <ele>1345.5024414</ele>
        <time>2016-08-12T09:03:06Z</time>
      </trkpt>
      <trkpt lat="44.30436" lon="6.15784">
        <ele>1346.4638672</ele>
        <time>2016-08-12T09:03:23Z</time>
      </trkpt>
      <trkpt lat="44.30434" lon="6.1579">
        <ele>1346.4638672</ele>
        <time>2016-08-12T09:03:46Z</time>
      </trkpt>
      <trkpt lat="44.30433" lon="6.15807">
        <ele>1346.9443359</ele>
        <time>2016-08-12T09:03:54Z</time>
      </trkpt>
      <trkpt lat="44.30433" lon="6.15811">
        <ele>1347.4250488</ele>
        <time>2016-08-12T09:03:56Z</time>
      </trkpt>
      <trkpt lat="44.3043" lon="6.15832">
        <ele>1348.3862305</ele>
        <time>2016-08-12T09:04:07Z</time>
      </trkpt>
      <trkpt lat="44.30428" lon="6.1584">
        <ele>1348.8669434</ele>
        <time>2016-08-12T09:04:11Z</time>
      </trkpt>
      <trkpt lat="44.30427" lon="6.15844">
        <ele>1348.8669434</ele>
        <time>2016-08-12T09:04:13Z</time>
      </trkpt>
      <trkpt lat="44.30418" lon="6.1587">
        <ele>1351.2702637</ele>
        <time>2016-08-12T09:04:30Z</time>
      </trkpt>
      <trkpt lat="44.30407" lon="6.15891">
        <ele>1352.2314453</ele>
        <time>2016-08-12T09:04:44Z</time>
      </trkpt>
      <trkpt lat="44.30379" lon="6.15933">
        <ele>1351.2702637</ele>
        <time>2016-08-12T09:05:06Z</time>
      </trkpt>
      <trkpt lat="44.30354" lon="6.15957">
        <ele>1351.2702637</ele>
        <time>2016-08-12T09:05:23Z</time>
      </trkpt>
      <trkpt lat="44.3032" lon="6.1595">
        <ele>1351.2702637</ele>
        <time>2016-08-12T09:05:40Z</time>
      </trkpt>
      <trkpt lat="44.30292" lon="6.15949">
        <ele>1351.2702637</ele>
        <time>2016-08-12T09:05:56Z</time>
      </trkpt>
      <trkpt lat="44.30256" lon="6.15986">
        <ele>1351.7509766</ele>
        <time>2016-08-12T09:06:16Z</time>
      </trkpt>
      <trkpt lat="44.30247" lon="6.16017">
        <ele>1352.2314453</ele>
        <time>2016-08-12T09:06:29Z</time>
      </trkpt>
      <trkpt lat="44.30245" lon="6.16026">
        <ele>1352.7121582</ele>
        <time>2016-08-12T09:06:33Z</time>
      </trkpt>
      <trkpt lat="44.30237" lon="6.16046">
        <ele>1354.1542969</ele>
        <time>2016-08-12T09:06:44Z</time>
      </trkpt>
      <trkpt lat="44.30235" lon="6.16055">
        <ele>1354.6347656</ele>
        <time>2016-08-12T09:06:49Z</time>
      </trkpt>
      <trkpt lat="44.30234" lon="6.1606">
        <ele>1355.1154785</ele>
        <time>2016-08-12T09:06:52Z</time>
      </trkpt>
      <trkpt lat="44.3023" lon="6.16067">
        <ele>1356.0769043</ele>
        <time>2016-08-12T09:06:56Z</time>
      </trkpt>
      <trkpt lat="44.3023" lon="6.16074">
        <ele>1356.5576172</ele>
        <time>2016-08-12T09:07:00Z</time>
      </trkpt>
      <trkpt lat="44.30228" lon="6.16081">
        <ele>1357.0383301</ele>
        <time>2016-08-12T09:07:05Z</time>
      </trkpt>
      <trkpt lat="44.30226" lon="6.1611">
        <ele>1359.4416504</ele>
        <time>2016-08-12T09:07:20Z</time>
      </trkpt>
      <trkpt lat="44.30225" lon="6.16117">
        <ele>1359.9221191</ele>
        <time>2016-08-12T09:07:33Z</time>
      </trkpt>
      <trkpt lat="44.30222" lon="6.1613">
        <ele>1359.9221191</ele>
        <time>2016-08-12T09:07:48Z</time>
      </trkpt>
      <trkpt lat="44.30219" lon="6.16149">
        <ele>1361.3642578</ele>
        <time>2016-08-12T09:08:08Z</time>
      </trkpt>
      <trkpt lat="44.30219" lon="6.1615">
        <ele>1360.8835449</ele>
        <time>2016-08-12T09:08:18Z</time>
      </trkpt>
      <trkpt lat="44.30208" lon="6.16173">
        <ele>1362.3254395</ele>
        <time>2016-08-12T09:08:32Z</time>
      </trkpt>
      <trkpt lat="44.30189" lon="6.16207">
        <ele>1362.8061523</ele>
        <time>2016-08-12T09:08:52Z</time>
      </trkpt>
      <trkpt lat="44.3017" lon="6.16229">
        <ele>1363.767334</ele>
        <time>2016-08-12T09:09:07Z</time>
      </trkpt>
      <trkpt lat="44.30138" lon="6.16231">
        <ele>1365.2094727</ele>
        <time>2016-08-12T09:09:28Z</time>
      </trkpt>
      <trkpt lat="44.30116" lon="6.1624">
        <ele>1365.6901855</ele>
        <time>2016-08-12T09:09:43Z</time>
      </trkpt>
      <trkpt lat="44.30082" lon="6.16253">
        <ele>1366.6513672</ele>
        <time>2016-08-12T09:10:04Z</time>
      </trkpt>
      <trkpt lat="44.30044" lon="6.16247">
        <ele>1368.0932617</ele>
        <time>2016-08-12T09:10:28Z</time>
      </trkpt>
      <trkpt lat="44.30014" lon="6.16253">
        <ele>1370.496582</ele>
        <time>2016-08-12T09:10:50Z</time>
      </trkpt>
      <trkpt lat="44.29995" lon="6.16262">
        <ele>1371.9384766</ele>
        <time>2016-08-12T09:11:05Z</time>
      </trkpt>
      <trkpt lat="44.2999" lon="6.16306">
        <ele>1373.8613281</ele>
        <time>2016-08-12T09:11:26Z</time>
      </trkpt>
      <trkpt lat="44.2999" lon="6.16316">
        <ele>1373.8613281</ele>
        <time>2016-08-12T09:11:31Z</time>
      </trkpt>
      <trkpt lat="44.29989" lon="6.1632">
        <ele>1374.342041</ele>
        <time>2016-08-12T09:11:33Z</time>
      </trkpt>
      <trkpt lat="44.29989" lon="6.16324">
        <ele>1374.8227539</ele>
        <time>2016-08-12T09:11:35Z</time>
      </trkpt>
      <trkpt lat="44.29989" lon="6.16333">
        <ele>1375.3032227</ele>
        <time>2016-08-12T09:11:40Z</time>
      </trkpt>
      <trkpt lat="44.29989" lon="6.16339">
        <ele>1376.2646484</ele>
        <time>2016-08-12T09:11:44Z</time>
      </trkpt>
      <trkpt lat="44.29994" lon="6.16364">
        <ele>1378.1872559</ele>
        <time>2016-08-12T09:12:00Z</time>
      </trkpt>
      <trkpt lat="44.29998" lon="6.16372">
        <ele>1378.1872559</ele>
        <time>2016-08-12T09:12:06Z</time>
      </trkpt>
      <trkpt lat="44.30002" lon="6.16377">
        <ele>1379.1484375</ele>
        <time>2016-08-12T09:12:09Z</time>
      </trkpt>
      <trkpt lat="44.30004" lon="6.16384">
        <ele>1379.1484375</ele>
        <time>2016-08-12T09:12:14Z</time>
      </trkpt>
      <trkpt lat="44.30013" lon="6.16401">
        <ele>1381.5517578</ele>
        <time>2016-08-12T09:12:27Z</time>
      </trkpt>
      <trkpt lat="44.30014" lon="6.16404">
        <ele>1381.0712891</ele>
        <time>2016-08-12T09:12:29Z</time>
      </trkpt>
      <trkpt lat="44.30013" lon="6.16449">
        <ele>1383.4743652</ele>
        <time>2016-08-12T09:12:51Z</time>
      </trkpt>
      <trkpt lat="44.29996" lon="6.16482">
        <ele>1384.435791</ele>
        <time>2016-08-12T09:13:12Z</time>
      </trkpt>
      <trkpt lat="44.29967" lon="6.16516">
        <ele>1386.3583984</ele>
        <time>2016-08-12T09:13:36Z</time>
      </trkpt>
      <trkpt lat="44.29948" lon="6.16544">
        <ele>1387.800293</ele>
        <time>2016-08-12T09:13:53Z</time>
      </trkpt>
      <trkpt lat="44.29929" lon="6.16566">
        <ele>1388.7619629</ele>
        <time>2016-08-12T09:14:10Z</time>
      </trkpt>
      <trkpt lat="44.29921" lon="6.16576">
        <ele>1389.2424316</ele>
        <time>2016-08-12T09:14:17Z</time>
      </trkpt>
      <trkpt lat="44.29909" lon="6.16625">
        <ele>1390.6843262</ele>
        <time>2016-08-12T09:14:41Z</time>
      </trkpt>
      <trkpt lat="44.29896" lon="6.16678">
        <ele>1392.6071777</ele>
        <time>2016-08-12T09:15:06Z</time>
      </trkpt>
      <trkpt lat="44.29883" lon="6.16698">
        <ele>1393.5683594</ele>
        <time>2016-08-12T09:15:20Z</time>
      </trkpt>
      <trkpt lat="44.2987" lon="6.16742">
        <ele>1395.4909668</ele>
        <time>2016-08-12T09:15:43Z</time>
      </trkpt>
      <trkpt lat="44.29862" lon="6.1678">
        <ele>1397.4135742</ele>
        <time>2016-08-12T09:16:02Z</time>
      </trkpt>
      <trkpt lat="44.29861" lon="6.16787">
        <ele>1398.3747559</ele>
        <time>2016-08-12T09:16:06Z</time>
      </trkpt>
      <trkpt lat="44.29858" lon="6.16797">
        <ele>1399.3361816</ele>
        <time>2016-08-12T09:16:11Z</time>
      </trkpt>
      <trkpt lat="44.29858" lon="6.16808">
        <ele>1400.2976074</ele>
        <time>2016-08-12T09:16:17Z</time>
      </trkpt>
      <trkpt lat="44.29858" lon="6.16838">
        <ele>1400.7780762</ele>
        <time>2016-08-12T09:16:31Z</time>
      </trkpt>
      <trkpt lat="44.29845" lon="6.16894">
        <ele>1402.2199707</ele>
        <time>2016-08-12T09:16:54Z</time>
      </trkpt>
      <trkpt lat="44.29824" lon="6.1692">
        <ele>1402.2199707</ele>
        <time>2016-08-12T09:17:09Z</time>
      </trkpt>
      <trkpt lat="44.29799" lon="6.16943">
        <ele>1404.1430664</ele>
        <time>2016-08-12T09:17:28Z</time>
      </trkpt>
      <trkpt lat="44.29784" lon="6.16966">
        <ele>1406.5461426</ele>
        <time>2016-08-12T09:17:46Z</time>
      </trkpt>
      <trkpt lat="44.29773" lon="6.16992">
        <ele>1408.46875</ele>
        <time>2016-08-12T09:18:02Z</time>
      </trkpt>
      <trkpt lat="44.29772" lon="6.1703">
        <ele>1411.3527832</ele>
        <time>2016-08-12T09:18:26Z</time>
      </trkpt>
      <trkpt lat="44.29767" lon="6.17058">
        <ele>1414.2365723</ele>
        <time>2016-08-12T09:18:44Z</time>
      </trkpt>
      <trkpt lat="44.29751" lon="6.1708">
        <ele>1417.1206055</ele>
        <time>2016-08-12T09:19:01Z</time>
      </trkpt>
      <trkpt lat="44.29731" lon="6.17097">
        <ele>1418.5625</ele>
        <time>2016-08-12T09:19:21Z</time>
      </trkpt>
      <trkpt lat="44.29718" lon="6.17105">
        <ele>1420.0046387</ele>
        <time>2016-08-12T09:19:33Z</time>
      </trkpt>
      <trkpt lat="44.29715" lon="6.17108">
        <ele>1420.0046387</ele>
        <time>2016-08-12T09:19:36Z</time>
      </trkpt>
      <trkpt lat="44.29708" lon="6.17113">
        <ele>1420.9660645</ele>
        <time>2016-08-12T09:19:42Z</time>
      </trkpt>
      <trkpt lat="44.29701" lon="6.17129">
        <ele>1422.407959</ele>
        <time>2016-08-12T09:19:53Z</time>
      </trkpt>
      <trkpt lat="44.29693" lon="6.17141">
        <ele>1423.8498535</ele>
        <time>2016-08-12T09:20:01Z</time>
      </trkpt>
      <trkpt lat="44.29687" lon="6.1718">
        <ele>1426.2531738</ele>
        <time>2016-08-12T09:20:24Z</time>
      </trkpt>
      <trkpt lat="44.29666" lon="6.1722">
        <ele>1426.7338867</ele>
        <time>2016-08-12T09:20:50Z</time>
      </trkpt>
      <trkpt lat="44.29662" lon="6.17223">
        <ele>1426.7338867</ele>
        <time>2016-08-12T09:21:01Z</time>
      </trkpt>
      <trkpt lat="44.29663" lon="6.17222">
        <ele>1426.7338867</ele>
        <time>2016-08-12T09:21:26Z</time>
      </trkpt>
      <trkpt lat="44.29657" lon="6.17225">
        <ele>1426.2531738</ele>
        <time>2016-08-12T09:23:20Z</time>
      </trkpt>
      <trkpt lat="44.29657" lon="6.17225">
        <ele>1426.2531738</ele>
        <time>2016-08-12T09:23:21Z</time>
      </trkpt>
      <trkpt lat="44.29673" lon="6.17204">
        <ele>1428.1757813</ele>
        <time>2016-08-12T09:23:41Z</time>
      </trkpt>
      <trkpt lat="44.29671" lon="6.17197">
        <ele>1428.6564941</ele>
        <time>2016-08-12T09:23:50Z</time>
      </trkpt>
      <trkpt lat="44.29667" lon="6.17187">
        <ele>1430.0983887</ele>
        <time>2016-08-12T09:24:03Z</time>
      </trkpt>
      <trkpt lat="44.29655" lon="6.17169">
        <ele>1431.0598145</ele>
        <time>2016-08-12T09:24:18Z</time>
      </trkpt>
      <trkpt lat="44.29651" lon="6.17159">
        <ele>1432.9821777</ele>
        <time>2016-08-12T09:24:33Z</time>
      </trkpt>
      <trkpt lat="44.29644" lon="6.17141">
        <ele>1434.4243164</ele>
        <time>2016-08-12T09:24:49Z</time>
      </trkpt>
      <trkpt lat="44.29637" lon="6.17122">
        <ele>1436.8276367</ele>
        <time>2016-08-12T09:25:10Z</time>
      </trkpt>
      <trkpt lat="44.29628" lon="6.17108">
        <ele>1439.230957</ele>
        <time>2016-08-12T09:25:32Z</time>
      </trkpt>
      <trkpt lat="44.29625" lon="6.17095">
        <ele>1440.1923828</ele>
        <time>2016-08-12T09:25:53Z</time>
      </trkpt>
      <trkpt lat="44.29626" lon="6.17095">
        <ele>1441.1535645</ele>
        <time>2016-08-12T09:26:46Z</time>
      </trkpt>
      <trkpt lat="44.29632" lon="6.17084">
        <ele>1442.5957031</ele>
        <time>2016-08-12T09:27:12Z</time>
      </trkpt>
      <trkpt lat="44.29633" lon="6.17081">
        <ele>1442.5957031</ele>
        <time>2016-08-12T09:27:37Z</time>
      </trkpt>
      <trkpt lat="44.29633" lon="6.17092">
        <ele>1442.1149902</ele>
        <time>2016-08-12T09:27:54Z</time>
      </trkpt>
      <trkpt lat="44.29627" lon="6.1709">
        <ele>1442.5957031</ele>
        <time>2016-08-12T09:28:09Z</time>
      </trkpt>
      <trkpt lat="44.29624" lon="6.17085">
        <ele>1444.5180664</ele>
        <time>2016-08-12T09:28:30Z</time>
      </trkpt>
      <trkpt lat="44.29624" lon="6.17073">
        <ele>1445.9602051</ele>
        <time>2016-08-12T09:28:54Z</time>
      </trkpt>
      <trkpt lat="44.29626" lon="6.17064">
        <ele>1446.9213867</ele>
        <time>2016-08-12T09:29:45Z</time>
      </trkpt>
      <trkpt lat="44.29618" lon="6.17062">
        <ele>1447.4020996</ele>
        <time>2016-08-12T09:30:21Z</time>
      </trkpt>
      <trkpt lat="44.29619" lon="6.17057">
        <ele>1448.3632813</ele>
        <time>2016-08-12T09:30:45Z</time>
      </trkpt>
      <trkpt lat="44.29618" lon="6.17053">
        <ele>1448.8439941</ele>
        <time>2016-08-12T09:31:06Z</time>
      </trkpt>
      <trkpt lat="44.29621" lon="6.17048">
        <ele>1451.7280273</ele>
        <time>2016-08-12T09:31:57Z</time>
      </trkpt>
      <trkpt lat="44.29623" lon="6.17046">
        <ele>1452.6894531</ele>
        <time>2016-08-12T09:32:11Z</time>
      </trkpt>
      <trkpt lat="44.29624" lon="6.17042">
        <ele>1453.6508789</ele>
        <time>2016-08-12T09:32:29Z</time>
      </trkpt>
      <trkpt lat="44.29627" lon="6.17039">
        <ele>1456.534668</ele>
        <time>2016-08-12T09:33:07Z</time>
      </trkpt>
      <trkpt lat="44.29628" lon="6.17036">
        <ele>1457.4960938</ele>
        <time>2016-08-12T09:33:34Z</time>
      </trkpt>
      <trkpt lat="44.29631" lon="6.17035">
        <ele>1457.9768066</ele>
        <time>2016-08-12T09:33:57Z</time>
      </trkpt>
      <trkpt lat="44.29632" lon="6.17036">
        <ele>1459.4187012</ele>
        <time>2016-08-12T09:34:15Z</time>
      </trkpt>
      <trkpt lat="44.29633" lon="6.17033">
        <ele>1459.8991699</ele>
        <time>2016-08-12T09:34:35Z</time>
      </trkpt>
      <trkpt lat="44.29631" lon="6.17028">
        <ele>1461.3413086</ele>
        <time>2016-08-12T09:34:54Z</time>
      </trkpt>
      <trkpt lat="44.29629" lon="6.17024">
        <ele>1463.7443848</ele>
        <time>2016-08-12T09:35:40Z</time>
      </trkpt>
      <trkpt lat="44.29628" lon="6.17019">
        <ele>1464.7058105</ele>
        <time>2016-08-12T09:36:01Z</time>
      </trkpt>
      <trkpt lat="44.29629" lon="6.17017">
        <ele>1466.1477051</ele>
        <time>2016-08-12T09:36:20Z</time>
      </trkpt>
      <trkpt lat="44.29632" lon="6.17015">
        <ele>1467.1091309</ele>
        <time>2016-08-12T09:36:37Z</time>
      </trkpt>
      <trkpt lat="44.29634" lon="6.17012">
        <ele>1468.5512695</ele>
        <time>2016-08-12T09:36:56Z</time>
      </trkpt>
      <trkpt lat="44.29633" lon="6.1701">
        <ele>1469.9931641</ele>
        <time>2016-08-12T09:37:15Z</time>
      </trkpt>
      <trkpt lat="44.2963" lon="6.17004">
        <ele>1470.9545898</ele>
        <time>2016-08-12T09:37:55Z</time>
      </trkpt>
      <trkpt lat="44.29628" lon="6.16994">
        <ele>1473.3579102</ele>
        <time>2016-08-12T09:38:06Z</time>
      </trkpt>
      <trkpt lat="44.29629" lon="6.16988">
        <ele>1475.7609863</ele>
        <time>2016-08-12T09:38:26Z</time>
      </trkpt>
      <trkpt lat="44.29628" lon="6.16975">
        <ele>1476.7224121</ele>
        <time>2016-08-12T09:38:46Z</time>
      </trkpt>
      <trkpt lat="44.29623" lon="6.16962">
        <ele>1477.203125</ele>
        <time>2016-08-12T09:39:04Z</time>
      </trkpt>
      <trkpt lat="44.29618" lon="6.16957">
        <ele>1479.1254883</ele>
        <time>2016-08-12T09:39:25Z</time>
      </trkpt>
      <trkpt lat="44.29619" lon="6.16957">
        <ele>1479.1254883</ele>
        <time>2016-08-12T09:39:59Z</time>
      </trkpt>
      <trkpt lat="44.29613" lon="6.16961">
        <ele>1480.0869141</ele>
        <time>2016-08-12T09:40:18Z</time>
      </trkpt>
      <trkpt lat="44.29606" lon="6.16968">
        <ele>1480.567627</ele>
        <time>2016-08-12T09:40:39Z</time>
      </trkpt>
      <trkpt lat="44.29604" lon="6.16966">
        <ele>1481.0483398</ele>
        <time>2016-08-12T09:41:04Z</time>
      </trkpt>
      <trkpt lat="44.29599" lon="6.16967">
        <ele>1482.0095215</ele>
        <time>2016-08-12T09:41:20Z</time>
      </trkpt>
      <trkpt lat="44.29602" lon="6.16971">
        <ele>1480.567627</ele>
        <time>2016-08-12T09:41:42Z</time>
      </trkpt>
      <trkpt lat="44.29605" lon="6.16986">
        <ele>1478.6450195</ele>
        <time>2016-08-12T09:42:01Z</time>
      </trkpt>
      <trkpt lat="44.29607" lon="6.16985">
        <ele>1478.1643066</ele>
        <time>2016-08-12T09:42:27Z</time>
      </trkpt>
      <trkpt lat="44.29605" lon="6.16973">
        <ele>1480.0869141</ele>
        <time>2016-08-12T09:42:56Z</time>
      </trkpt>
      <trkpt lat="44.29639" lon="6.1698">
        <ele>1478.6450195</ele>
        <time>2016-08-12T09:43:26Z</time>
      </trkpt>
      <trkpt lat="44.29628" lon="6.17001">
        <ele>1475.7609863</ele>
        <time>2016-08-12T09:43:53Z</time>
      </trkpt>
      <trkpt lat="44.29633" lon="6.1702">
        <ele>1472.3964844</ele>
        <time>2016-08-12T09:44:16Z</time>
      </trkpt>
      <trkpt lat="44.29636" lon="6.17028">
        <ele>1469.0319824</ele>
        <time>2016-08-12T09:44:46Z</time>
      </trkpt>
      <trkpt lat="44.29633" lon="6.1704">
        <ele>1468.0705566</ele>
        <time>2016-08-12T09:45:08Z</time>
      </trkpt>
      <trkpt lat="44.29628" lon="6.17047">
        <ele>1465.6672363</ele>
        <time>2016-08-12T09:45:36Z</time>
      </trkpt>
      <trkpt lat="44.2963" lon="6.17051">
        <ele>1462.3024902</ele>
        <time>2016-08-12T09:46:04Z</time>
      </trkpt>
      <trkpt lat="44.29629" lon="6.17054">
        <ele>1459.8991699</ele>
        <time>2016-08-12T09:46:47Z</time>
      </trkpt>
      <trkpt lat="44.2963" lon="6.17065">
        <ele>1457.0153809</ele>
        <time>2016-08-12T09:47:28Z</time>
      </trkpt>
      <trkpt lat="44.29631" lon="6.17071">
        <ele>1454.1315918</ele>
        <time>2016-08-12T09:48:28Z</time>
      </trkpt>
      <trkpt lat="44.29631" lon="6.17072">
        <ele>1450.7666016</ele>
        <time>2016-08-12T09:49:17Z</time>
      </trkpt>
      <trkpt lat="44.29632" lon="6.17074">
        <ele>1447.8828125</ele>
        <time>2016-08-12T09:49:36Z</time>
      </trkpt>
      <trkpt lat="44.29639" lon="6.17099">
        <ele>1446.9213867</ele>
        <time>2016-08-12T09:50:10Z</time>
      </trkpt>
      <trkpt lat="44.29648" lon="6.1711">
        <ele>1444.5180664</ele>
        <time>2016-08-12T09:50:43Z</time>
      </trkpt>
      <trkpt lat="44.29652" lon="6.1713">
        <ele>1442.5957031</ele>
        <time>2016-08-12T09:51:11Z</time>
      </trkpt>
      <trkpt lat="44.29654" lon="6.17138">
        <ele>1441.1535645</ele>
        <time>2016-08-12T09:51:19Z</time>
      </trkpt>
      <trkpt lat="44.29667" lon="6.17166">
        <ele>1438.2697754</ele>
        <time>2016-08-12T09:51:43Z</time>
      </trkpt>
      <trkpt lat="44.29677" lon="6.17186">
        <ele>1436.347168</ele>
        <time>2016-08-12T09:51:58Z</time>
      </trkpt>
      <trkpt lat="44.29682" lon="6.17209">
        <ele>1433.9436035</ele>
        <time>2016-08-12T09:52:05Z</time>
      </trkpt>
      <trkpt lat="44.29679" lon="6.17215">
        <ele>1433.4628906</ele>
        <time>2016-08-12T09:52:08Z</time>
      </trkpt>
      <trkpt lat="44.29674" lon="6.17217">
        <ele>1433.4628906</ele>
        <time>2016-08-12T09:52:11Z</time>
      </trkpt>
      <trkpt lat="44.29659" lon="6.17223">
        <ele>1432.9821777</ele>
        <time>2016-08-12T09:52:18Z</time>
      </trkpt>
      <trkpt lat="44.29642" lon="6.17232">
        <ele>1432.501709</ele>
        <time>2016-08-12T09:52:27Z</time>
      </trkpt>
      <trkpt lat="44.29636" lon="6.17232">
        <ele>1432.501709</ele>
        <time>2016-08-12T09:52:50Z</time>
      </trkpt>
      <trkpt lat="44.29633" lon="6.17238">
        <ele>1432.501709</ele>
        <time>2016-08-12T09:52:52Z</time>
      </trkpt>
      <trkpt lat="44.29614" lon="6.17244">
        <ele>1432.501709</ele>
        <time>2016-08-12T09:53:00Z</time>
      </trkpt>
      <trkpt lat="44.29606" lon="6.17238">
        <ele>1433.4628906</ele>
        <time>2016-08-12T09:53:04Z</time>
      </trkpt>
      <trkpt lat="44.29588" lon="6.17216">
        <ele>1434.4243164</ele>
        <time>2016-08-12T09:53:16Z</time>
      </trkpt>
      <trkpt lat="44.29577" lon="6.17211">
        <ele>1435.8662109</ele>
        <time>2016-08-12T09:53:22Z</time>
      </trkpt>
      <trkpt lat="44.29543" lon="6.17213">
        <ele>1435.385498</ele>
        <time>2016-08-12T09:53:39Z</time>
      </trkpt>
      <trkpt lat="44.29534" lon="6.17252">
        <ele>1434.4243164</ele>
        <time>2016-08-12T09:53:52Z</time>
      </trkpt>
      <trkpt lat="44.29537" lon="6.17304">
        <ele>1432.501709</ele>
        <time>2016-08-12T09:54:03Z</time>
      </trkpt>
      <trkpt lat="44.2954" lon="6.17344">
        <ele>1431.0598145</ele>
        <time>2016-08-12T09:54:08Z</time>
      </trkpt>
      <trkpt lat="44.29538" lon="6.17366">
        <ele>1430.0983887</ele>
        <time>2016-08-12T09:54:11Z</time>
      </trkpt>
      <trkpt lat="44.29536" lon="6.17429">
        <ele>1430.0983887</ele>
        <time>2016-08-12T09:54:23Z</time>
      </trkpt>
      <trkpt lat="44.29528" lon="6.17474">
        <ele>1430.5791016</ele>
        <time>2016-08-12T09:54:37Z</time>
      </trkpt>
      <trkpt lat="44.29526" lon="6.17482">
        <ele>1431.0598145</ele>
        <time>2016-08-12T09:54:40Z</time>
      </trkpt>
      <trkpt lat="44.2952" lon="6.17495">
        <ele>1432.0209961</ele>
        <time>2016-08-12T09:54:46Z</time>
      </trkpt>
      <trkpt lat="44.29508" lon="6.17522">
        <ele>1432.501709</ele>
        <time>2016-08-12T09:54:59Z</time>
      </trkpt>
      <trkpt lat="44.29508" lon="6.17566">
        <ele>1434.4243164</ele>
        <time>2016-08-12T09:55:17Z</time>
      </trkpt>
      <trkpt lat="44.29511" lon="6.17594">
        <ele>1437.3083496</ele>
        <time>2016-08-12T09:55:34Z</time>
      </trkpt>
      <trkpt lat="44.29511" lon="6.17599">
        <ele>1437.7890625</ele>
        <time>2016-08-12T09:55:37Z</time>
      </trkpt>
      <trkpt lat="44.29512" lon="6.17604">
        <ele>1437.7890625</ele>
        <time>2016-08-12T09:55:40Z</time>
      </trkpt>
      <trkpt lat="44.29512" lon="6.1761">
        <ele>1438.2697754</ele>
        <time>2016-08-12T09:55:44Z</time>
      </trkpt>
      <trkpt lat="44.29513" lon="6.17613">
        <ele>1438.7504883</ele>
        <time>2016-08-12T09:55:46Z</time>
      </trkpt>
      <trkpt lat="44.29516" lon="6.17625">
        <ele>1439.230957</ele>
        <time>2016-08-12T09:55:53Z</time>
      </trkpt>
      <trkpt lat="44.29519" lon="6.17631">
        <ele>1439.230957</ele>
        <time>2016-08-12T09:55:56Z</time>
      </trkpt>
      <trkpt lat="44.29527" lon="6.1764">
        <ele>1439.230957</ele>
        <time>2016-08-12T09:56:02Z</time>
      </trkpt>
      <trkpt lat="44.29534" lon="6.17653">
        <ele>1439.230957</ele>
        <time>2016-08-12T09:56:10Z</time>
      </trkpt>
      <trkpt lat="44.29543" lon="6.17664">
        <ele>1439.230957</ele>
        <time>2016-08-12T09:56:15Z</time>
      </trkpt>
      <trkpt lat="44.2956" lon="6.17679">
        <ele>1440.1923828</ele>
        <time>2016-08-12T09:56:28Z</time>
      </trkpt>
      <trkpt lat="44.29574" lon="6.17693">
        <ele>1440.6728516</ele>
        <time>2016-08-12T09:56:36Z</time>
      </trkpt>
      <trkpt lat="44.29578" lon="6.17696">
        <ele>1441.1535645</ele>
        <time>2016-08-12T09:56:38Z</time>
      </trkpt>
      <trkpt lat="44.2958" lon="6.17701">
        <ele>1441.1535645</ele>
        <time>2016-08-12T09:56:41Z</time>
      </trkpt>
      <trkpt lat="44.29587" lon="6.17705">
        <ele>1441.1535645</ele>
        <time>2016-08-12T09:56:47Z</time>
      </trkpt>
      <trkpt lat="44.29594" lon="6.17718">
        <ele>1440.1923828</ele>
        <time>2016-08-12T09:56:52Z</time>
      </trkpt>
      <trkpt lat="44.29596" lon="6.17767">
        <ele>1438.7504883</ele>
        <time>2016-08-12T09:57:05Z</time>
      </trkpt>
      <trkpt lat="44.29613" lon="6.17821">
        <ele>1435.385498</ele>
        <time>2016-08-12T09:57:19Z</time>
      </trkpt>
      <trkpt lat="44.29614" lon="6.17824">
        <ele>1435.385498</ele>
        <time>2016-08-12T09:57:20Z</time>
      </trkpt>
      <trkpt lat="44.29624" lon="6.17869">
        <ele>1433.9436035</ele>
        <time>2016-08-12T09:57:32Z</time>
      </trkpt>
      <trkpt lat="44.29599" lon="6.17906">
        <ele>1432.501709</ele>
        <time>2016-08-12T09:57:44Z</time>
      </trkpt>
      <trkpt lat="44.29559" lon="6.17913">
        <ele>1431.0598145</ele>
        <time>2016-08-12T09:57:54Z</time>
      </trkpt>
      <trkpt lat="44.29542" lon="6.17917">
        <ele>1429.1369629</ele>
        <time>2016-08-12T09:57:57Z</time>
      </trkpt>
      <trkpt lat="44.29489" lon="6.17936">
        <ele>1429.1369629</ele>
        <time>2016-08-12T09:58:08Z</time>
      </trkpt>
      <trkpt lat="44.29468" lon="6.17962">
        <ele>1430.5791016</ele>
        <time>2016-08-12T09:58:19Z</time>
      </trkpt>
      <trkpt lat="44.29446" lon="6.18001">
        <ele>1430.0983887</ele>
        <time>2016-08-12T09:58:34Z</time>
      </trkpt>
      <trkpt lat="44.2941" lon="6.18008">
        <ele>1430.5791016</ele>
        <time>2016-08-12T09:58:51Z</time>
      </trkpt>
      <trkpt lat="44.29386" lon="6.17991">
        <ele>1432.0209961</ele>
        <time>2016-08-12T09:59:04Z</time>
      </trkpt>
      <trkpt lat="44.29357" lon="6.17965">
        <ele>1433.4628906</ele>
        <time>2016-08-12T09:59:21Z</time>
      </trkpt>
      <trkpt lat="44.29354" lon="6.17964">
        <ele>1433.4628906</ele>
        <time>2016-08-12T09:59:23Z</time>
      </trkpt>
      <trkpt lat="44.29316" lon="6.17957">
        <ele>1433.9436035</ele>
        <time>2016-08-12T09:59:40Z</time>
      </trkpt>
      <trkpt lat="44.29281" lon="6.17947">
        <ele>1433.4628906</ele>
        <time>2016-08-12T09:59:55Z</time>
      </trkpt>
      <trkpt lat="44.29268" lon="6.17941">
        <ele>1432.9821777</ele>
        <time>2016-08-12T09:59:59Z</time>
      </trkpt>
      <trkpt lat="44.29263" lon="6.17943">
        <ele>1432.9821777</ele>
        <time>2016-08-12T10:00:02Z</time>
      </trkpt>
      <trkpt lat="44.29259" lon="6.17955">
        <ele>1432.501709</ele>
        <time>2016-08-12T10:00:06Z</time>
      </trkpt>
      <trkpt lat="44.29259" lon="6.17966">
        <ele>1432.501709</ele>
        <time>2016-08-12T10:00:27Z</time>
      </trkpt>
      <trkpt lat="44.29266" lon="6.17984">
        <ele>1432.9821777</ele>
        <time>2016-08-12T10:00:50Z</time>
      </trkpt>
      <trkpt lat="44.29271" lon="6.1799">
        <ele>1432.501709</ele>
        <time>2016-08-12T10:00:53Z</time>
      </trkpt>
      <trkpt lat="44.29292" lon="6.18033">
        <ele>1430.5791016</ele>
        <time>2016-08-12T10:01:07Z</time>
      </trkpt>
      <trkpt lat="44.29321" lon="6.181">
        <ele>1428.6564941</ele>
        <time>2016-08-12T10:01:21Z</time>
      </trkpt>
      <trkpt lat="44.29318" lon="6.18159">
        <ele>1427.2145996</ele>
        <time>2016-08-12T10:01:35Z</time>
      </trkpt>
      <trkpt lat="44.29316" lon="6.18168">
        <ele>1426.7338867</ele>
        <time>2016-08-12T10:01:47Z</time>
      </trkpt>
      <trkpt lat="44.29316" lon="6.18171">
        <ele>1426.7338867</ele>
        <time>2016-08-12T10:02:09Z</time>
      </trkpt>
      <trkpt lat="44.29315" lon="6.18173">
        <ele>1426.2531738</ele>
        <time>2016-08-12T10:02:17Z</time>
      </trkpt>
      <trkpt lat="44.293" lon="6.18205">
        <ele>1425.291748</ele>
        <time>2016-08-12T10:02:28Z</time>
      </trkpt>
      <trkpt lat="44.29298" lon="6.18204">
        <ele>1424.3305664</ele>
        <time>2016-08-12T10:02:40Z</time>
      </trkpt>
      <trkpt lat="44.29297" lon="6.18209">
        <ele>1424.3305664</ele>
        <time>2016-08-12T10:02:45Z</time>
      </trkpt>
      <trkpt lat="44.29278" lon="6.18237">
        <ele>1426.7338867</ele>
        <time>2016-08-12T10:03:01Z</time>
      </trkpt>
      <trkpt lat="44.29258" lon="6.18252">
        <ele>1428.6564941</ele>
        <time>2016-08-12T10:03:18Z</time>
      </trkpt>
      <trkpt lat="44.29255" lon="6.18253">
        <ele>1428.1757813</ele>
        <time>2016-08-12T10:03:20Z</time>
      </trkpt>
      <trkpt lat="44.2925" lon="6.18253">
        <ele>1428.6564941</ele>
        <time>2016-08-12T10:03:24Z</time>
      </trkpt>
      <trkpt lat="44.29223" lon="6.18243">
        <ele>1430.5791016</ele>
        <time>2016-08-12T10:03:44Z</time>
      </trkpt>
      <trkpt lat="44.29201" lon="6.18234">
        <ele>1432.501709</ele>
        <time>2016-08-12T10:04:00Z</time>
      </trkpt>
      <trkpt lat="44.29177" lon="6.18232">
        <ele>1433.4628906</ele>
        <time>2016-08-12T10:04:18Z</time>
      </trkpt>
      <trkpt lat="44.2917" lon="6.18238">
        <ele>1434.4243164</ele>
        <time>2016-08-12T10:04:24Z</time>
      </trkpt>
      <trkpt lat="44.2917" lon="6.18275">
        <ele>1436.347168</ele>
        <time>2016-08-12T10:04:45Z</time>
      </trkpt>
      <trkpt lat="44.29164" lon="6.18305">
        <ele>1437.7890625</ele>
        <time>2016-08-12T10:05:02Z</time>
      </trkpt>
      <trkpt lat="44.29164" lon="6.18307">
        <ele>1438.2697754</ele>
        <time>2016-08-12T10:05:03Z</time>
      </trkpt>
      <trkpt lat="44.29161" lon="6.18311">
        <ele>1438.2697754</ele>
        <time>2016-08-12T10:05:06Z</time>
      </trkpt>
      <trkpt lat="44.2916" lon="6.18316">
        <ele>1438.2697754</ele>
        <time>2016-08-12T10:05:09Z</time>
      </trkpt>
      <trkpt lat="44.29158" lon="6.18321">
        <ele>1438.7504883</ele>
        <time>2016-08-12T10:05:13Z</time>
      </trkpt>
      <trkpt lat="44.29159" lon="6.18334">
        <ele>1440.1923828</ele>
        <time>2016-08-12T10:05:22Z</time>
      </trkpt>
      <trkpt lat="44.29164" lon="6.18342">
        <ele>1440.1923828</ele>
        <time>2016-08-12T10:05:27Z</time>
      </trkpt>
      <trkpt lat="44.29173" lon="6.18367">
        <ele>1442.5957031</ele>
        <time>2016-08-12T10:05:42Z</time>
      </trkpt>
      <trkpt lat="44.29163" lon="6.18397">
        <ele>1444.5180664</ele>
        <time>2016-08-12T10:06:00Z</time>
      </trkpt>
      <trkpt lat="44.2916" lon="6.18404">
        <ele>1444.9987793</ele>
        <time>2016-08-12T10:06:04Z</time>
      </trkpt>
      <trkpt lat="44.29152" lon="6.18408">
        <ele>1444.9987793</ele>
        <time>2016-08-12T10:06:10Z</time>
      </trkpt>
      <trkpt lat="44.29138" lon="6.18408">
        <ele>1446.440918</ele>
        <time>2016-08-12T10:06:20Z</time>
      </trkpt>
      <trkpt lat="44.29118" lon="6.18399">
        <ele>1447.8828125</ele>
        <time>2016-08-12T10:06:37Z</time>
      </trkpt>
      <trkpt lat="44.29098" lon="6.18407">
        <ele>1449.324707</ele>
        <time>2016-08-12T10:06:53Z</time>
      </trkpt>
      <trkpt lat="44.29075" lon="6.18416">
        <ele>1450.7666016</ele>
        <time>2016-08-12T10:07:12Z</time>
      </trkpt>
      <trkpt lat="44.29052" lon="6.18445">
        <ele>1451.7280273</ele>
        <time>2016-08-12T10:07:34Z</time>
      </trkpt>
      <trkpt lat="44.29025" lon="6.18465">
        <ele>1453.6508789</ele>
        <time>2016-08-12T10:07:55Z</time>
      </trkpt>
      <trkpt lat="44.29" lon="6.18476">
        <ele>1454.6120605</ele>
        <time>2016-08-12T10:08:13Z</time>
      </trkpt>
      <trkpt lat="44.28978" lon="6.18484">
        <ele>1455.5734863</ele>
        <time>2016-08-12T10:08:30Z</time>
      </trkpt>
      <trkpt lat="44.28943" lon="6.18495">
        <ele>1456.534668</ele>
        <time>2016-08-12T10:08:52Z</time>
      </trkpt>
      <trkpt lat="44.28932" lon="6.18495">
        <ele>1456.0539551</ele>
        <time>2016-08-12T10:08:58Z</time>
      </trkpt>
      <trkpt lat="44.28903" lon="6.1848">
        <ele>1456.0539551</ele>
        <time>2016-08-12T10:09:11Z</time>
      </trkpt>
      <trkpt lat="44.28886" lon="6.18454">
        <ele>1454.6120605</ele>
        <time>2016-08-12T10:09:21Z</time>
      </trkpt>
      <trkpt lat="44.28866" lon="6.18463">
        <ele>1454.6120605</ele>
        <time>2016-08-12T10:09:28Z</time>
      </trkpt>
      <trkpt lat="44.28865" lon="6.18468">
        <ele>1454.6120605</ele>
        <time>2016-08-12T10:09:29Z</time>
      </trkpt>
      <trkpt lat="44.28864" lon="6.18489">
        <ele>1454.6120605</ele>
        <time>2016-08-12T10:09:33Z</time>
      </trkpt>
      <trkpt lat="44.28832" lon="6.18523">
        <ele>1453.6508789</ele>
        <time>2016-08-12T10:09:46Z</time>
      </trkpt>
      <trkpt lat="44.28799" lon="6.18557">
        <ele>1451.7280273</ele>
        <time>2016-08-12T10:09:58Z</time>
      </trkpt>
      <trkpt lat="44.28748" lon="6.18591">
        <ele>1450.2861328</ele>
        <time>2016-08-12T10:10:13Z</time>
      </trkpt>
      <trkpt lat="44.28712" lon="6.18605">
        <ele>1450.7666016</ele>
        <time>2016-08-12T10:10:27Z</time>
      </trkpt>
      <trkpt lat="44.28675" lon="6.18601">
        <ele>1450.2861328</ele>
        <time>2016-08-12T10:10:40Z</time>
      </trkpt>
      <trkpt lat="44.2867" lon="6.18616">
        <ele>1449.8054199</ele>
        <time>2016-08-12T10:10:44Z</time>
      </trkpt>
      <trkpt lat="44.28682" lon="6.18684">
        <ele>1450.2861328</ele>
        <time>2016-08-12T10:11:01Z</time>
      </trkpt>
      <trkpt lat="44.28713" lon="6.18725">
        <ele>1451.2473145</ele>
        <time>2016-08-12T10:11:17Z</time>
      </trkpt>
      <trkpt lat="44.28745" lon="6.18772">
        <ele>1451.7280273</ele>
        <time>2016-08-12T10:11:36Z</time>
      </trkpt>
      <trkpt lat="44.28748" lon="6.18786">
        <ele>1451.7280273</ele>
        <time>2016-08-12T10:11:52Z</time>
      </trkpt>
      <trkpt lat="44.28742" lon="6.1878">
        <ele>1454.6120605</ele>
        <time>2016-08-12T10:14:02Z</time>
      </trkpt>
      <trkpt lat="44.28744" lon="6.1878">
        <ele>1461.8220215</ele>
        <time>2016-08-12T10:14:05Z</time>
      </trkpt>
      <trkpt lat="44.28742" lon="6.1878">
        <ele>1460.8605957</ele>
        <time>2016-08-12T10:14:17Z</time>
      </trkpt>
      <trkpt lat="44.28742" lon="6.1878">
        <ele>1422.407959</ele>
        <time>2016-08-12T10:14:18Z</time>
      </trkpt>
      <trkpt lat="44.28742" lon="6.1878">
        <ele>1422.407959</ele>
        <time>2016-08-12T10:14:19Z</time>
      </trkpt>
      <trkpt lat="44.28742" lon="6.1878">
        <ele>1426.2531738</ele>
        <time>2016-08-12T10:14:26Z</time>
      </trkpt>
      <trkpt lat="44.28742" lon="6.1878">
        <ele>1429.6176758</ele>
        <time>2016-08-12T10:14:29Z</time>
      </trkpt>
      <trkpt lat="44.28743" lon="6.1878">
        <ele>1433.4628906</ele>
        <time>2016-08-12T10:14:33Z</time>
      </trkpt>
      <trkpt lat="44.28743" lon="6.18781">
        <ele>1437.3083496</ele>
        <time>2016-08-12T10:14:37Z</time>
      </trkpt>
      <trkpt lat="44.28743" lon="6.18781">
        <ele>1437.3083496</ele>
        <time>2016-08-12T10:14:38Z</time>
      </trkpt>
      <trkpt lat="44.28743" lon="6.18781">
        <ele>1440.1923828</ele>
        <time>2016-08-12T10:14:42Z</time>
      </trkpt>
      <trkpt lat="44.28743" lon="6.18781">
        <ele>1444.0375977</ele>
        <time>2016-08-12T10:14:47Z</time>
      </trkpt>
      <trkpt lat="44.28743" lon="6.18781">
        <ele>1447.4020996</ele>
        <time>2016-08-12T10:14:54Z</time>
      </trkpt>
      <trkpt lat="44.28743" lon="6.18781">
        <ele>1450.2861328</ele>
        <time>2016-08-12T10:15:03Z</time>
      </trkpt>
      <trkpt lat="44.28743" lon="6.18781">
        <ele>1453.6508789</ele>
        <time>2016-08-12T10:15:13Z</time>
      </trkpt>
      <trkpt lat="44.28743" lon="6.18781">
        <ele>1457.0153809</ele>
        <time>2016-08-12T10:15:27Z</time>
      </trkpt>
      <trkpt lat="44.28746" lon="6.18778">
        <ele>1458.4572754</ele>
        <time>2016-08-12T10:15:58Z</time>
      </trkpt>
      <trkpt lat="44.28743" lon="6.18774">
        <ele>1458.4572754</ele>
        <time>2016-08-12T10:16:25Z</time>
      </trkpt>
      <trkpt lat="44.28732" lon="6.18793">
        <ele>1459.8991699</ele>
        <time>2016-08-12T10:16:37Z</time>
      </trkpt>
      <trkpt lat="44.28718" lon="6.18819">
        <ele>1462.7832031</ele>
        <time>2016-08-12T10:16:57Z</time>
      </trkpt>
      <trkpt lat="44.28708" lon="6.18841">
        <ele>1465.1865234</ele>
        <time>2016-08-12T10:17:13Z</time>
      </trkpt>
      <trkpt lat="44.28699" lon="6.1886">
        <ele>1467.1091309</ele>
        <time>2016-08-12T10:17:29Z</time>
      </trkpt>
      <trkpt lat="44.28681" lon="6.18876">
        <ele>1468.5512695</ele>
        <time>2016-08-12T10:17:48Z</time>
      </trkpt>
      <trkpt lat="44.28663" lon="6.18873">
        <ele>1470.473877</ele>
        <time>2016-08-12T10:18:04Z</time>
      </trkpt>
      <trkpt lat="44.28662" lon="6.18872">
        <ele>1470.473877</ele>
        <time>2016-08-12T10:18:05Z</time>
      </trkpt>
      <trkpt lat="44.2866" lon="6.1887">
        <ele>1470.473877</ele>
        <time>2016-08-12T10:18:07Z</time>
      </trkpt>
      <trkpt lat="44.28636" lon="6.1886">
        <ele>1472.3964844</ele>
        <time>2016-08-12T10:18:27Z</time>
      </trkpt>
      <trkpt lat="44.28621" lon="6.1887">
        <ele>1473.8383789</ele>
        <time>2016-08-12T10:18:42Z</time>
      </trkpt>
      <trkpt lat="44.28618" lon="6.18897">
        <ele>1475.2802734</ele>
        <time>2016-08-12T10:18:57Z</time>
      </trkpt>
      <trkpt lat="44.28614" lon="6.18914">
        <ele>1475.7609863</ele>
        <time>2016-08-12T10:19:07Z</time>
      </trkpt>
      <trkpt lat="44.28605" lon="6.18925">
        <ele>1476.7224121</ele>
        <time>2016-08-12T10:19:17Z</time>
      </trkpt>
      <trkpt lat="44.28582" lon="6.18914">
        <ele>1478.6450195</ele>
        <time>2016-08-12T10:19:36Z</time>
      </trkpt>
      <trkpt lat="44.28572" lon="6.18877">
        <ele>1481.0483398</ele>
        <time>2016-08-12T10:20:00Z</time>
      </trkpt>
      <trkpt lat="44.28562" lon="6.18858">
        <ele>1482.4902344</ele>
        <time>2016-08-12T10:20:16Z</time>
      </trkpt>
      <trkpt lat="44.28562" lon="6.18855">
        <ele>1483.451416</ele>
        <time>2016-08-12T10:20:18Z</time>
      </trkpt>
      <trkpt lat="44.28559" lon="6.18838">
        <ele>1484.4130859</ele>
        <time>2016-08-12T10:20:32Z</time>
      </trkpt>
      <trkpt lat="44.28561" lon="6.18832">
        <ele>1484.4130859</ele>
        <time>2016-08-12T10:20:36Z</time>
      </trkpt>
      <trkpt lat="44.28574" lon="6.18791">
        <ele>1486.3356934</ele>
        <time>2016-08-12T10:20:57Z</time>
      </trkpt>
      <trkpt lat="44.28575" lon="6.18788">
        <ele>1486.8161621</ele>
        <time>2016-08-12T10:20:59Z</time>
      </trkpt>
      <trkpt lat="44.28584" lon="6.18766">
        <ele>1487.7775879</ele>
        <time>2016-08-12T10:21:14Z</time>
      </trkpt>
      <trkpt lat="44.28586" lon="6.18763">
        <ele>1488.2583008</ele>
        <time>2016-08-12T10:21:16Z</time>
      </trkpt>
      <trkpt lat="44.28598" lon="6.18747">
        <ele>1489.2194824</ele>
        <time>2016-08-12T10:21:31Z</time>
      </trkpt>
      <trkpt lat="44.286" lon="6.18744">
        <ele>1489.7001953</ele>
        <time>2016-08-12T10:21:33Z</time>
      </trkpt>
      <trkpt lat="44.28602" lon="6.18739">
        <ele>1490.1809082</ele>
        <time>2016-08-12T10:21:37Z</time>
      </trkpt>
      <trkpt lat="44.28584" lon="6.18708">
        <ele>1492.1035156</ele>
        <time>2016-08-12T10:21:59Z</time>
      </trkpt>
      <trkpt lat="44.28561" lon="6.18692">
        <ele>1493.0646973</ele>
        <time>2016-08-12T10:22:18Z</time>
      </trkpt>
      <trkpt lat="44.28543" lon="6.18683">
        <ele>1493.5454102</ele>
        <time>2016-08-12T10:22:32Z</time>
      </trkpt>
      <trkpt lat="44.28515" lon="6.18669">
        <ele>1494.5065918</ele>
        <time>2016-08-12T10:22:51Z</time>
      </trkpt>
      <trkpt lat="44.28482" lon="6.18645">
        <ele>1495.4680176</ele>
        <time>2016-08-12T10:23:13Z</time>
      </trkpt>
      <trkpt lat="44.28476" lon="6.18635">
        <ele>1495.4680176</ele>
        <time>2016-08-12T10:23:19Z</time>
      </trkpt>
      <trkpt lat="44.28461" lon="6.18594">
        <ele>1496.4294434</ele>
        <time>2016-08-12T10:23:43Z</time>
      </trkpt>
      <trkpt lat="44.28461" lon="6.18563">
        <ele>1498.3518066</ele>
        <time>2016-08-12T10:23:58Z</time>
      </trkpt>
      <trkpt lat="44.28459" lon="6.18533">
        <ele>1499.3132324</ele>
        <time>2016-08-12T10:24:13Z</time>
      </trkpt>
      <trkpt lat="44.28444" lon="6.18503">
        <ele>1500.2749023</ele>
        <time>2016-08-12T10:24:30Z</time>
      </trkpt>
      <trkpt lat="44.28429" lon="6.1848">
        <ele>1502.6779785</ele>
        <time>2016-08-12T10:24:51Z</time>
      </trkpt>
      <trkpt lat="44.284" lon="6.1846">
        <ele>1505.0812988</ele>
        <time>2016-08-12T10:25:16Z</time>
      </trkpt>
      <trkpt lat="44.28378" lon="6.18452">
        <ele>1506.5231934</ele>
        <time>2016-08-12T10:25:35Z</time>
      </trkpt>
      <trkpt lat="44.28354" lon="6.18442">
        <ele>1507.4846191</ele>
        <time>2016-08-12T10:25:54Z</time>
      </trkpt>
      <trkpt lat="44.28352" lon="6.18442">
        <ele>1507.4846191</ele>
        <time>2016-08-12T10:25:55Z</time>
      </trkpt>
      <trkpt lat="44.2833" lon="6.18427">
        <ele>1508.9265137</ele>
        <time>2016-08-12T10:26:13Z</time>
      </trkpt>
      <trkpt lat="44.28328" lon="6.18425">
        <ele>1509.4072266</ele>
        <time>2016-08-12T10:26:15Z</time>
      </trkpt>
      <trkpt lat="44.28326" lon="6.18421">
        <ele>1509.8876953</ele>
        <time>2016-08-12T10:26:18Z</time>
      </trkpt>
      <trkpt lat="44.28329" lon="6.18395">
        <ele>1511.329834</ele>
        <time>2016-08-12T10:26:34Z</time>
      </trkpt>
      <trkpt lat="44.28353" lon="6.18392">
        <ele>1513.7329102</ele>
        <time>2016-08-12T10:26:52Z</time>
      </trkpt>
      <trkpt lat="44.2838" lon="6.18387">
        <ele>1515.6557617</ele>
        <time>2016-08-12T10:27:15Z</time>
      </trkpt>
      <trkpt lat="44.28397" lon="6.18364">
        <ele>1517.5783691</ele>
        <time>2016-08-12T10:27:35Z</time>
      </trkpt>
      <trkpt lat="44.28396" lon="6.18335">
        <ele>1519.5012207</ele>
        <time>2016-08-12T10:27:55Z</time>
      </trkpt>
      <trkpt lat="44.28403" lon="6.18308">
        <ele>1520.4624023</ele>
        <time>2016-08-12T10:28:14Z</time>
      </trkpt>
      <trkpt lat="44.28404" lon="6.18308">
        <ele>1520.4624023</ele>
        <time>2016-08-12T10:28:15Z</time>
      </trkpt>
      <trkpt lat="44.28416" lon="6.18304">
        <ele>1522.3850098</ele>
        <time>2016-08-12T10:28:23Z</time>
      </trkpt>
      <trkpt lat="44.28435" lon="6.18312">
        <ele>1523.8269043</ele>
        <time>2016-08-12T10:28:40Z</time>
      </trkpt>
      <trkpt lat="44.28442" lon="6.18313">
        <ele>1524.3076172</ele>
        <time>2016-08-12T10:28:46Z</time>
      </trkpt>
      <trkpt lat="44.28464" lon="6.18314">
        <ele>1526.2302246</ele>
        <time>2016-08-12T10:29:05Z</time>
      </trkpt>
      <trkpt lat="44.28486" lon="6.18302">
        <ele>1528.152832</ele>
        <time>2016-08-12T10:29:24Z</time>
      </trkpt>
      <trkpt lat="44.28498" lon="6.18296">
        <ele>1529.1140137</ele>
        <time>2016-08-12T10:29:34Z</time>
      </trkpt>
      <trkpt lat="44.285" lon="6.18291">
        <ele>1529.5947266</ele>
        <time>2016-08-12T10:29:39Z</time>
      </trkpt>
      <trkpt lat="44.28518" lon="6.18278">
        <ele>1530.5561523</ele>
        <time>2016-08-12T10:29:56Z</time>
      </trkpt>
      <trkpt lat="44.28537" lon="6.18266">
        <ele>1532.9594727</ele>
        <time>2016-08-12T10:30:14Z</time>
      </trkpt>
      <trkpt lat="44.28555" lon="6.18264">
        <ele>1534.4016113</ele>
        <time>2016-08-12T10:30:32Z</time>
      </trkpt>
      <trkpt lat="44.28559" lon="6.18266">
        <ele>1534.8823242</ele>
        <time>2016-08-12T10:30:36Z</time>
      </trkpt>
      <trkpt lat="44.28567" lon="6.18268">
        <ele>1535.8435059</ele>
        <time>2016-08-12T10:30:44Z</time>
      </trkpt>
      <trkpt lat="44.28586" lon="6.18273">
        <ele>1538.2468262</ele>
        <time>2016-08-12T10:31:02Z</time>
      </trkpt>
      <trkpt lat="44.28588" lon="6.18273">
        <ele>1537.7661133</ele>
        <time>2016-08-12T10:31:04Z</time>
      </trkpt>
      <trkpt lat="44.28594" lon="6.18269">
        <ele>1538.2468262</ele>
        <time>2016-08-12T10:31:08Z</time>
      </trkpt>
      <trkpt lat="44.2861" lon="6.18245">
        <ele>1539.6887207</ele>
        <time>2016-08-12T10:31:27Z</time>
      </trkpt>
      <trkpt lat="44.28609" lon="6.18206">
        <ele>1541.6113281</ele>
        <time>2016-08-12T10:31:52Z</time>
      </trkpt>
      <trkpt lat="44.28607" lon="6.18174">
        <ele>1544.0146484</ele>
        <time>2016-08-12T10:32:12Z</time>
      </trkpt>
      <trkpt lat="44.28606" lon="6.18172">
        <ele>1544.0146484</ele>
        <time>2016-08-12T10:32:14Z</time>
      </trkpt>
      <trkpt lat="44.286" lon="6.18163">
        <ele>1545.456543</ele>
        <time>2016-08-12T10:32:21Z</time>
      </trkpt>
      <trkpt lat="44.28598" lon="6.18163">
        <ele>1544.9758301</ele>
        <time>2016-08-12T10:32:23Z</time>
      </trkpt>
      <trkpt lat="44.28588" lon="6.18178">
        <ele>1546.4179688</ele>
        <time>2016-08-12T10:32:36Z</time>
      </trkpt>
      <trkpt lat="44.28568" lon="6.18194">
        <ele>1548.3405762</ele>
        <time>2016-08-12T10:32:56Z</time>
      </trkpt>
      <trkpt lat="44.28557" lon="6.182">
        <ele>1548.8212891</ele>
        <time>2016-08-12T10:33:08Z</time>
      </trkpt>
      <trkpt lat="44.28537" lon="6.182">
        <ele>1549.7827148</ele>
        <time>2016-08-12T10:33:23Z</time>
      </trkpt>
      <trkpt lat="44.28533" lon="6.18203">
        <ele>1549.7827148</ele>
        <time>2016-08-12T10:33:27Z</time>
      </trkpt>
      <trkpt lat="44.28528" lon="6.18202">
        <ele>1550.2634277</ele>
        <time>2016-08-12T10:33:31Z</time>
      </trkpt>
      <trkpt lat="44.28501" lon="6.18204">
        <ele>1551.2246094</ele>
        <time>2016-08-12T10:33:49Z</time>
      </trkpt>
      <trkpt lat="44.28481" lon="6.18207">
        <ele>1552.185791</ele>
        <time>2016-08-12T10:34:05Z</time>
      </trkpt>
      <trkpt lat="44.28455" lon="6.18207">
        <ele>1552.6665039</ele>
        <time>2016-08-12T10:34:23Z</time>
      </trkpt>
      <trkpt lat="44.28423" lon="6.18212">
        <ele>1553.6279297</ele>
        <time>2016-08-12T10:34:44Z</time>
      </trkpt>
      <trkpt lat="44.2839" lon="6.18214">
        <ele>1553.6279297</ele>
        <time>2016-08-12T10:35:00Z</time>
      </trkpt>
      <trkpt lat="44.28347" lon="6.18209">
        <ele>1552.185791</ele>
        <time>2016-08-12T10:35:13Z</time>
      </trkpt>
      <trkpt lat="44.28299" lon="6.182">
        <ele>1551.2246094</ele>
        <time>2016-08-12T10:35:24Z</time>
      </trkpt>
      <trkpt lat="44.28283" lon="6.182">
        <ele>1550.2634277</ele>
        <time>2016-08-12T10:35:28Z</time>
      </trkpt>
      <trkpt lat="44.28254" lon="6.18204">
        <ele>1547.8598633</ele>
        <time>2016-08-12T10:35:39Z</time>
      </trkpt>
      <trkpt lat="44.28253" lon="6.18203">
        <ele>1547.8598633</ele>
        <time>2016-08-12T10:36:31Z</time>
      </trkpt>
      <trkpt lat="44.28251" lon="6.18197">
        <ele>1547.8598633</ele>
        <time>2016-08-12T10:36:34Z</time>
      </trkpt>
      <trkpt lat="44.28225" lon="6.18146">
        <ele>1548.3405762</ele>
        <time>2016-08-12T10:36:54Z</time>
      </trkpt>
      <trkpt lat="44.28218" lon="6.18086">
        <ele>1549.7827148</ele>
        <time>2016-08-12T10:37:13Z</time>
      </trkpt>
      <trkpt lat="44.28218" lon="6.1808">
        <ele>1549.7827148</ele>
        <time>2016-08-12T10:37:15Z</time>
      </trkpt>
      <trkpt lat="44.28218" lon="6.18073">
        <ele>1550.2634277</ele>
        <time>2016-08-12T10:37:18Z</time>
      </trkpt>
      <trkpt lat="44.28218" lon="6.18064">
        <ele>1550.2634277</ele>
        <time>2016-08-12T10:37:21Z</time>
      </trkpt>
      <trkpt lat="44.28216" lon="6.18012">
        <ele>1550.7438965</ele>
        <time>2016-08-12T10:37:37Z</time>
      </trkpt>
      <trkpt lat="44.28214" lon="6.1797">
        <ele>1550.7438965</ele>
        <time>2016-08-12T10:37:50Z</time>
      </trkpt>
      <trkpt lat="44.28214" lon="6.17938">
        <ele>1550.7438965</ele>
        <time>2016-08-12T10:38:04Z</time>
      </trkpt>
      <trkpt lat="44.28206" lon="6.17928">
        <ele>1551.2246094</ele>
        <time>2016-08-12T10:38:38Z</time>
      </trkpt>
      <trkpt lat="44.28205" lon="6.17928">
        <ele>1551.2246094</ele>
        <time>2016-08-12T10:38:39Z</time>
      </trkpt>
      <trkpt lat="44.28185" lon="6.17907">
        <ele>1551.2246094</ele>
        <time>2016-08-12T10:39:09Z</time>
      </trkpt>
      <trkpt lat="44.28169" lon="6.17903">
        <ele>1551.2246094</ele>
        <time>2016-08-12T10:39:33Z</time>
      </trkpt>
      <trkpt lat="44.28166" lon="6.17903">
        <ele>1550.7438965</ele>
        <time>2016-08-12T10:39:55Z</time>
      </trkpt>
      <trkpt lat="44.28165" lon="6.17904">
        <ele>1550.2634277</ele>
        <time>2016-08-12T10:40:08Z</time>
      </trkpt>
      <trkpt lat="44.28161" lon="6.1791">
        <ele>1550.7438965</ele>
        <time>2016-08-12T10:40:15Z</time>
      </trkpt>
      <trkpt lat="44.28153" lon="6.17912">
        <ele>1551.2246094</ele>
        <time>2016-08-12T10:40:32Z</time>
      </trkpt>
      <trkpt lat="44.2815" lon="6.17912">
        <ele>1550.2634277</ele>
        <time>2016-08-12T10:40:58Z</time>
      </trkpt>
      <trkpt lat="44.28155" lon="6.17911">
        <ele>1550.7438965</ele>
        <time>2016-08-12T10:41:11Z</time>
      </trkpt>
      <trkpt lat="44.28169" lon="6.17902">
        <ele>1551.2246094</ele>
        <time>2016-08-12T10:41:28Z</time>
      </trkpt>
      <trkpt lat="44.28176" lon="6.17898">
        <ele>1551.2246094</ele>
        <time>2016-08-12T10:41:42Z</time>
      </trkpt>
      <trkpt lat="44.28182" lon="6.17902">
        <ele>1551.2246094</ele>
        <time>2016-08-12T10:41:49Z</time>
      </trkpt>
      <trkpt lat="44.28201" lon="6.17925">
        <ele>1550.7438965</ele>
        <time>2016-08-12T10:42:15Z</time>
      </trkpt>
      <trkpt lat="44.28209" lon="6.17933">
        <ele>1550.2634277</ele>
        <time>2016-08-12T10:42:29Z</time>
      </trkpt>
      <trkpt lat="44.28214" lon="6.1794">
        <ele>1550.7438965</ele>
        <time>2016-08-12T10:42:44Z</time>
      </trkpt>
      <trkpt lat="44.28212" lon="6.17987">
        <ele>1550.2634277</ele>
        <time>2016-08-12T10:42:57Z</time>
      </trkpt>
      <trkpt lat="44.28213" lon="6.18055">
        <ele>1549.302002</ele>
        <time>2016-08-12T10:43:14Z</time>
      </trkpt>
      <trkpt lat="44.28213" lon="6.18109">
        <ele>1548.8212891</ele>
        <time>2016-08-12T10:43:25Z</time>
      </trkpt>
      <trkpt lat="44.28239" lon="6.18183">
        <ele>1547.3791504</ele>
        <time>2016-08-12T10:43:39Z</time>
      </trkpt>
      <trkpt lat="44.28247" lon="6.18224">
        <ele>1547.8598633</ele>
        <time>2016-08-12T10:43:49Z</time>
      </trkpt>
      <trkpt lat="44.28243" lon="6.18239">
        <ele>1548.3405762</ele>
        <time>2016-08-12T10:43:53Z</time>
      </trkpt>
      <trkpt lat="44.28236" lon="6.1825">
        <ele>1547.8598633</ele>
        <time>2016-08-12T10:44:05Z</time>
      </trkpt>
      <trkpt lat="44.28235" lon="6.18248">
        <ele>1545.9372559</ele>
        <time>2016-08-12T10:44:23Z</time>
      </trkpt>
      <trkpt lat="44.28234" lon="6.18248">
        <ele>1545.456543</ele>
        <time>2016-08-12T10:44:25Z</time>
      </trkpt>
      <trkpt lat="44.28234" lon="6.18247">
        <ele>1546.4179688</ele>
        <time>2016-08-12T10:44:56Z</time>
      </trkpt>
      <trkpt lat="44.28233" lon="6.18246">
        <ele>1545.9372559</ele>
        <time>2016-08-12T10:47:03Z</time>
      </trkpt>
      <trkpt lat="44.28233" lon="6.18246">
        <ele>1545.9372559</ele>
        <time>2016-08-12T10:53:05Z</time>
      </trkpt>
      <trkpt lat="44.28233" lon="6.18245">
        <ele>1543.0532227</ele>
        <time>2016-08-12T10:57:16Z</time>
      </trkpt>
      <trkpt lat="44.28233" lon="6.18245">
        <ele>1546.8984375</ele>
        <time>2016-08-12T10:57:17Z</time>
      </trkpt>
      <trkpt lat="44.28233" lon="6.18245">
        <ele>1546.8984375</ele>
        <time>2016-08-12T10:57:18Z</time>
      </trkpt>
      <trkpt lat="44.28233" lon="6.18245">
        <ele>1548.8212891</ele>
        <time>2016-08-12T10:58:14Z</time>
      </trkpt>
      <trkpt lat="44.28232" lon="6.18245">
        <ele>1546.8984375</ele>
        <time>2016-08-12T10:58:18Z</time>
      </trkpt>
      <trkpt lat="44.28232" lon="6.18245">
        <ele>1548.3405762</ele>
        <time>2016-08-12T10:58:21Z</time>
      </trkpt>
      <trkpt lat="44.28233" lon="6.18246">
        <ele>1548.3405762</ele>
        <time>2016-08-12T10:58:30Z</time>
      </trkpt>
      <trkpt lat="44.28237" lon="6.18254">
        <ele>1548.3405762</ele>
        <time>2016-08-12T10:58:43Z</time>
      </trkpt>
      <trkpt lat="44.28238" lon="6.18257">
        <ele>1547.8598633</ele>
        <time>2016-08-12T10:58:53Z</time>
      </trkpt>
      <trkpt lat="44.28236" lon="6.18264">
        <ele>1548.3405762</ele>
        <time>2016-08-12T10:58:58Z</time>
      </trkpt>
      <trkpt lat="44.28238" lon="6.18276">
        <ele>1547.8598633</ele>
        <time>2016-08-12T10:59:15Z</time>
      </trkpt>
      <trkpt lat="44.28235" lon="6.18277">
        <ele>1548.3405762</ele>
        <time>2016-08-12T10:59:31Z</time>
      </trkpt>
      <trkpt lat="44.28234" lon="6.18278">
        <ele>1548.3405762</ele>
        <time>2016-08-12T10:59:34Z</time>
      </trkpt>
      <trkpt lat="44.28231" lon="6.18283">
        <ele>1549.302002</ele>
        <time>2016-08-12T10:59:37Z</time>
      </trkpt>
      <trkpt lat="44.282" lon="6.18303">
        <ele>1550.7438965</ele>
        <time>2016-08-12T10:59:54Z</time>
      </trkpt>
      <trkpt lat="44.28176" lon="6.18309">
        <ele>1553.1472168</ele>
        <time>2016-08-12T11:00:10Z</time>
      </trkpt>
      <trkpt lat="44.28167" lon="6.18311">
        <ele>1554.5891113</ele>
        <time>2016-08-12T11:00:18Z</time>
      </trkpt>
      <trkpt lat="44.28148" lon="6.18314">
        <ele>1554.5891113</ele>
        <time>2016-08-12T11:00:33Z</time>
      </trkpt>
      <trkpt lat="44.28146" lon="6.18314">
        <ele>1556.0310059</ele>
        <time>2016-08-12T11:00:35Z</time>
      </trkpt>
      <trkpt lat="44.28115" lon="6.18327">
        <ele>1557.9538574</ele>
        <time>2016-08-12T11:00:56Z</time>
      </trkpt>
      <trkpt lat="44.28101" lon="6.18342">
        <ele>1558.9150391</ele>
        <time>2016-08-12T11:01:09Z</time>
      </trkpt>
      <trkpt lat="44.28092" lon="6.18361">
        <ele>1560.3569336</ele>
        <time>2016-08-12T11:01:23Z</time>
      </trkpt>
      <trkpt lat="44.28089" lon="6.18372">
        <ele>1561.3183594</ele>
        <time>2016-08-12T11:01:30Z</time>
      </trkpt>
      <trkpt lat="44.28085" lon="6.18399">
        <ele>1562.279541</ele>
        <time>2016-08-12T11:01:49Z</time>
      </trkpt>
      <trkpt lat="44.28079" lon="6.1841">
        <ele>1563.2409668</ele>
        <time>2016-08-12T11:01:55Z</time>
      </trkpt>
      <trkpt lat="44.28079" lon="6.18452">
        <ele>1564.6831055</ele>
        <time>2016-08-12T11:02:16Z</time>
      </trkpt>
      <trkpt lat="44.28078" lon="6.18461">
        <ele>1565.6445313</ele>
        <time>2016-08-12T11:02:20Z</time>
      </trkpt>
      <trkpt lat="44.28076" lon="6.18474">
        <ele>1565.6445313</ele>
        <time>2016-08-12T11:02:26Z</time>
      </trkpt>
      <trkpt lat="44.28064" lon="6.18506">
        <ele>1566.6057129</ele>
        <time>2016-08-12T11:02:41Z</time>
      </trkpt>
      <trkpt lat="44.28063" lon="6.18509">
        <ele>1566.125</ele>
        <time>2016-08-12T11:02:43Z</time>
      </trkpt>
      <trkpt lat="44.28039" lon="6.18537">
        <ele>1566.6057129</ele>
        <time>2016-08-12T11:02:57Z</time>
      </trkpt>
      <trkpt lat="44.28017" lon="6.18582">
        <ele>1566.125</ele>
        <time>2016-08-12T11:03:13Z</time>
      </trkpt>
      <trkpt lat="44.27979" lon="6.18631">
        <ele>1564.6831055</ele>
        <time>2016-08-12T11:03:27Z</time>
      </trkpt>
      <trkpt lat="44.27973" lon="6.18645">
        <ele>1564.2023926</ele>
        <time>2016-08-12T11:03:30Z</time>
      </trkpt>
      <trkpt lat="44.27989" lon="6.18661">
        <ele>1564.6831055</ele>
        <time>2016-08-12T11:03:38Z</time>
      </trkpt>
      <trkpt lat="44.28017" lon="6.18658">
        <ele>1565.6445313</ele>
        <time>2016-08-12T11:03:52Z</time>
      </trkpt>
      <trkpt lat="44.28044" lon="6.18656">
        <ele>1566.6057129</ele>
        <time>2016-08-12T11:04:06Z</time>
      </trkpt>
      <trkpt lat="44.28077" lon="6.18665">
        <ele>1566.6057129</ele>
        <time>2016-08-12T11:04:24Z</time>
      </trkpt>
      <trkpt lat="44.281" lon="6.18671">
        <ele>1568.0476074</ele>
        <time>2016-08-12T11:04:40Z</time>
      </trkpt>
      <trkpt lat="44.28125" lon="6.1868">
        <ele>1570.4509277</ele>
        <time>2016-08-12T11:04:58Z</time>
      </trkpt>
      <trkpt lat="44.28146" lon="6.18684">
        <ele>1572.3735352</ele>
        <time>2016-08-12T11:05:13Z</time>
      </trkpt>
      <trkpt lat="44.28148" lon="6.18684">
        <ele>1572.3735352</ele>
        <time>2016-08-12T11:05:15Z</time>
      </trkpt>
      <trkpt lat="44.2815" lon="6.18683">
        <ele>1573.3349609</ele>
        <time>2016-08-12T11:05:17Z</time>
      </trkpt>
      <trkpt lat="44.28166" lon="6.18682">
        <ele>1574.2961426</ele>
        <time>2016-08-12T11:05:28Z</time>
      </trkpt>
      <trkpt lat="44.28169" lon="6.18685">
        <ele>1574.2961426</ele>
        <time>2016-08-12T11:05:31Z</time>
      </trkpt>
      <trkpt lat="44.28169" lon="6.1869">
        <ele>1574.7768555</ele>
        <time>2016-08-12T11:05:34Z</time>
      </trkpt>
      <trkpt lat="44.28156" lon="6.18717">
        <ele>1576.6994629</ele>
        <time>2016-08-12T11:05:52Z</time>
      </trkpt>
      <trkpt lat="44.28153" lon="6.1873">
        <ele>1578.6220703</ele>
        <time>2016-08-12T11:06:03Z</time>
      </trkpt>
      <trkpt lat="44.28151" lon="6.18745">
        <ele>1579.583252</ele>
        <time>2016-08-12T11:06:12Z</time>
      </trkpt>
      <trkpt lat="44.28149" lon="6.18751">
        <ele>1579.583252</ele>
        <time>2016-08-12T11:06:14Z</time>
      </trkpt>
      <trkpt lat="44.28143" lon="6.1876">
        <ele>1580.064209</ele>
        <time>2016-08-12T11:06:20Z</time>
      </trkpt>
      <trkpt lat="44.28139" lon="6.18756">
        <ele>1581.5061035</ele>
        <time>2016-08-12T11:06:26Z</time>
      </trkpt>
      <trkpt lat="44.28138" lon="6.18749">
        <ele>1581.0256348</ele>
        <time>2016-08-12T11:06:30Z</time>
      </trkpt>
      <trkpt lat="44.28138" lon="6.18742">
        <ele>1581.9868164</ele>
        <time>2016-08-12T11:06:34Z</time>
      </trkpt>
      <trkpt lat="44.28135" lon="6.18736">
        <ele>1582.4675293</ele>
        <time>2016-08-12T11:06:39Z</time>
      </trkpt>
      <trkpt lat="44.28129" lon="6.18732">
        <ele>1583.4287109</ele>
        <time>2016-08-12T11:06:44Z</time>
      </trkpt>
      <trkpt lat="44.28127" lon="6.18732">
        <ele>1582.947998</ele>
        <time>2016-08-12T11:06:46Z</time>
      </trkpt>
      <trkpt lat="44.28103" lon="6.18753">
        <ele>1585.8320313</ele>
        <time>2016-08-12T11:07:09Z</time>
      </trkpt>
      <trkpt lat="44.28083" lon="6.18787">
        <ele>1588.2353516</ele>
        <time>2016-08-12T11:07:34Z</time>
      </trkpt>
      <trkpt lat="44.2807" lon="6.18817">
        <ele>1590.157959</ele>
        <time>2016-08-12T11:07:53Z</time>
      </trkpt>
      <trkpt lat="44.28062" lon="6.18831">
        <ele>1590.6384277</ele>
        <time>2016-08-12T11:08:01Z</time>
      </trkpt>
      <trkpt lat="44.2806" lon="6.18841">
        <ele>1591.1191406</ele>
        <time>2016-08-12T11:08:06Z</time>
      </trkpt>
      <trkpt lat="44.28064" lon="6.18888">
        <ele>1589.6772461</ele>
        <time>2016-08-12T11:08:26Z</time>
      </trkpt>
      <trkpt lat="44.28066" lon="6.1891">
        <ele>1591.1191406</ele>
        <time>2016-08-12T11:08:39Z</time>
      </trkpt>
      <trkpt lat="44.28067" lon="6.18915">
        <ele>1591.1191406</ele>
        <time>2016-08-12T11:08:53Z</time>
      </trkpt>
      <trkpt lat="44.28067" lon="6.18938">
        <ele>1593.041748</ele>
        <time>2016-08-12T11:09:09Z</time>
      </trkpt>
      <trkpt lat="44.2807" lon="6.1896">
        <ele>1595.4450684</ele>
        <time>2016-08-12T11:09:34Z</time>
      </trkpt>
      <trkpt lat="44.28072" lon="6.18972">
        <ele>1595.4450684</ele>
        <time>2016-08-12T11:09:51Z</time>
      </trkpt>
      <trkpt lat="44.28071" lon="6.18981">
        <ele>1595.4450684</ele>
        <time>2016-08-12T11:10:00Z</time>
      </trkpt>
      <trkpt lat="44.28068" lon="6.1899">
        <ele>1595.4450684</ele>
        <time>2016-08-12T11:10:04Z</time>
      </trkpt>
      <trkpt lat="44.28069" lon="6.19001">
        <ele>1595.4450684</ele>
        <time>2016-08-12T11:10:08Z</time>
      </trkpt>
      <trkpt lat="44.28069" lon="6.19005">
        <ele>1595.4450684</ele>
        <time>2016-08-12T11:10:10Z</time>
      </trkpt>
      <trkpt lat="44.28058" lon="6.19048">
        <ele>1596.4067383</ele>
        <time>2016-08-12T11:10:29Z</time>
      </trkpt>
      <trkpt lat="44.28054" lon="6.19057">
        <ele>1595.9257813</ele>
        <time>2016-08-12T11:10:33Z</time>
      </trkpt>
      <trkpt lat="44.28051" lon="6.19069">
        <ele>1595.4450684</ele>
        <time>2016-08-12T11:10:38Z</time>
      </trkpt>
      <trkpt lat="44.28042" lon="6.19115">
        <ele>1594.0031738</ele>
        <time>2016-08-12T11:10:51Z</time>
      </trkpt>
      <trkpt lat="44.28038" lon="6.19142">
        <ele>1594.0031738</ele>
        <time>2016-08-12T11:10:59Z</time>
      </trkpt>
      <trkpt lat="44.28031" lon="6.19155">
        <ele>1594.4836426</ele>
        <time>2016-08-12T11:11:05Z</time>
      </trkpt>
      <trkpt lat="44.28035" lon="6.19167">
        <ele>1594.4836426</ele>
        <time>2016-08-12T11:11:10Z</time>
      </trkpt>
      <trkpt lat="44.28031" lon="6.19189">
        <ele>1595.9257813</ele>
        <time>2016-08-12T11:11:23Z</time>
      </trkpt>
      <trkpt lat="44.28033" lon="6.19204">
        <ele>1596.887207</ele>
        <time>2016-08-12T11:11:29Z</time>
      </trkpt>
      <trkpt lat="44.28022" lon="6.19227">
        <ele>1599.7712402</ele>
        <time>2016-08-12T11:11:40Z</time>
      </trkpt>
      <trkpt lat="44.28011" lon="6.19251">
        <ele>1602.1743164</ele>
        <time>2016-08-12T11:11:57Z</time>
      </trkpt>
      <trkpt lat="44.27998" lon="6.19273">
        <ele>1603.1357422</ele>
        <time>2016-08-12T11:12:12Z</time>
      </trkpt>
      <trkpt lat="44.27997" lon="6.19274">
        <ele>1603.1357422</ele>
        <time>2016-08-12T11:12:13Z</time>
      </trkpt>
      <trkpt lat="44.27965" lon="6.19284">
        <ele>1603.1357422</ele>
        <time>2016-08-12T11:12:30Z</time>
      </trkpt>
      <trkpt lat="44.27963" lon="6.19285">
        <ele>1603.1357422</ele>
        <time>2016-08-12T11:12:31Z</time>
      </trkpt>
      <trkpt lat="44.27943" lon="6.19297">
        <ele>1602.6550293</ele>
        <time>2016-08-12T11:12:42Z</time>
      </trkpt>
      <trkpt lat="44.27932" lon="6.19312">
        <ele>1602.6550293</ele>
        <time>2016-08-12T11:12:51Z</time>
      </trkpt>
      <trkpt lat="44.27922" lon="6.19327">
        <ele>1602.6550293</ele>
        <time>2016-08-12T11:13:00Z</time>
      </trkpt>
      <trkpt lat="44.27916" lon="6.19334">
        <ele>1602.6550293</ele>
        <time>2016-08-12T11:13:05Z</time>
      </trkpt>
      <trkpt lat="44.27913" lon="6.19346">
        <ele>1602.1743164</ele>
        <time>2016-08-12T11:13:10Z</time>
      </trkpt>
      <trkpt lat="44.2791" lon="6.19349">
        <ele>1602.1743164</ele>
        <time>2016-08-12T11:13:13Z</time>
      </trkpt>
      <trkpt lat="44.27908" lon="6.19354">
        <ele>1602.6550293</ele>
        <time>2016-08-12T11:13:17Z</time>
      </trkpt>
      <trkpt lat="44.27905" lon="6.19359">
        <ele>1602.6550293</ele>
        <time>2016-08-12T11:13:20Z</time>
      </trkpt>
      <trkpt lat="44.27889" lon="6.1939">
        <ele>1604.097168</ele>
        <time>2016-08-12T11:13:38Z</time>
      </trkpt>
      <trkpt lat="44.27886" lon="6.19395">
        <ele>1603.6164551</ele>
        <time>2016-08-12T11:13:41Z</time>
      </trkpt>
      <trkpt lat="44.27886" lon="6.19403">
        <ele>1604.5776367</ele>
        <time>2016-08-12T11:13:44Z</time>
      </trkpt>
      <trkpt lat="44.27881" lon="6.19418">
        <ele>1604.5776367</ele>
        <time>2016-08-12T11:13:51Z</time>
      </trkpt>
      <trkpt lat="44.27873" lon="6.19439">
        <ele>1605.0583496</ele>
        <time>2016-08-12T11:14:01Z</time>
      </trkpt>
      <trkpt lat="44.27867" lon="6.19492">
        <ele>1604.097168</ele>
        <time>2016-08-12T11:14:17Z</time>
      </trkpt>
      <trkpt lat="44.27866" lon="6.19505">
        <ele>1603.1357422</ele>
        <time>2016-08-12T11:14:21Z</time>
      </trkpt>
      <trkpt lat="44.27864" lon="6.19512">
        <ele>1602.6550293</ele>
        <time>2016-08-12T11:14:25Z</time>
      </trkpt>
      <trkpt lat="44.2785" lon="6.19526">
        <ele>1602.1743164</ele>
        <time>2016-08-12T11:14:33Z</time>
      </trkpt>
      <trkpt lat="44.27844" lon="6.19547">
        <ele>1601.6938477</ele>
        <time>2016-08-12T11:14:40Z</time>
      </trkpt>
      <trkpt lat="44.2784" lon="6.19567">
        <ele>1601.2131348</ele>
        <time>2016-08-12T11:14:54Z</time>
      </trkpt>
      <trkpt lat="44.2784" lon="6.19568">
        <ele>1601.2131348</ele>
        <time>2016-08-12T11:15:33Z</time>
      </trkpt>
      <trkpt lat="44.27841" lon="6.19569">
        <ele>1601.2131348</ele>
        <time>2016-08-12T11:16:33Z</time>
      </trkpt>
      <trkpt lat="44.27843" lon="6.19579">
        <ele>1600.2519531</ele>
        <time>2016-08-12T11:16:50Z</time>
      </trkpt>
      <trkpt lat="44.27839" lon="6.19602">
        <ele>1598.3291016</ele>
        <time>2016-08-12T11:17:09Z</time>
      </trkpt>
      <trkpt lat="44.27837" lon="6.19614">
        <ele>1598.8098145</ele>
        <time>2016-08-12T11:17:25Z</time>
      </trkpt>
      <trkpt lat="44.27834" lon="6.19626">
        <ele>1598.3291016</ele>
        <time>2016-08-12T11:17:40Z</time>
      </trkpt>
      <trkpt lat="44.27836" lon="6.19631">
        <ele>1598.3291016</ele>
        <time>2016-08-12T11:17:45Z</time>
      </trkpt>
      <trkpt lat="44.27834" lon="6.19649">
        <ele>1597.8486328</ele>
        <time>2016-08-12T11:17:52Z</time>
      </trkpt>
      <trkpt lat="44.2784" lon="6.19685">
        <ele>1595.4450684</ele>
        <time>2016-08-12T11:18:02Z</time>
      </trkpt>
      <trkpt lat="44.27842" lon="6.19703">
        <ele>1596.4067383</ele>
        <time>2016-08-12T11:18:10Z</time>
      </trkpt>
      <trkpt lat="44.27844" lon="6.19711">
        <ele>1596.887207</ele>
        <time>2016-08-12T11:18:14Z</time>
      </trkpt>
      <trkpt lat="44.27855" lon="6.19718">
        <ele>1597.8486328</ele>
        <time>2016-08-12T11:18:26Z</time>
      </trkpt>
      <trkpt lat="44.27863" lon="6.19737">
        <ele>1599.7712402</ele>
        <time>2016-08-12T11:18:42Z</time>
      </trkpt>
      <trkpt lat="44.27868" lon="6.19748">
        <ele>1599.7712402</ele>
        <time>2016-08-12T11:18:55Z</time>
      </trkpt>
      <trkpt lat="44.27868" lon="6.19755">
        <ele>1599.7712402</ele>
        <time>2016-08-12T11:19:03Z</time>
      </trkpt>
      <trkpt lat="44.27875" lon="6.19768">
        <ele>1600.2519531</ele>
        <time>2016-08-12T11:19:10Z</time>
      </trkpt>
      <trkpt lat="44.27875" lon="6.19773">
        <ele>1600.2519531</ele>
        <time>2016-08-12T11:19:13Z</time>
      </trkpt>
      <trkpt lat="44.27865" lon="6.19803">
        <ele>1602.1743164</ele>
        <time>2016-08-12T11:19:29Z</time>
      </trkpt>
      <trkpt lat="44.27852" lon="6.19832">
        <ele>1601.2131348</ele>
        <time>2016-08-12T11:19:42Z</time>
      </trkpt>
      <trkpt lat="44.2785" lon="6.1985">
        <ele>1599.7712402</ele>
        <time>2016-08-12T11:19:54Z</time>
      </trkpt>
      <trkpt lat="44.27849" lon="6.19856">
        <ele>1599.7712402</ele>
        <time>2016-08-12T11:20:01Z</time>
      </trkpt>
      <trkpt lat="44.2783" lon="6.19881">
        <ele>1598.3291016</ele>
        <time>2016-08-12T11:20:11Z</time>
      </trkpt>
      <trkpt lat="44.27829" lon="6.19903">
        <ele>1599.2905273</ele>
        <time>2016-08-12T11:20:22Z</time>
      </trkpt>
      <trkpt lat="44.27814" lon="6.1992">
        <ele>1597.3679199</ele>
        <time>2016-08-12T11:20:31Z</time>
      </trkpt>
      <trkpt lat="44.27798" lon="6.19933">
        <ele>1596.4067383</ele>
        <time>2016-08-12T11:20:47Z</time>
      </trkpt>
      <trkpt lat="44.27791" lon="6.19936">
        <ele>1595.4450684</ele>
        <time>2016-08-12T11:21:26Z</time>
      </trkpt>
      <trkpt lat="44.27783" lon="6.19944">
        <ele>1594.0031738</ele>
        <time>2016-08-12T11:21:42Z</time>
      </trkpt>
      <trkpt lat="44.27771" lon="6.19943">
        <ele>1593.5224609</ele>
        <time>2016-08-12T11:21:56Z</time>
      </trkpt>
      <trkpt lat="44.27771" lon="6.19939">
        <ele>1593.5224609</ele>
        <time>2016-08-12T11:22:00Z</time>
      </trkpt>
      <trkpt lat="44.27762" lon="6.19944">
        <ele>1592.0805664</ele>
        <time>2016-08-12T11:22:11Z</time>
      </trkpt>
      <trkpt lat="44.27747" lon="6.19941">
        <ele>1591.5998535</ele>
        <time>2016-08-12T11:22:24Z</time>
      </trkpt>
      <trkpt lat="44.27745" lon="6.19939">
        <ele>1591.5998535</ele>
        <time>2016-08-12T11:22:26Z</time>
      </trkpt>
      <trkpt lat="44.27739" lon="6.1996">
        <ele>1591.5998535</ele>
        <time>2016-08-12T11:22:39Z</time>
      </trkpt>
      <trkpt lat="44.27739" lon="6.19992">
        <ele>1592.0805664</ele>
        <time>2016-08-12T11:23:03Z</time>
      </trkpt>
      <trkpt lat="44.27742" lon="6.20032">
        <ele>1592.0805664</ele>
        <time>2016-08-12T11:23:27Z</time>
      </trkpt>
      <trkpt lat="44.2776" lon="6.20056">
        <ele>1593.5224609</ele>
        <time>2016-08-12T11:23:50Z</time>
      </trkpt>
      <trkpt lat="44.27767" lon="6.20072">
        <ele>1594.4836426</ele>
        <time>2016-08-12T11:24:06Z</time>
      </trkpt>
      <trkpt lat="44.27766" lon="6.20103">
        <ele>1595.4450684</ele>
        <time>2016-08-12T11:24:30Z</time>
      </trkpt>
      <trkpt lat="44.27757" lon="6.20133">
        <ele>1595.4450684</ele>
        <time>2016-08-12T11:24:55Z</time>
      </trkpt>
      <trkpt lat="44.27749" lon="6.20153">
        <ele>1595.9257813</ele>
        <time>2016-08-12T11:25:19Z</time>
      </trkpt>
      <trkpt lat="44.27772" lon="6.20142">
        <ele>1580.0820313</ele>
      </trkpt>
      <trkpt lat="44.2781" lon="6.20135">
        <ele>1571.7460938</ele>
      </trkpt>
      <trkpt lat="44.27848" lon="6.20119">
        <ele>1563.7382813</ele>
      </trkpt>
      <trkpt lat="44.27879" lon="6.20088">
        <ele>1556.4296875</ele>
      </trkpt>
      <trkpt lat="44.27911" lon="6.20058">
        <ele>1548.1757813</ele>
      </trkpt>
      <trkpt lat="44.27936" lon="6.20004">
        <ele>1541.5625</ele>
      </trkpt>
      <trkpt lat="44.27955" lon="6.19966">
        <ele>1537.203125</ele>
      </trkpt>
      <trkpt lat="44.27986" lon="6.19943">
        <ele>1531.1953125</ele>
      </trkpt>
      <trkpt lat="44.28024" lon="6.19935">
        <ele>1523.59375</ele>
      </trkpt>
      <trkpt lat="44.28055" lon="6.1992">
        <ele>1520.3632813</ele>
      </trkpt>
      <trkpt lat="44.28087" lon="6.19881">
        <ele>1521.109375</ele>
      </trkpt>
      <trkpt lat="44.28106" lon="6.19835">
        <ele>1520.6875</ele>
      </trkpt>
      <trkpt lat="44.28118" lon="6.19781">
        <ele>1515.6953125</ele>
      </trkpt>
      <trkpt lat="44.28143" lon="6.19743">
        <ele>1508.9023438</ele>
      </trkpt>
      <trkpt lat="44.28181" lon="6.1972">
        <ele>1502.6132813</ele>
      </trkpt>
      <trkpt lat="44.28219" lon="6.19712">
        <ele>1497.8945313</ele>
      </trkpt>
      <trkpt lat="44.2825" lon="6.19689">
        <ele>1489.9921875</ele>
      </trkpt>
      <trkpt lat="44.28275" lon="6.19651">
        <ele>1479.0664063</ele>
      </trkpt>
      <trkpt lat="44.28294" lon="6.19613">
        <ele>1472.8632813</ele>
      </trkpt>
      <trkpt lat="44.28313" lon="6.19574">
        <ele>1469.6015625</ele>
      </trkpt>
      <trkpt lat="44.28338" lon="6.19528">
        <ele>1465.046875</ele>
      </trkpt>
      <trkpt lat="44.28376" lon="6.1952">
        <ele>1459.3320313</ele>
      </trkpt>
      <trkpt lat="44.28414" lon="6.19513">
        <ele>1454.8710938</ele>
      </trkpt>
      <trkpt lat="44.28451" lon="6.19497">
        <ele>1449.15625</ele>
      </trkpt>
      <trkpt lat="44.28489" lon="6.19467">
        <ele>1446.1484375</ele>
      </trkpt>
      <trkpt lat="44.28514" lon="6.19436">
        <ele>1445.0859375</ele>
      </trkpt>
      <trkpt lat="44.28546" lon="6.19405">
        <ele>1442.875</ele>
      </trkpt>
      <trkpt lat="44.28546" lon="6.19352">
        <ele>1450.3398438</ele>
      </trkpt>
      <trkpt lat="44.28565" lon="6.19313">
        <ele>1451.3320313</ele>
      </trkpt>
      <trkpt lat="44.28596" lon="6.19298">
        <ele>1446.8046875</ele>
      </trkpt>
      <trkpt lat="44.28634" lon="6.1929">
        <ele>1441.1132813</ele>
      </trkpt>
      <trkpt lat="44.28665" lon="6.19275">
        <ele>1438.75</ele>
      </trkpt>
      <trkpt lat="44.28703" lon="6.19252">
        <ele>1436.3164063</ele>
      </trkpt>
      <trkpt lat="44.28741" lon="6.19229">
        <ele>1431.4140625</ele>
      </trkpt>
      <trkpt lat="44.28766" lon="6.1919">
        <ele>1429.1953125</ele>
      </trkpt>
      <trkpt lat="44.28772" lon="6.19137">
        <ele>1434.5703125</ele>
      </trkpt>
      <trkpt lat="44.28778" lon="6.19083">
        <ele>1439.4726563</ele>
      </trkpt>
      <trkpt lat="44.28791" lon="6.19029">
        <ele>1438.671875</ele>
      </trkpt>
      <trkpt lat="44.28785" lon="6.18975">
        <ele>1440.3515625</ele>
      </trkpt>
      <trkpt lat="44.28747" lon="6.18983">
        <ele>1447.78125</ele>
      </trkpt>
      <trkpt lat="44.28709" lon="6.18983">
        <ele>1454.2460938</ele>
      </trkpt>
      <trkpt lat="44.28678" lon="6.1896">
        <ele>1458.0429688</ele>
      </trkpt>
      <trkpt lat="44.28678" lon="6.18906">
        <ele>1454.5078125</ele>
      </trkpt>
      <trkpt lat="44.28703" lon="6.18868">
        <ele>1450.1601563</ele>
      </trkpt>
      <trkpt lat="44.28715" lon="6.18822">
        <ele>1449.4882813</ele>
      </trkpt>
      <trkpt lat="44.28728" lon="6.18768">
        <ele>1450.7382813</ele>
      </trkpt>
      <trkpt lat="44.28759" lon="6.18745">
        <ele>1445.0820313</ele>
      </trkpt>
      <trkpt lat="44.28728" lon="6.18699">
        <ele>1452.9257813</ele>
      </trkpt>
      <trkpt lat="44.2869" lon="6.18668">
        <ele>1463.6835938</ele>
      </trkpt>
      <trkpt lat="44.28653" lon="6.18684">
        <ele>1473.4492188</ele>
      </trkpt>
      <trkpt lat="44.28684" lon="6.18661">
        <ele>1464.9921875</ele>
      </trkpt>
      <trkpt lat="44.28715" lon="6.18622">
        <ele>1456.765625</ele>
      </trkpt>
      <trkpt lat="44.28747" lon="6.18592">
        <ele>1452.5195313</ele>
      </trkpt>
      <trkpt lat="44.28785" lon="6.18561">
        <ele>1451.8828125</ele>
      </trkpt>
      <trkpt lat="44.2881" lon="6.1853">
        <ele>1455.140625</ele>
      </trkpt>
      <trkpt lat="44.28848" lon="6.18499">
        <ele>1457.703125</ele>
      </trkpt>
      <trkpt lat="44.28885" lon="6.18492">
        <ele>1457.3710938</ele>
      </trkpt>
      <trkpt lat="44.28923" lon="6.18476">
        <ele>1460.3203125</ele>
      </trkpt>
      <trkpt lat="44.28961" lon="6.18469">
        <ele>1460.6210938</ele>
      </trkpt>
      <trkpt lat="44.28998" lon="6.18446">
        <ele>1460.0625</ele>
      </trkpt>
      <trkpt lat="44.29042" lon="6.18423">
        <ele>1453.6601563</ele>
      </trkpt>
      <trkpt lat="44.2908" lon="6.18407">
        <ele>1446.8671875</ele>
      </trkpt>
      <trkpt lat="44.29124" lon="6.184">
        <ele>1438.3828125</ele>
      </trkpt>
      <trkpt lat="44.29143" lon="6.18354">
        <ele>1437.3945313</ele>
      </trkpt>
      <trkpt lat="44.29156" lon="6.183">
        <ele>1433.71875</ele>
      </trkpt>
      <trkpt lat="44.29175" lon="6.18246">
        <ele>1432.8164063</ele>
      </trkpt>
      <trkpt lat="44.29219" lon="6.18238">
        <ele>1426.2851563</ele>
      </trkpt>
      <trkpt lat="44.29256" lon="6.18215">
        <ele>1420.5117188</ele>
      </trkpt>
      <trkpt lat="44.29294" lon="6.18208">
        <ele>1411.6796875</ele>
      </trkpt>
      <trkpt lat="44.29288" lon="6.18246">
        <ele>1408.15625</ele>
      </trkpt>
      <trkpt lat="44.29269" lon="6.18292">
        <ele>1408.0859375</ele>
      </trkpt>
      <trkpt lat="44.29269" lon="6.18346">
        <ele>1405.9804688</ele>
      </trkpt>
      <trkpt lat="44.29281" lon="6.18392">
        <ele>1400.421875</ele>
      </trkpt>
      <trkpt lat="44.29307" lon="6.18423">
        <ele>1393.265625</ele>
      </trkpt>
      <trkpt lat="44.29294" lon="6.18469">
        <ele>1392.25</ele>
      </trkpt>
      <trkpt lat="44.29288" lon="6.18523">
        <ele>1389.578125</ele>
      </trkpt>
      <trkpt lat="44.29319" lon="6.18523">
        <ele>1385.9335938</ele>
      </trkpt>
      <trkpt lat="44.29351" lon="6.18492">
        <ele>1383.609375</ele>
      </trkpt>
      <trkpt lat="44.29376" lon="6.18461">
        <ele>1381.6367188</ele>
      </trkpt>
      <trkpt lat="44.29413" lon="6.18438">
        <ele>1378.9726563</ele>
      </trkpt>
      <trkpt lat="44.29439" lon="6.18407">
        <ele>1377.3203125</ele>
      </trkpt>
      <trkpt lat="44.2947" lon="6.18377">
        <ele>1376.1328125</ele>
      </trkpt>
      <trkpt lat="44.2947" lon="6.18323">
        <ele>1375.8554688</ele>
      </trkpt>
      <trkpt lat="44.29495" lon="6.18285">
        <ele>1373.2382813</ele>
      </trkpt>
      <trkpt lat="44.2952" lon="6.18246">
        <ele>1372.2148438</ele>
      </trkpt>
      <trkpt lat="44.29546" lon="6.18238">
        <ele>1371.3164063</ele>
      </trkpt>
      <trkpt lat="44.29538" lon="6.18237">
        <ele>1366.1706543</ele>
        <time>2016-08-12T12:01:07Z</time>
      </trkpt>
      <trkpt lat="44.29537" lon="6.18229">
        <ele>1363.2868652</ele>
        <time>2016-08-12T12:01:43Z</time>
      </trkpt>
      <trkpt lat="44.29536" lon="6.18225">
        <ele>1361.3642578</ele>
        <time>2016-08-12T12:02:28Z</time>
      </trkpt>
      <trkpt lat="44.29538" lon="6.18225">
        <ele>1361.8449707</ele>
        <time>2016-08-12T12:03:31Z</time>
      </trkpt>
      <trkpt lat="44.29544" lon="6.18219">
        <ele>1362.3254395</ele>
        <time>2016-08-12T12:03:35Z</time>
      </trkpt>
      <trkpt lat="44.29557" lon="6.18182">
        <ele>1361.3642578</ele>
        <time>2016-08-12T12:03:46Z</time>
      </trkpt>
      <trkpt lat="44.29561" lon="6.18178">
        <ele>1360.8835449</ele>
        <time>2016-08-12T12:03:48Z</time>
      </trkpt>
      <trkpt lat="44.29571" lon="6.18175">
        <ele>1361.3642578</ele>
        <time>2016-08-12T12:03:52Z</time>
      </trkpt>
      <trkpt lat="44.29623" lon="6.18159">
        <ele>1358.4802246</ele>
        <time>2016-08-12T12:04:02Z</time>
      </trkpt>
      <trkpt lat="44.29646" lon="6.18148">
        <ele>1357.9997559</ele>
        <time>2016-08-12T12:04:07Z</time>
      </trkpt>
      <trkpt lat="44.29691" lon="6.18151">
        <ele>1357.519043</ele>
        <time>2016-08-12T12:04:17Z</time>
      </trkpt>
      <trkpt lat="44.29742" lon="6.18127">
        <ele>1357.9997559</ele>
        <time>2016-08-12T12:04:31Z</time>
      </trkpt>
      <trkpt lat="44.29759" lon="6.18114">
        <ele>1358.9609375</ele>
        <time>2016-08-12T12:04:40Z</time>
      </trkpt>
      <trkpt lat="44.29768" lon="6.18076">
        <ele>1362.3254395</ele>
        <time>2016-08-12T12:04:57Z</time>
      </trkpt>
      <trkpt lat="44.29792" lon="6.18039">
        <ele>1363.767334</ele>
        <time>2016-08-12T12:05:17Z</time>
      </trkpt>
      <trkpt lat="44.29807" lon="6.17991">
        <ele>1361.8449707</ele>
        <time>2016-08-12T12:05:30Z</time>
      </trkpt>
      <trkpt lat="44.29816" lon="6.17965">
        <ele>1358.9609375</ele>
        <time>2016-08-12T12:05:36Z</time>
      </trkpt>
      <trkpt lat="44.29847" lon="6.17943">
        <ele>1356.5576172</ele>
        <time>2016-08-12T12:05:47Z</time>
      </trkpt>
      <trkpt lat="44.29859" lon="6.1794">
        <ele>1355.1154785</ele>
        <time>2016-08-12T12:05:52Z</time>
      </trkpt>
      <trkpt lat="44.29863" lon="6.17926">
        <ele>1354.6347656</ele>
        <time>2016-08-12T12:05:56Z</time>
      </trkpt>
      <trkpt lat="44.29846" lon="6.17882">
        <ele>1356.0769043</ele>
        <time>2016-08-12T12:06:12Z</time>
      </trkpt>
      <trkpt lat="44.29845" lon="6.17865">
        <ele>1356.5576172</ele>
        <time>2016-08-12T12:06:17Z</time>
      </trkpt>
      <trkpt lat="44.29847" lon="6.17851">
        <ele>1357.0383301</ele>
        <time>2016-08-12T12:06:20Z</time>
      </trkpt>
      <trkpt lat="44.29822" lon="6.1778">
        <ele>1354.6347656</ele>
        <time>2016-08-12T12:06:32Z</time>
      </trkpt>
      <trkpt lat="44.29816" lon="6.17743">
        <ele>1353.1928711</ele>
        <time>2016-08-12T12:06:38Z</time>
      </trkpt>
      <trkpt lat="44.2982" lon="6.17716">
        <ele>1353.1928711</ele>
        <time>2016-08-12T12:06:43Z</time>
      </trkpt>
      <trkpt lat="44.29833" lon="6.17679">
        <ele>1352.2314453</ele>
        <time>2016-08-12T12:06:50Z</time>
      </trkpt>
      <trkpt lat="44.29829" lon="6.17616">
        <ele>1353.1928711</ele>
        <time>2016-08-12T12:07:03Z</time>
      </trkpt>
      <trkpt lat="44.29827" lon="6.1761">
        <ele>1353.1928711</ele>
        <time>2016-08-12T12:07:04Z</time>
      </trkpt>
      <trkpt lat="44.29831" lon="6.17574">
        <ele>1350.7895508</ele>
        <time>2016-08-12T12:07:10Z</time>
      </trkpt>
      <trkpt lat="44.29844" lon="6.17504">
        <ele>1347.4250488</ele>
        <time>2016-08-12T12:07:21Z</time>
      </trkpt>
      <trkpt lat="44.29854" lon="6.17468">
        <ele>1344.5410156</ele>
        <time>2016-08-12T12:07:26Z</time>
      </trkpt>
      <trkpt lat="44.29868" lon="6.17446">
        <ele>1343.579834</ele>
        <time>2016-08-12T12:07:30Z</time>
      </trkpt>
      <trkpt lat="44.29876" lon="6.17436">
        <ele>1342.6186523</ele>
        <time>2016-08-12T12:07:32Z</time>
      </trkpt>
      <trkpt lat="44.29883" lon="6.17424">
        <ele>1341.1765137</ele>
        <time>2016-08-12T12:07:34Z</time>
      </trkpt>
      <trkpt lat="44.29905" lon="6.17393">
        <ele>1338.7731934</ele>
        <time>2016-08-12T12:07:39Z</time>
      </trkpt>
      <trkpt lat="44.29908" lon="6.17379">
        <ele>1337.8117676</ele>
        <time>2016-08-12T12:07:41Z</time>
      </trkpt>
      <trkpt lat="44.29916" lon="6.17366">
        <ele>1337.3310547</ele>
        <time>2016-08-12T12:07:43Z</time>
      </trkpt>
      <trkpt lat="44.29932" lon="6.17325">
        <ele>1334.9279785</ele>
        <time>2016-08-12T12:07:48Z</time>
      </trkpt>
      <trkpt lat="44.29938" lon="6.1731">
        <ele>1332.5246582</ele>
        <time>2016-08-12T12:07:50Z</time>
      </trkpt>
      <trkpt lat="44.29945" lon="6.17296">
        <ele>1330.6020508</ele>
        <time>2016-08-12T12:07:52Z</time>
      </trkpt>
      <trkpt lat="44.29958" lon="6.17272">
        <ele>1328.6794434</ele>
        <time>2016-08-12T12:07:56Z</time>
      </trkpt>
      <trkpt lat="44.29962" lon="6.17262">
        <ele>1327.2375488</ele>
        <time>2016-08-12T12:07:58Z</time>
      </trkpt>
      <trkpt lat="44.29966" lon="6.17221">
        <ele>1325.7954102</ele>
        <time>2016-08-12T12:08:04Z</time>
      </trkpt>
      <trkpt lat="44.29971" lon="6.17191">
        <ele>1323.3920898</ele>
        <time>2016-08-12T12:08:08Z</time>
      </trkpt>
      <trkpt lat="44.29974" lon="6.17165">
        <ele>1321.4692383</ele>
        <time>2016-08-12T12:08:11Z</time>
      </trkpt>
      <trkpt lat="44.29976" lon="6.17149">
        <ele>1319.546875</ele>
        <time>2016-08-12T12:08:13Z</time>
      </trkpt>
      <trkpt lat="44.29978" lon="6.17133">
        <ele>1318.5854492</ele>
        <time>2016-08-12T12:08:15Z</time>
      </trkpt>
      <trkpt lat="44.29978" lon="6.17111">
        <ele>1316.6628418</ele>
        <time>2016-08-12T12:08:18Z</time>
      </trkpt>
      <trkpt lat="44.29977" lon="6.17105">
        <ele>1315.7016602</ele>
        <time>2016-08-12T12:08:19Z</time>
      </trkpt>
      <trkpt lat="44.29981" lon="6.17074">
        <ele>1314.2595215</ele>
        <time>2016-08-12T12:08:24Z</time>
      </trkpt>
      <trkpt lat="44.2999" lon="6.17054">
        <ele>1313.7788086</ele>
        <time>2016-08-12T12:08:27Z</time>
      </trkpt>
      <trkpt lat="44.30008" lon="6.17029">
        <ele>1311.8564453</ele>
        <time>2016-08-12T12:08:31Z</time>
      </trkpt>
      <trkpt lat="44.30022" lon="6.16996">
        <ele>1310.8950195</ele>
        <time>2016-08-12T12:08:35Z</time>
      </trkpt>
      <trkpt lat="44.30031" lon="6.16964">
        <ele>1308.9724121</ele>
        <time>2016-08-12T12:08:39Z</time>
      </trkpt>
      <trkpt lat="44.30034" lon="6.16949">
        <ele>1308.4916992</ele>
        <time>2016-08-12T12:08:41Z</time>
      </trkpt>
      <trkpt lat="44.3005" lon="6.16915">
        <ele>1305.1269531</ele>
        <time>2016-08-12T12:08:47Z</time>
      </trkpt>
      <trkpt lat="44.30059" lon="6.16889">
        <ele>1304.1657715</ele>
        <time>2016-08-12T12:08:51Z</time>
      </trkpt>
      <trkpt lat="44.30067" lon="6.16859">
        <ele>1301.7624512</ele>
        <time>2016-08-12T12:08:55Z</time>
      </trkpt>
      <trkpt lat="44.30075" lon="6.16821">
        <ele>1298.878418</ele>
        <time>2016-08-12T12:09:02Z</time>
      </trkpt>
      <trkpt lat="44.30079" lon="6.16811">
        <ele>1298.3977051</ele>
        <time>2016-08-12T12:09:04Z</time>
      </trkpt>
      <trkpt lat="44.30092" lon="6.16797">
        <ele>1296.9558105</ele>
        <time>2016-08-12T12:09:08Z</time>
      </trkpt>
      <trkpt lat="44.30104" lon="6.16776">
        <ele>1294.5524902</ele>
        <time>2016-08-12T12:09:12Z</time>
      </trkpt>
      <trkpt lat="44.3011" lon="6.16757">
        <ele>1293.5913086</ele>
        <time>2016-08-12T12:09:15Z</time>
      </trkpt>
      <trkpt lat="44.30121" lon="6.16746">
        <ele>1292.630127</ele>
        <time>2016-08-12T12:09:19Z</time>
      </trkpt>
      <trkpt lat="44.30137" lon="6.16734">
        <ele>1290.7070313</ele>
        <time>2016-08-12T12:09:22Z</time>
      </trkpt>
      <trkpt lat="44.30169" lon="6.16719">
        <ele>1288.3039551</ele>
        <time>2016-08-12T12:09:28Z</time>
      </trkpt>
      <trkpt lat="44.30186" lon="6.16707">
        <ele>1285.4199219</ele>
        <time>2016-08-12T12:09:32Z</time>
      </trkpt>
      <trkpt lat="44.3019" lon="6.16701">
        <ele>1284.9394531</ele>
        <time>2016-08-12T12:09:33Z</time>
      </trkpt>
      <trkpt lat="44.30197" lon="6.16688">
        <ele>1283.9780273</ele>
        <time>2016-08-12T12:09:35Z</time>
      </trkpt>
      <trkpt lat="44.3021" lon="6.16675">
        <ele>1281.574707</ele>
        <time>2016-08-12T12:09:38Z</time>
      </trkpt>
      <trkpt lat="44.30222" lon="6.16633">
        <ele>1279.6520996</ele>
        <time>2016-08-12T12:09:44Z</time>
      </trkpt>
      <trkpt lat="44.30224" lon="6.16622">
        <ele>1278.2102051</ele>
        <time>2016-08-12T12:09:46Z</time>
      </trkpt>
      <trkpt lat="44.30231" lon="6.166">
        <ele>1277.7294922</ele>
        <time>2016-08-12T12:09:50Z</time>
      </trkpt>
      <trkpt lat="44.30234" lon="6.16588">
        <ele>1276.2875977</ele>
        <time>2016-08-12T12:09:52Z</time>
      </trkpt>
      <trkpt lat="44.30241" lon="6.16565">
        <ele>1274.845459</ele>
        <time>2016-08-12T12:09:56Z</time>
      </trkpt>
      <trkpt lat="44.3025" lon="6.16547">
        <ele>1274.3647461</ele>
        <time>2016-08-12T12:09:59Z</time>
      </trkpt>
      <trkpt lat="44.30273" lon="6.16531">
        <ele>1272.9228516</ele>
        <time>2016-08-12T12:10:03Z</time>
      </trkpt>
      <trkpt lat="44.30286" lon="6.16517">
        <ele>1272.9228516</ele>
        <time>2016-08-12T12:10:06Z</time>
      </trkpt>
      <trkpt lat="44.30315" lon="6.16499">
        <ele>1271.4807129</ele>
        <time>2016-08-12T12:10:11Z</time>
      </trkpt>
      <trkpt lat="44.3034" lon="6.1649">
        <ele>1268.5969238</ele>
        <time>2016-08-12T12:10:15Z</time>
      </trkpt>
      <trkpt lat="44.3037" lon="6.16475">
        <ele>1266.1936035</ele>
        <time>2016-08-12T12:10:20Z</time>
      </trkpt>
      <trkpt lat="44.30373" lon="6.16472">
        <ele>1265.2324219</ele>
        <time>2016-08-12T12:10:21Z</time>
      </trkpt>
      <trkpt lat="44.30381" lon="6.16465">
        <ele>1264.2709961</ele>
        <time>2016-08-12T12:10:23Z</time>
      </trkpt>
      <trkpt lat="44.30402" lon="6.16447">
        <ele>1262.8291016</ele>
        <time>2016-08-12T12:10:27Z</time>
      </trkpt>
      <trkpt lat="44.30418" lon="6.16427">
        <ele>1260.9064941</ele>
        <time>2016-08-12T12:10:30Z</time>
      </trkpt>
      <trkpt lat="44.30421" lon="6.16416">
        <ele>1260.4257813</ele>
        <time>2016-08-12T12:10:31Z</time>
      </trkpt>
      <trkpt lat="44.30431" lon="6.16389">
        <ele>1258.9836426</ele>
        <time>2016-08-12T12:10:34Z</time>
      </trkpt>
      <trkpt lat="44.30438" lon="6.16374">
        <ele>1258.0224609</ele>
        <time>2016-08-12T12:10:36Z</time>
      </trkpt>
      <trkpt lat="44.30443" lon="6.16353">
        <ele>1256.5803223</ele>
        <time>2016-08-12T12:10:39Z</time>
      </trkpt>
      <trkpt lat="44.30446" lon="6.1634">
        <ele>1256.5803223</ele>
        <time>2016-08-12T12:10:41Z</time>
      </trkpt>
      <trkpt lat="44.30452" lon="6.1632">
        <ele>1254.1772461</ele>
        <time>2016-08-12T12:10:44Z</time>
      </trkpt>
      <trkpt lat="44.30478" lon="6.16266">
        <ele>1249.8513184</ele>
        <time>2016-08-12T12:10:52Z</time>
      </trkpt>
      <trkpt lat="44.30483" lon="6.1626">
        <ele>1249.8513184</ele>
        <time>2016-08-12T12:10:53Z</time>
      </trkpt>
      <trkpt lat="44.30506" lon="6.16214">
        <ele>1245.5253906</ele>
        <time>2016-08-12T12:10:59Z</time>
      </trkpt>
      <trkpt lat="44.3051" lon="6.16206">
        <ele>1245.5253906</ele>
        <time>2016-08-12T12:11:00Z</time>
      </trkpt>
      <trkpt lat="44.30522" lon="6.16189">
        <ele>1244.5639648</ele>
        <time>2016-08-12T12:11:03Z</time>
      </trkpt>
      <trkpt lat="44.30548" lon="6.16174">
        <ele>1243.6025391</ele>
        <time>2016-08-12T12:11:07Z</time>
      </trkpt>
      <trkpt lat="44.30587" lon="6.16157">
        <ele>1239.7573242</ele>
        <time>2016-08-12T12:11:15Z</time>
      </trkpt>
      <trkpt lat="44.30596" lon="6.16152">
        <ele>1239.2766113</ele>
        <time>2016-08-12T12:11:17Z</time>
      </trkpt>
      <trkpt lat="44.30628" lon="6.16133">
        <ele>1237.8347168</ele>
        <time>2016-08-12T12:11:23Z</time>
      </trkpt>
      <trkpt lat="44.30645" lon="6.1611">
        <ele>1235.4313965</ele>
        <time>2016-08-12T12:11:28Z</time>
      </trkpt>
      <trkpt lat="44.3065" lon="6.16102">
        <ele>1233.989502</ele>
        <time>2016-08-12T12:11:30Z</time>
      </trkpt>
      <trkpt lat="44.30671" lon="6.16089">
        <ele>1232.0668945</ele>
        <time>2016-08-12T12:11:35Z</time>
      </trkpt>
      <trkpt lat="44.3068" lon="6.16088">
        <ele>1231.5861816</ele>
        <time>2016-08-12T12:11:37Z</time>
      </trkpt>
      <trkpt lat="44.307" lon="6.16057">
        <ele>1229.6635742</ele>
        <time>2016-08-12T12:11:43Z</time>
      </trkpt>
      <trkpt lat="44.30708" lon="6.1604">
        <ele>1229.1828613</ele>
        <time>2016-08-12T12:11:47Z</time>
      </trkpt>
      <trkpt lat="44.30725" lon="6.16031">
        <ele>1227.2602539</ele>
        <time>2016-08-12T12:11:51Z</time>
      </trkpt>
      <trkpt lat="44.30729" lon="6.1603">
        <ele>1226.779541</ele>
        <time>2016-08-12T12:11:52Z</time>
      </trkpt>
      <trkpt lat="44.30736" lon="6.1603">
        <ele>1225.8181152</ele>
        <time>2016-08-12T12:11:54Z</time>
      </trkpt>
      <trkpt lat="44.30743" lon="6.16022">
        <ele>1224.8569336</ele>
        <time>2016-08-12T12:11:57Z</time>
      </trkpt>
      <trkpt lat="44.3075" lon="6.15992">
        <ele>1223.8955078</ele>
        <time>2016-08-12T12:12:02Z</time>
      </trkpt>
      <trkpt lat="44.30765" lon="6.15964">
        <ele>1222.4536133</ele>
        <time>2016-08-12T12:12:08Z</time>
      </trkpt>
      <trkpt lat="44.30786" lon="6.15952">
        <ele>1221.0117188</ele>
        <time>2016-08-12T12:12:13Z</time>
      </trkpt>
      <trkpt lat="44.30812" lon="6.15928">
        <ele>1219.5698242</ele>
        <time>2016-08-12T12:12:19Z</time>
      </trkpt>
      <trkpt lat="44.30821" lon="6.15894">
        <ele>1218.6083984</ele>
        <time>2016-08-12T12:12:25Z</time>
      </trkpt>
      <trkpt lat="44.30817" lon="6.15882">
        <ele>1219.0891113</ele>
        <time>2016-08-12T12:12:27Z</time>
      </trkpt>
      <trkpt lat="44.30818" lon="6.15859">
        <ele>1219.5698242</ele>
        <time>2016-08-12T12:12:31Z</time>
      </trkpt>
      <trkpt lat="44.30832" lon="6.15802">
        <ele>1221.9729004</ele>
        <time>2016-08-12T12:12:47Z</time>
      </trkpt>
      <trkpt lat="44.30859" lon="6.15744">
        <ele>1222.9343262</ele>
        <time>2016-08-12T12:13:05Z</time>
      </trkpt>
      <trkpt lat="44.30861" lon="6.15719">
        <ele>1222.9343262</ele>
        <time>2016-08-12T12:13:10Z</time>
      </trkpt>
      <trkpt lat="44.30877" lon="6.15675">
        <ele>1221.9729004</ele>
        <time>2016-08-12T12:13:17Z</time>
      </trkpt>
      <trkpt lat="44.309" lon="6.15622">
        <ele>1219.0891113</ele>
        <time>2016-08-12T12:13:24Z</time>
      </trkpt>
      <trkpt lat="44.30922" lon="6.15578">
        <ele>1218.6083984</ele>
        <time>2016-08-12T12:13:30Z</time>
      </trkpt>
      <trkpt lat="44.30928" lon="6.1556">
        <ele>1218.1276855</ele>
        <time>2016-08-12T12:13:32Z</time>
      </trkpt>
      <trkpt lat="44.30928" lon="6.15493">
        <ele>1216.2050781</ele>
        <time>2016-08-12T12:13:39Z</time>
      </trkpt>
      <trkpt lat="44.30899" lon="6.15401">
        <ele>1214.2824707</ele>
        <time>2016-08-12T12:13:49Z</time>
      </trkpt>
      <trkpt lat="44.30884" lon="6.15363">
        <ele>1211.8791504</ele>
        <time>2016-08-12T12:13:54Z</time>
      </trkpt>
      <trkpt lat="44.30878" lon="6.15352">
        <ele>1210.9177246</ele>
        <time>2016-08-12T12:13:56Z</time>
      </trkpt>
      <trkpt lat="44.30875" lon="6.15347">
        <ele>1209.9562988</ele>
        <time>2016-08-12T12:13:57Z</time>
      </trkpt>
      <trkpt lat="44.30889" lon="6.15347">
        <ele>1208.9951172</ele>
        <time>2016-08-12T12:14:03Z</time>
      </trkpt>
      <trkpt lat="44.30897" lon="6.15361">
        <ele>1208.0339355</ele>
        <time>2016-08-12T12:14:05Z</time>
      </trkpt>
      <trkpt lat="44.30906" lon="6.15374">
        <ele>1207.0725098</ele>
        <time>2016-08-12T12:14:07Z</time>
      </trkpt>
      <trkpt lat="44.30911" lon="6.15381">
        <ele>1206.111084</ele>
        <time>2016-08-12T12:14:08Z</time>
      </trkpt>
      <trkpt lat="44.30922" lon="6.15392">
        <ele>1204.6691895</ele>
        <time>2016-08-12T12:14:10Z</time>
      </trkpt>
      <trkpt lat="44.30933" lon="6.15404">
        <ele>1204.1887207</ele>
        <time>2016-08-12T12:14:12Z</time>
      </trkpt>
      <trkpt lat="44.30969" lon="6.15417">
        <ele>1200.3435059</ele>
        <time>2016-08-12T12:14:17Z</time>
      </trkpt>
      <trkpt lat="44.30986" lon="6.15418">
        <ele>1198.9013672</ele>
        <time>2016-08-12T12:14:19Z</time>
      </trkpt>
      <trkpt lat="44.31018" lon="6.15419">
        <ele>1196.498291</ele>
        <time>2016-08-12T12:14:23Z</time>
      </trkpt>
      <trkpt lat="44.31039" lon="6.1542">
        <ele>1193.6140137</ele>
        <time>2016-08-12T12:14:26Z</time>
      </trkpt>
      <trkpt lat="44.31045" lon="6.15421">
        <ele>1192.652832</ele>
        <time>2016-08-12T12:14:27Z</time>
      </trkpt>
      <trkpt lat="44.31063" lon="6.15414">
        <ele>1190.7299805</ele>
        <time>2016-08-12T12:14:30Z</time>
      </trkpt>
      <trkpt lat="44.31067" lon="6.15408">
        <ele>1189.7687988</ele>
        <time>2016-08-12T12:14:31Z</time>
      </trkpt>
      <trkpt lat="44.31093" lon="6.15402">
        <ele>1187.3654785</ele>
        <time>2016-08-12T12:14:36Z</time>
      </trkpt>
      <trkpt lat="44.3112" lon="6.1542">
        <ele>1184.9624023</ele>
        <time>2016-08-12T12:14:40Z</time>
      </trkpt>
      <trkpt lat="44.3113" lon="6.15426">
        <ele>1183.0395508</ele>
        <time>2016-08-12T12:14:42Z</time>
      </trkpt>
      <trkpt lat="44.31135" lon="6.15429">
        <ele>1181.5976563</ele>
        <time>2016-08-12T12:14:43Z</time>
      </trkpt>
      <trkpt lat="44.31151" lon="6.15434">
        <ele>1179.1940918</ele>
        <time>2016-08-12T12:14:47Z</time>
      </trkpt>
      <trkpt lat="44.31157" lon="6.15429">
        <ele>1178.713623</ele>
        <time>2016-08-12T12:14:49Z</time>
      </trkpt>
      <trkpt lat="44.31175" lon="6.15412">
        <ele>1175.8295898</ele>
        <time>2016-08-12T12:14:53Z</time>
      </trkpt>
      <trkpt lat="44.31193" lon="6.15388">
        <ele>1174.3876953</ele>
        <time>2016-08-12T12:14:56Z</time>
      </trkpt>
      <trkpt lat="44.31204" lon="6.15368">
        <ele>1172.4650879</ele>
        <time>2016-08-12T12:14:58Z</time>
      </trkpt>
      <trkpt lat="44.31212" lon="6.15352">
        <ele>1169.5812988</ele>
        <time>2016-08-12T12:15:00Z</time>
      </trkpt>
      <trkpt lat="44.31234" lon="6.15341">
        <ele>1167.6584473</ele>
        <time>2016-08-12T12:15:07Z</time>
      </trkpt>
      <trkpt lat="44.31228" lon="6.15358">
        <ele>1167.1779785</ele>
        <time>2016-08-12T12:15:10Z</time>
      </trkpt>
      <trkpt lat="44.31217" lon="6.15379">
        <ele>1165.736084</ele>
        <time>2016-08-12T12:15:13Z</time>
      </trkpt>
      <trkpt lat="44.31203" lon="6.15415">
        <ele>1164.2939453</ele>
        <time>2016-08-12T12:15:17Z</time>
      </trkpt>
      <trkpt lat="44.31197" lon="6.15434">
        <ele>1162.3710938</ele>
        <time>2016-08-12T12:15:19Z</time>
      </trkpt>
      <trkpt lat="44.31192" lon="6.15447">
        <ele>1160.9291992</ele>
        <time>2016-08-12T12:15:21Z</time>
      </trkpt>
      <trkpt lat="44.31188" lon="6.15457">
        <ele>1158.0454102</ele>
        <time>2016-08-12T12:15:23Z</time>
      </trkpt>
      <trkpt lat="44.31185" lon="6.15469">
        <ele>1157.5646973</ele>
        <time>2016-08-12T12:15:26Z</time>
      </trkpt>
      <trkpt lat="44.31215" lon="6.1549">
        <ele>1155.6420898</ele>
        <time>2016-08-12T12:15:33Z</time>
      </trkpt>
      <trkpt lat="44.31247" lon="6.15477">
        <ele>1152.7580566</ele>
        <time>2016-08-12T12:15:37Z</time>
      </trkpt>
      <trkpt lat="44.31264" lon="6.15463">
        <ele>1150.8354492</ele>
        <time>2016-08-12T12:15:40Z</time>
      </trkpt>
      <trkpt lat="44.31272" lon="6.15439">
        <ele>1147.951416</ele>
        <time>2016-08-12T12:15:44Z</time>
      </trkpt>
      <trkpt lat="44.31272" lon="6.15434">
        <ele>1147.951416</ele>
        <time>2016-08-12T12:15:45Z</time>
      </trkpt>
      <trkpt lat="44.31264" lon="6.15408">
        <ele>1146.5095215</ele>
        <time>2016-08-12T12:15:49Z</time>
      </trkpt>
      <trkpt lat="44.31274" lon="6.15391">
        <ele>1145.0673828</ele>
        <time>2016-08-12T12:15:54Z</time>
      </trkpt>
      <trkpt lat="44.31282" lon="6.15408">
        <ele>1144.1062012</ele>
        <time>2016-08-12T12:15:57Z</time>
      </trkpt>
      <trkpt lat="44.31297" lon="6.15448">
        <ele>1141.7028809</ele>
        <time>2016-08-12T12:16:02Z</time>
      </trkpt>
      <trkpt lat="44.31324" lon="6.15463">
        <ele>1138.8190918</ele>
        <time>2016-08-12T12:16:09Z</time>
      </trkpt>
      <trkpt lat="44.31318" lon="6.15428">
        <ele>1136.8962402</ele>
        <time>2016-08-12T12:16:13Z</time>
      </trkpt>
      <trkpt lat="44.31313" lon="6.15411">
        <ele>1136.4157715</ele>
        <time>2016-08-12T12:16:15Z</time>
      </trkpt>
      <trkpt lat="44.31311" lon="6.15403">
        <ele>1134.973877</ele>
        <time>2016-08-12T12:16:16Z</time>
      </trkpt>
      <trkpt lat="44.31314" lon="6.15383">
        <ele>1133.5317383</ele>
        <time>2016-08-12T12:16:19Z</time>
      </trkpt>
      <trkpt lat="44.31336" lon="6.15378">
        <ele>1131.128418</ele>
        <time>2016-08-12T12:16:23Z</time>
      </trkpt>
      <trkpt lat="44.31368" lon="6.15363">
        <ele>1129.6862793</ele>
        <time>2016-08-12T12:16:29Z</time>
      </trkpt>
      <trkpt lat="44.31386" lon="6.1535">
        <ele>1127.2832031</ele>
        <time>2016-08-12T12:16:32Z</time>
      </trkpt>
      <trkpt lat="44.31409" lon="6.1533">
        <ele>1125.8410645</ele>
        <time>2016-08-12T12:16:35Z</time>
      </trkpt>
      <trkpt lat="44.31432" lon="6.15317">
        <ele>1121.9958496</ele>
        <time>2016-08-12T12:16:38Z</time>
      </trkpt>
      <trkpt lat="44.31439" lon="6.15313">
        <ele>1120.0732422</ele>
        <time>2016-08-12T12:16:39Z</time>
      </trkpt>
      <trkpt lat="44.31471" lon="6.15302">
        <ele>1118.1506348</ele>
        <time>2016-08-12T12:16:43Z</time>
      </trkpt>
      <trkpt lat="44.31489" lon="6.15298">
        <ele>1116.2280273</ele>
        <time>2016-08-12T12:16:45Z</time>
      </trkpt>
      <trkpt lat="44.31504" lon="6.15284">
        <ele>1114.3051758</ele>
        <time>2016-08-12T12:16:47Z</time>
      </trkpt>
      <trkpt lat="44.31535" lon="6.15249">
        <ele>1109.0180664</ele>
        <time>2016-08-12T12:16:51Z</time>
      </trkpt>
      <trkpt lat="44.31554" lon="6.1522">
        <ele>1106.6147461</ele>
        <time>2016-08-12T12:16:54Z</time>
      </trkpt>
      <trkpt lat="44.31559" lon="6.1521">
        <ele>1105.1728516</ele>
        <time>2016-08-12T12:16:55Z</time>
      </trkpt>
      <trkpt lat="44.3158" lon="6.15171">
        <ele>1100.8469238</ele>
        <time>2016-08-12T12:16:59Z</time>
      </trkpt>
      <trkpt lat="44.31587" lon="6.15151">
        <ele>1097.4821777</ele>
        <time>2016-08-12T12:17:01Z</time>
      </trkpt>
      <trkpt lat="44.31588" lon="6.15126">
        <ele>1096.0402832</ele>
        <time>2016-08-12T12:17:03Z</time>
      </trkpt>
      <trkpt lat="44.31584" lon="6.15085">
        <ele>1094.1176758</ele>
        <time>2016-08-12T12:17:06Z</time>
      </trkpt>
      <trkpt lat="44.31579" lon="6.1504">
        <ele>1090.7529297</ele>
        <time>2016-08-12T12:17:09Z</time>
      </trkpt>
      <trkpt lat="44.31576" lon="6.15025">
        <ele>1090.7529297</ele>
        <time>2016-08-12T12:17:10Z</time>
      </trkpt>
      <trkpt lat="44.31573" lon="6.15">
        <ele>1086.4272461</ele>
        <time>2016-08-12T12:17:12Z</time>
      </trkpt>
      <trkpt lat="44.31572" lon="6.14989">
        <ele>1086.4272461</ele>
        <time>2016-08-12T12:17:13Z</time>
      </trkpt>
      <trkpt lat="44.31573" lon="6.14971">
        <ele>1084.9853516</ele>
        <time>2016-08-12T12:17:15Z</time>
      </trkpt>
      <trkpt lat="44.31603" lon="6.14942">
        <ele>1081.1398926</ele>
        <time>2016-08-12T12:17:20Z</time>
      </trkpt>
      <trkpt lat="44.31621" lon="6.14942">
        <ele>1079.6977539</ele>
        <time>2016-08-12T12:17:22Z</time>
      </trkpt>
      <trkpt lat="44.31634" lon="6.14939">
        <ele>1077.7751465</ele>
        <time>2016-08-12T12:17:24Z</time>
      </trkpt>
      <trkpt lat="44.3164" lon="6.14935">
        <ele>1076.333252</ele>
        <time>2016-08-12T12:17:25Z</time>
      </trkpt>
      <trkpt lat="44.31667" lon="6.14918">
        <ele>1075.3718262</ele>
        <time>2016-08-12T12:17:29Z</time>
      </trkpt>
      <trkpt lat="44.3169" lon="6.14895">
        <ele>1072.96875</ele>
        <time>2016-08-12T12:17:33Z</time>
      </trkpt>
      <trkpt lat="44.31716" lon="6.14876">
        <ele>1069.604248</ele>
        <time>2016-08-12T12:17:37Z</time>
      </trkpt>
      <trkpt lat="44.31724" lon="6.1487">
        <ele>1069.604248</ele>
        <time>2016-08-12T12:17:38Z</time>
      </trkpt>
      <trkpt lat="44.31731" lon="6.14866">
        <ele>1069.1235352</ele>
        <time>2016-08-12T12:17:39Z</time>
      </trkpt>
      <trkpt lat="44.31758" lon="6.14834">
        <ele>1066.2392578</ele>
        <time>2016-08-12T12:17:43Z</time>
      </trkpt>
      <trkpt lat="44.31771" lon="6.14816">
        <ele>1064.7973633</ele>
        <time>2016-08-12T12:17:45Z</time>
      </trkpt>
      <trkpt lat="44.31777" lon="6.14807">
        <ele>1061.9135742</ele>
        <time>2016-08-12T12:17:46Z</time>
      </trkpt>
      <trkpt lat="44.31791" lon="6.14777">
        <ele>1060.4714355</ele>
        <time>2016-08-12T12:17:49Z</time>
      </trkpt>
      <trkpt lat="44.31798" lon="6.1476">
        <ele>1059.5102539</ele>
        <time>2016-08-12T12:17:51Z</time>
      </trkpt>
      <trkpt lat="44.31817" lon="6.14744">
        <ele>1058.0683594</ele>
        <time>2016-08-12T12:17:54Z</time>
      </trkpt>
      <trkpt lat="44.31838" lon="6.14733">
        <ele>1055.1843262</ele>
        <time>2016-08-12T12:17:56Z</time>
      </trkpt>
      <trkpt lat="44.3185" lon="6.1473">
        <ele>1055.1843262</ele>
        <time>2016-08-12T12:17:57Z</time>
      </trkpt>
      <trkpt lat="44.31869" lon="6.1473">
        <ele>1052.7810059</ele>
        <time>2016-08-12T12:17:59Z</time>
      </trkpt>
      <trkpt lat="44.31882" lon="6.14733">
        <ele>1050.3776855</ele>
        <time>2016-08-12T12:18:01Z</time>
      </trkpt>
      <trkpt lat="44.31894" lon="6.14733">
        <ele>1048.9355469</ele>
        <time>2016-08-12T12:18:03Z</time>
      </trkpt>
      <trkpt lat="44.31908" lon="6.1469">
        <ele>1046.5324707</ele>
        <time>2016-08-12T12:18:09Z</time>
      </trkpt>
      <trkpt lat="44.3191" lon="6.14604">
        <ele>1043.1677246</ele>
        <time>2016-08-12T12:18:16Z</time>
      </trkpt>
      <trkpt lat="44.3191" lon="6.14593">
        <ele>1043.1677246</ele>
        <time>2016-08-12T12:18:17Z</time>
      </trkpt>
      <trkpt lat="44.31917" lon="6.14564">
        <ele>1041.2451172</ele>
        <time>2016-08-12T12:18:20Z</time>
      </trkpt>
      <trkpt lat="44.31921" lon="6.14554">
        <ele>1040.7644043</ele>
        <time>2016-08-12T12:18:21Z</time>
      </trkpt>
      <trkpt lat="44.31952" lon="6.14499">
        <ele>1037.8806152</ele>
        <time>2016-08-12T12:18:27Z</time>
      </trkpt>
      <trkpt lat="44.31961" lon="6.14483">
        <ele>1035.4770508</ele>
        <time>2016-08-12T12:18:29Z</time>
      </trkpt>
      <trkpt lat="44.31966" lon="6.14476">
        <ele>1034.996582</ele>
        <time>2016-08-12T12:18:30Z</time>
      </trkpt>
      <trkpt lat="44.31994" lon="6.14453">
        <ele>1032.1125488</ele>
        <time>2016-08-12T12:18:34Z</time>
      </trkpt>
      <trkpt lat="44.32019" lon="6.14421">
        <ele>1030.6706543</ele>
        <time>2016-08-12T12:18:38Z</time>
      </trkpt>
      <trkpt lat="44.32036" lon="6.14403">
        <ele>1028.7480469</ele>
        <time>2016-08-12T12:18:41Z</time>
      </trkpt>
      <trkpt lat="44.32045" lon="6.14392">
        <ele>1026.8254395</ele>
        <time>2016-08-12T12:18:43Z</time>
      </trkpt>
      <trkpt lat="44.32049" lon="6.14387">
        <ele>1025.3833008</ele>
        <time>2016-08-12T12:18:44Z</time>
      </trkpt>
      <trkpt lat="44.32042" lon="6.1437">
        <ele>1023.9414063</ele>
        <time>2016-08-12T12:18:51Z</time>
      </trkpt>
      <trkpt lat="44.32038" lon="6.14375">
        <ele>1023.9414063</ele>
        <time>2016-08-12T12:18:52Z</time>
      </trkpt>
      <trkpt lat="44.32031" lon="6.14386">
        <ele>1022.9802246</ele>
        <time>2016-08-12T12:18:54Z</time>
      </trkpt>
      <trkpt lat="44.31956" lon="6.14454">
        <ele>1019.1347656</ele>
        <time>2016-08-12T12:19:06Z</time>
      </trkpt>
      <trkpt lat="44.3194" lon="6.14467">
        <ele>1017.692627</ele>
        <time>2016-08-12T12:19:08Z</time>
      </trkpt>
      <trkpt lat="44.31919" lon="6.14482">
        <ele>1015.2895508</ele>
        <time>2016-08-12T12:19:11Z</time>
      </trkpt>
      <trkpt lat="44.31913" lon="6.14487">
        <ele>1013.8474121</ele>
        <time>2016-08-12T12:19:12Z</time>
      </trkpt>
      <trkpt lat="44.31882" lon="6.14528">
        <ele>1011.4443359</ele>
        <time>2016-08-12T12:19:18Z</time>
      </trkpt>
      <trkpt lat="44.31863" lon="6.14554">
        <ele>1010.0021973</ele>
        <time>2016-08-12T12:19:21Z</time>
      </trkpt>
      <trkpt lat="44.31843" lon="6.14574">
        <ele>1008.079834</ele>
        <time>2016-08-12T12:19:24Z</time>
      </trkpt>
      <trkpt lat="44.31829" lon="6.14585">
        <ele>1003.7536621</ele>
        <time>2016-08-12T12:19:26Z</time>
      </trkpt>
      <trkpt lat="44.31803" lon="6.14617">
        <ele>1001.8310547</ele>
        <time>2016-08-12T12:19:31Z</time>
      </trkpt>
      <trkpt lat="44.31793" lon="6.14624">
        <ele>998.9470215</ele>
        <time>2016-08-12T12:19:34Z</time>
      </trkpt>
      <trkpt lat="44.31798" lon="6.14599">
        <ele>997.505127</ele>
        <time>2016-08-12T12:19:39Z</time>
      </trkpt>
      <trkpt lat="44.31807" lon="6.14587">
        <ele>996.5439453</ele>
        <time>2016-08-12T12:19:41Z</time>
      </trkpt>
      <trkpt lat="44.31819" lon="6.14571">
        <ele>995.1018066</ele>
        <time>2016-08-12T12:19:43Z</time>
      </trkpt>
      <trkpt lat="44.31842" lon="6.14532">
        <ele>991.2565918</ele>
        <time>2016-08-12T12:19:47Z</time>
      </trkpt>
      <trkpt lat="44.31847" lon="6.14521">
        <ele>991.2565918</ele>
        <time>2016-08-12T12:19:48Z</time>
      </trkpt>
      <trkpt lat="44.31859" lon="6.14499">
        <ele>988.8535156</ele>
        <time>2016-08-12T12:19:50Z</time>
      </trkpt>
      <trkpt lat="44.3187" lon="6.14477">
        <ele>986.9304199</ele>
        <time>2016-08-12T12:19:52Z</time>
      </trkpt>
      <trkpt lat="44.31886" lon="6.14442">
        <ele>984.5273438</ele>
        <time>2016-08-12T12:19:55Z</time>
      </trkpt>
      <trkpt lat="44.31897" lon="6.1442">
        <ele>982.6047363</ele>
        <time>2016-08-12T12:19:57Z</time>
      </trkpt>
      <trkpt lat="44.31909" lon="6.14399">
        <ele>979.7207031</ele>
        <time>2016-08-12T12:19:59Z</time>
      </trkpt>
      <trkpt lat="44.31917" lon="6.14388">
        <ele>977.317627</ele>
        <time>2016-08-12T12:20:00Z</time>
      </trkpt>
      <trkpt lat="44.31929" lon="6.14363">
        <ele>975.8754883</ele>
        <time>2016-08-12T12:20:02Z</time>
      </trkpt>
      <trkpt lat="44.31939" lon="6.14338">
        <ele>973.9528809</ele>
        <time>2016-08-12T12:20:04Z</time>
      </trkpt>
      <trkpt lat="44.31944" lon="6.14326">
        <ele>971.0688477</ele>
        <time>2016-08-12T12:20:05Z</time>
      </trkpt>
      <trkpt lat="44.3195" lon="6.14315">
        <ele>971.0688477</ele>
        <time>2016-08-12T12:20:06Z</time>
      </trkpt>
      <trkpt lat="44.3196" lon="6.14293">
        <ele>969.1462402</ele>
        <time>2016-08-12T12:20:08Z</time>
      </trkpt>
      <trkpt lat="44.31966" lon="6.14284">
        <ele>965.7817383</ele>
        <time>2016-08-12T12:20:09Z</time>
      </trkpt>
      <trkpt lat="44.31975" lon="6.14266">
        <ele>963.8588867</ele>
        <time>2016-08-12T12:20:11Z</time>
      </trkpt>
      <trkpt lat="44.31985" lon="6.14226">
        <ele>960.9750977</ele>
        <time>2016-08-12T12:20:15Z</time>
      </trkpt>
      <trkpt lat="44.31986" lon="6.14219">
        <ele>958.5717773</ele>
        <time>2016-08-12T12:20:16Z</time>
      </trkpt>
      <trkpt lat="44.31994" lon="6.14206">
        <ele>957.1298828</ele>
        <time>2016-08-12T12:20:18Z</time>
      </trkpt>
      <trkpt lat="44.32005" lon="6.14193">
        <ele>954.7263184</ele>
        <time>2016-08-12T12:20:20Z</time>
      </trkpt>
      <trkpt lat="44.32036" lon="6.1417">
        <ele>950.4006348</ele>
        <time>2016-08-12T12:20:24Z</time>
      </trkpt>
      <trkpt lat="44.32055" lon="6.14148">
        <ele>948.4777832</ele>
        <time>2016-08-12T12:20:27Z</time>
      </trkpt>
      <trkpt lat="44.32062" lon="6.14131">
        <ele>947.0358887</ele>
        <time>2016-08-12T12:20:29Z</time>
      </trkpt>
      <trkpt lat="44.32063" lon="6.14119">
        <ele>945.5939941</ele>
        <time>2016-08-12T12:20:30Z</time>
      </trkpt>
      <trkpt lat="44.32067" lon="6.14094">
        <ele>944.6325684</ele>
        <time>2016-08-12T12:20:32Z</time>
      </trkpt>
      <trkpt lat="44.32069" lon="6.14067">
        <ele>942.7102051</ele>
        <time>2016-08-12T12:20:34Z</time>
      </trkpt>
      <trkpt lat="44.32073" lon="6.14039">
        <ele>941.7487793</ele>
        <time>2016-08-12T12:20:36Z</time>
      </trkpt>
      <trkpt lat="44.32079" lon="6.14011">
        <ele>936.4614258</ele>
        <time>2016-08-12T12:20:38Z</time>
      </trkpt>
      <trkpt lat="44.3209" lon="6.13975">
        <ele>934.5388184</ele>
        <time>2016-08-12T12:20:41Z</time>
      </trkpt>
      <trkpt lat="44.32095" lon="6.13966">
        <ele>932.135498</ele>
        <time>2016-08-12T12:20:42Z</time>
      </trkpt>
      <trkpt lat="44.32121" lon="6.13929">
        <ele>929.2514648</ele>
        <time>2016-08-12T12:20:46Z</time>
      </trkpt>
      <trkpt lat="44.32134" lon="6.13911">
        <ele>926.8483887</ele>
        <time>2016-08-12T12:20:48Z</time>
      </trkpt>
      <trkpt lat="44.32139" lon="6.13903">
        <ele>924.9257813</ele>
        <time>2016-08-12T12:20:49Z</time>
      </trkpt>
      <trkpt lat="44.32163" lon="6.13884">
        <ele>923.4836426</ele>
        <time>2016-08-12T12:20:52Z</time>
      </trkpt>
      <trkpt lat="44.32171" lon="6.1388">
        <ele>922.0415039</ele>
        <time>2016-08-12T12:20:53Z</time>
      </trkpt>
      <trkpt lat="44.32188" lon="6.13874">
        <ele>919.6384277</ele>
        <time>2016-08-12T12:20:55Z</time>
      </trkpt>
      <trkpt lat="44.32203" lon="6.13871">
        <ele>917.2351074</ele>
        <time>2016-08-12T12:20:57Z</time>
      </trkpt>
      <trkpt lat="44.32211" lon="6.13868">
        <ele>915.7932129</ele>
        <time>2016-08-12T12:20:58Z</time>
      </trkpt>
      <trkpt lat="44.32238" lon="6.13866">
        <ele>912.4284668</ele>
        <time>2016-08-12T12:21:01Z</time>
      </trkpt>
      <trkpt lat="44.32263" lon="6.13858">
        <ele>910.9865723</ele>
        <time>2016-08-12T12:21:04Z</time>
      </trkpt>
      <trkpt lat="44.32278" lon="6.13854">
        <ele>910.9865723</ele>
        <time>2016-08-12T12:21:06Z</time>
      </trkpt>
      <trkpt lat="44.32296" lon="6.13827">
        <ele>908.583252</ele>
        <time>2016-08-12T12:21:09Z</time>
      </trkpt>
      <trkpt lat="44.32324" lon="6.13854">
        <ele>904.737793</ele>
        <time>2016-08-12T12:21:15Z</time>
      </trkpt>
      <trkpt lat="44.32356" lon="6.13876">
        <ele>903.2958984</ele>
        <time>2016-08-12T12:21:19Z</time>
      </trkpt>
      <trkpt lat="44.3242" lon="6.13896">
        <ele>899.4506836</ele>
        <time>2016-08-12T12:21:26Z</time>
      </trkpt>
      <trkpt lat="44.32428" lon="6.13898">
        <ele>899.4506836</ele>
        <time>2016-08-12T12:21:27Z</time>
      </trkpt>
      <trkpt lat="44.32444" lon="6.13904">
        <ele>896.0861816</ele>
        <time>2016-08-12T12:21:29Z</time>
      </trkpt>
      <trkpt lat="44.32465" lon="6.13904">
        <ele>894.644043</ele>
        <time>2016-08-12T12:21:32Z</time>
      </trkpt>
      <trkpt lat="44.32471" lon="6.139">
        <ele>893.6828613</ele>
        <time>2016-08-12T12:21:33Z</time>
      </trkpt>
      <trkpt lat="44.32487" lon="6.1389">
        <ele>892.2409668</ele>
        <time>2016-08-12T12:21:36Z</time>
      </trkpt>
      <trkpt lat="44.32506" lon="6.13895">
        <ele>890.3181152</ele>
        <time>2016-08-12T12:21:39Z</time>
      </trkpt>
      <trkpt lat="44.32527" lon="6.13921">
        <ele>887.9147949</ele>
        <time>2016-08-12T12:21:43Z</time>
      </trkpt>
      <trkpt lat="44.32541" lon="6.13939">
        <ele>885.5114746</ele>
        <time>2016-08-12T12:21:46Z</time>
      </trkpt>
      <trkpt lat="44.32558" lon="6.13943">
        <ele>884.0695801</ele>
        <time>2016-08-12T12:21:48Z</time>
      </trkpt>
      <trkpt lat="44.32565" lon="6.13939">
        <ele>883.5888672</ele>
        <time>2016-08-12T12:21:49Z</time>
      </trkpt>
      <trkpt lat="44.32594" lon="6.13936">
        <ele>882.1469727</ele>
        <time>2016-08-12T12:21:53Z</time>
      </trkpt>
      <trkpt lat="44.32601" lon="6.1394">
        <ele>881.185791</ele>
        <time>2016-08-12T12:21:54Z</time>
      </trkpt>
      <trkpt lat="44.32641" lon="6.13969">
        <ele>877.3405762</ele>
        <time>2016-08-12T12:21:59Z</time>
      </trkpt>
      <trkpt lat="44.32649" lon="6.13975">
        <ele>877.3405762</ele>
        <time>2016-08-12T12:22:00Z</time>
      </trkpt>
      <trkpt lat="44.32663" lon="6.13985">
        <ele>875.8981934</ele>
        <time>2016-08-12T12:22:02Z</time>
      </trkpt>
      <trkpt lat="44.32674" lon="6.13993">
        <ele>874.4562988</ele>
        <time>2016-08-12T12:22:04Z</time>
      </trkpt>
      <trkpt lat="44.32685" lon="6.13999">
        <ele>872.5336914</ele>
        <time>2016-08-12T12:22:06Z</time>
      </trkpt>
      <trkpt lat="44.32708" lon="6.1398">
        <ele>871.0917969</ele>
        <time>2016-08-12T12:22:11Z</time>
      </trkpt>
      <trkpt lat="44.32713" lon="6.13963">
        <ele>868.6884766</ele>
        <time>2016-08-12T12:22:13Z</time>
      </trkpt>
      <trkpt lat="44.32715" lon="6.13937">
        <ele>867.7270508</ele>
        <time>2016-08-12T12:22:16Z</time>
      </trkpt>
      <trkpt lat="44.32709" lon="6.13913">
        <ele>866.2851563</ele>
        <time>2016-08-12T12:22:19Z</time>
      </trkpt>
      <trkpt lat="44.32703" lon="6.13896">
        <ele>865.3239746</ele>
        <time>2016-08-12T12:22:21Z</time>
      </trkpt>
      <trkpt lat="44.32704" lon="6.13856">
        <ele>863.8818359</ele>
        <time>2016-08-12T12:22:25Z</time>
      </trkpt>
      <trkpt lat="44.32707" lon="6.13834">
        <ele>862.4399414</ele>
        <time>2016-08-12T12:22:27Z</time>
      </trkpt>
      <trkpt lat="44.32707" lon="6.13812">
        <ele>858.5944824</ele>
        <time>2016-08-12T12:22:29Z</time>
      </trkpt>
      <trkpt lat="44.32704" lon="6.13786">
        <ele>857.6333008</ele>
        <time>2016-08-12T12:22:32Z</time>
      </trkpt>
      <trkpt lat="44.32709" lon="6.13772">
        <ele>855.7106934</ele>
        <time>2016-08-12T12:22:34Z</time>
      </trkpt>
      <trkpt lat="44.32714" lon="6.13766">
        <ele>854.7492676</ele>
        <time>2016-08-12T12:22:35Z</time>
      </trkpt>
      <trkpt lat="44.32726" lon="6.13755">
        <ele>853.7880859</ele>
        <time>2016-08-12T12:22:37Z</time>
      </trkpt>
      <trkpt lat="44.32772" lon="6.1373">
        <ele>848.5007324</ele>
        <time>2016-08-12T12:22:43Z</time>
      </trkpt>
      <trkpt lat="44.3278" lon="6.13726">
        <ele>848.5007324</ele>
        <time>2016-08-12T12:22:44Z</time>
      </trkpt>
      <trkpt lat="44.32795" lon="6.13716">
        <ele>847.0588379</ele>
        <time>2016-08-12T12:22:46Z</time>
      </trkpt>
      <trkpt lat="44.32809" lon="6.13704">
        <ele>845.6169434</ele>
        <time>2016-08-12T12:22:48Z</time>
      </trkpt>
      <trkpt lat="44.32823" lon="6.13692">
        <ele>843.2133789</ele>
        <time>2016-08-12T12:22:50Z</time>
      </trkpt>
      <trkpt lat="44.3284" lon="6.13663">
        <ele>841.7714844</ele>
        <time>2016-08-12T12:22:53Z</time>
      </trkpt>
      <trkpt lat="44.32848" lon="6.13635">
        <ele>840.3295898</ele>
        <time>2016-08-12T12:22:55Z</time>
      </trkpt>
      <trkpt lat="44.3286" lon="6.13612">
        <ele>836.9648438</ele>
        <time>2016-08-12T12:22:57Z</time>
      </trkpt>
      <trkpt lat="44.32868" lon="6.13601">
        <ele>836.9648438</ele>
        <time>2016-08-12T12:22:58Z</time>
      </trkpt>
      <trkpt lat="44.32882" lon="6.13579">
        <ele>835.5229492</ele>
        <time>2016-08-12T12:23:00Z</time>
      </trkpt>
      <trkpt lat="44.32894" lon="6.13558">
        <ele>833.6003418</ele>
        <time>2016-08-12T12:23:02Z</time>
      </trkpt>
      <trkpt lat="44.32911" lon="6.13537">
        <ele>831.6777344</ele>
        <time>2016-08-12T12:23:04Z</time>
      </trkpt>
      <trkpt lat="44.32938" lon="6.13509">
        <ele>829.2744141</ele>
        <time>2016-08-12T12:23:07Z</time>
      </trkpt>
      <trkpt lat="44.32973" lon="6.13476">
        <ele>828.7939453</ele>
        <time>2016-08-12T12:23:12Z</time>
      </trkpt>
      <trkpt lat="44.32994" lon="6.13411">
        <ele>826.8710938</ele>
        <time>2016-08-12T12:23:20Z</time>
      </trkpt>
      <trkpt lat="44.32987" lon="6.13362">
        <ele>826.3903809</ele>
        <time>2016-08-12T12:23:25Z</time>
      </trkpt>
      <trkpt lat="44.32953" lon="6.1325">
        <ele>824.4677734</ele>
        <time>2016-08-12T12:23:39Z</time>
      </trkpt>
      <trkpt lat="44.3294" lon="6.13171">
        <ele>825.4289551</ele>
        <time>2016-08-12T12:23:53Z</time>
      </trkpt>
      <trkpt lat="44.32932" lon="6.13106">
        <ele>828.3132324</ele>
        <time>2016-08-12T12:24:13Z</time>
      </trkpt>
      <trkpt lat="44.32925" lon="6.1307">
        <ele>828.7939453</ele>
        <time>2016-08-12T12:24:25Z</time>
      </trkpt>
      <trkpt lat="44.32922" lon="6.13067">
        <ele>828.7939453</ele>
        <time>2016-08-12T12:24:39Z</time>
      </trkpt>
      <trkpt lat="44.32921" lon="6.13067">
        <ele>828.7939453</ele>
        <time>2016-08-12T12:24:58Z</time>
      </trkpt>
      <trkpt lat="44.32922" lon="6.13067">
        <ele>826.8710938</ele>
        <time>2016-08-12T12:25:07Z</time>
      </trkpt>
      <trkpt lat="44.32922" lon="6.13068">
        <ele>829.2744141</ele>
        <time>2016-08-12T12:25:31Z</time>
      </trkpt>
      <trkpt lat="44.32922" lon="6.13068">
        <ele>829.2744141</ele>
        <time>2016-08-12T12:25:35Z</time>
      </trkpt>
    </trkseg>
  </trk>
</gpx>